<?xml version='1.0' encoding='UTF-8'?><gpx version="1.1" creator="JPX - https://github.com/jenetics/jpx" xmlns="http://www.topografix.com/GPX/1/1"><trk><trkseg><trkpt lat="46.0304203" lon="11.8138332"><ele>1398.0</ele><time>2026-05-03T13:40:58.324Z</time></trkpt><trkpt lat="46.0304718" lon="11.8137683"><ele>1398.0</ele><time>2026-05-03T13:41:04.356Z</time></trkpt><trkpt lat="46.0305432" lon="11.8136122"><ele>1398.0</ele><time>2026-05-03T13:41:19.226Z</time></trkpt><trkpt lat="46.0305993" lon="11.8134889"><ele>1398.0</ele><time>2026-05-03T13:41:21.286Z</time></trkpt><trkpt lat="46.0306267" lon="11.8133907"><ele>1398.0</ele><time>2026-05-03T13:41:23.285Z</time></trkpt><trkpt lat="46.0306634" lon="11.8132607"><ele>1396.1666666666667</ele><time>2026-05-03T13:41:25.345Z</time></trkpt><trkpt lat="46.0306973" lon="11.8130978"><ele>1394.3333333333333</ele><time>2026-05-03T13:41:27.317Z</time></trkpt><trkpt lat="46.0307117" lon="11.8129839"><ele>1392.5</ele><time>2026-05-03T13:41:28.26Z</time></trkpt><trkpt lat="46.0307153" lon="11.8128811"><ele>1390.6666666666665</ele><time>2026-05-03T13:41:29.26Z</time></trkpt><trkpt lat="46.0307179" lon="11.8127877"><ele>1388.8333333333333</ele><time>2026-05-03T13:41:30.26Z</time></trkpt><trkpt lat="46.0307276" lon="11.8126955"><ele>1387.0</ele><time>2026-05-03T13:41:31.26Z</time></trkpt><trkpt lat="46.0307468" lon="11.8126069"><ele>1384.0</ele><time>2026-05-03T13:41:32.26Z</time></trkpt><trkpt lat="46.0307178" lon="11.8124359"><ele>1381.0</ele><time>2026-05-03T13:41:34.26Z</time></trkpt><trkpt lat="46.0306909" lon="11.8123022"><ele>1378.0</ele><time>2026-05-03T13:41:36.261Z</time></trkpt><trkpt lat="46.0306843" lon="11.8121839"><ele>1375.0</ele><time>2026-05-03T13:41:38.26Z</time></trkpt><trkpt lat="46.0306816" lon="11.8120789"><ele>1372.0</ele><time>2026-05-03T13:41:40.26Z</time></trkpt><trkpt lat="46.0306771" lon="11.8119763"><ele>1369.0</ele><time>2026-05-03T13:41:42.261Z</time></trkpt><trkpt lat="46.0306645" lon="11.8118437"><ele>1367.6666666666665</ele><time>2026-05-03T13:41:44.261Z</time></trkpt><trkpt lat="46.0306554" lon="11.811749"><ele>1366.3333333333333</ele><time>2026-05-03T13:41:46.26Z</time></trkpt><trkpt lat="46.0306634" lon="11.811625"><ele>1365.0</ele><time>2026-05-03T13:41:49.26Z</time></trkpt><trkpt lat="46.0306748" lon="11.8115086"><ele>1363.6666666666667</ele><time>2026-05-03T13:41:51.26Z</time></trkpt><trkpt lat="46.0306484" lon="11.8113392"><ele>1362.3333333333335</ele><time>2026-05-03T13:41:53.26Z</time></trkpt><trkpt lat="46.0306191" lon="11.8112532"><ele>1361.0</ele><time>2026-05-03T13:41:54.26Z</time></trkpt><trkpt lat="46.0305831" lon="11.8111761"><ele>1361.0</ele><time>2026-05-03T13:41:55.261Z</time></trkpt><trkpt lat="46.0305216" lon="11.8110394"><ele>1361.0</ele><time>2026-05-03T13:41:57.26Z</time></trkpt><trkpt lat="46.0304639" lon="11.8109516"><ele>1361.0</ele><time>2026-05-03T13:41:59.26Z</time></trkpt><trkpt lat="46.0304279" lon="11.8108563"><ele>1361.0</ele><time>2026-05-03T13:42:01.26Z</time></trkpt><trkpt lat="46.0303979" lon="11.8107571"><ele>1361.0</ele><time>2026-05-03T13:42:03.26Z</time></trkpt><trkpt lat="46.0303635" lon="11.8106075"><ele>1360.4</ele><time>2026-05-03T13:42:05.26Z</time></trkpt><trkpt lat="46.0303742" lon="11.8104642"><ele>1359.8</ele><time>2026-05-03T13:42:07.261Z</time></trkpt><trkpt lat="46.0303391" lon="11.8103353"><ele>1359.2</ele><time>2026-05-03T13:42:09.26Z</time></trkpt><trkpt lat="46.030254" lon="11.81022"><ele>1358.6000000000001</ele><time>2026-05-03T13:42:11.26Z</time></trkpt><trkpt lat="46.0302144" lon="11.8101327"><ele>1358.0</ele><time>2026-05-03T13:42:13.26Z</time></trkpt><trkpt lat="46.0302265" lon="11.8099782"><ele>1356.1666666666667</ele><time>2026-05-03T13:42:16.261Z</time></trkpt><trkpt lat="46.0303072" lon="11.8098678"><ele>1354.3333333333335</ele><time>2026-05-03T13:42:18.26Z</time></trkpt><trkpt lat="46.0303716" lon="11.8098071"><ele>1352.5</ele><time>2026-05-03T13:42:19.26Z</time></trkpt><trkpt lat="46.0304335" lon="11.8097337"><ele>1350.6666666666667</ele><time>2026-05-03T13:42:21.26Z</time></trkpt><trkpt lat="46.0304422" lon="11.8096256"><ele>1348.8333333333333</ele><time>2026-05-03T13:42:36.262Z</time></trkpt><trkpt lat="46.0304819" lon="11.8095363"><ele>1347.0</ele><time>2026-05-03T13:42:37.261Z</time></trkpt><trkpt lat="46.0305238" lon="11.8094452"><ele>1347.0</ele><time>2026-05-03T13:42:38.262Z</time></trkpt><trkpt lat="46.0305596" lon="11.8093686"><ele>1347.0</ele><time>2026-05-03T13:42:39.261Z</time></trkpt><trkpt lat="46.0305956" lon="11.8092205"><ele>1347.0</ele><time>2026-05-03T13:42:41.262Z</time></trkpt><trkpt lat="46.0306181" lon="11.8091344"><ele>1347.0</ele><time>2026-05-03T13:42:42.261Z</time></trkpt><trkpt lat="46.0306459" lon="11.8090509"><ele>1347.0</ele><time>2026-05-03T13:42:43.261Z</time></trkpt><trkpt lat="46.0306832" lon="11.808972"><ele>1347.0</ele><time>2026-05-03T13:42:44.261Z</time></trkpt><trkpt lat="46.0307142" lon="11.8088368"><ele>1342.5</ele><time>2026-05-03T13:42:46.261Z</time></trkpt><trkpt lat="46.0306939" lon="11.8087364"><ele>1338.0</ele><time>2026-05-03T13:42:48.261Z</time></trkpt><trkpt lat="46.0306123" lon="11.8086649"><ele>1333.5</ele><time>2026-05-03T13:42:50.261Z</time></trkpt><trkpt lat="46.0305495" lon="11.8085788"><ele>1329.0</ele><time>2026-05-03T13:42:52.261Z</time></trkpt><trkpt lat="46.0305131" lon="11.8085035"><ele>1324.5</ele><time>2026-05-03T13:42:55.261Z</time></trkpt><trkpt lat="46.030481" lon="11.8083905"><ele>1320.0</ele><time>2026-05-03T13:42:57.261Z</time></trkpt><trkpt lat="46.0304532" lon="11.8082943"><ele>1318.6666666666667</ele><time>2026-05-03T13:42:58.261Z</time></trkpt><trkpt lat="46.0304364" lon="11.8081721"><ele>1317.3333333333333</ele><time>2026-05-03T13:42:59.261Z</time></trkpt><trkpt lat="46.0304277" lon="11.8080659"><ele>1316.0</ele><time>2026-05-03T13:43:00.261Z</time></trkpt><trkpt lat="46.0303949" lon="11.8079278"><ele>1314.6666666666665</ele><time>2026-05-03T13:43:02.261Z</time></trkpt><trkpt lat="46.0303768" lon="11.8078147"><ele>1313.3333333333333</ele><time>2026-05-03T13:43:04.261Z</time></trkpt><trkpt lat="46.0303598" lon="11.8077188"><ele>1312.0</ele><time>2026-05-03T13:43:56.262Z</time></trkpt><trkpt lat="46.0303396" lon="11.8076209"><ele>1311.5</ele><time>2026-05-03T13:43:58.262Z</time></trkpt><trkpt lat="46.0303481" lon="11.8074785"><ele>1311.0</ele><time>2026-05-03T13:44:00.262Z</time></trkpt><trkpt lat="46.0304205" lon="11.8073503"><ele>1310.5</ele><time>2026-05-03T13:44:02.262Z</time></trkpt><trkpt lat="46.0304458" lon="11.8072623"><ele>1310.0</ele><time>2026-05-03T13:44:03.262Z</time></trkpt><trkpt lat="46.0304481" lon="11.8071699"><ele>1309.5</ele><time>2026-05-03T13:44:04.262Z</time></trkpt><trkpt lat="46.0304414" lon="11.8070655"><ele>1309.0</ele><time>2026-05-03T13:44:05.262Z</time></trkpt><trkpt lat="46.0304166" lon="11.8069258"><ele>1305.6666666666665</ele><time>2026-05-03T13:44:07.262Z</time></trkpt><trkpt lat="46.0303952" lon="11.8068189"><ele>1302.3333333333333</ele><time>2026-05-03T13:44:09.262Z</time></trkpt><trkpt lat="46.0303522" lon="11.8067233"><ele>1299.0</ele><time>2026-05-03T13:44:11.263Z</time></trkpt><trkpt lat="46.0303272" lon="11.806604"><ele>1295.6666666666667</ele><time>2026-05-03T13:44:13.262Z</time></trkpt><trkpt lat="46.0303287" lon="11.8065082"><ele>1292.3333333333335</ele><time>2026-05-03T13:44:14.262Z</time></trkpt><trkpt lat="46.0303291" lon="11.8064044"><ele>1289.0</ele><time>2026-05-03T13:44:15.262Z</time></trkpt><trkpt lat="46.0303156" lon="11.8062964"><ele>1289.0</ele><time>2026-05-03T13:44:16.262Z</time></trkpt><trkpt lat="46.0303088" lon="11.8061902"><ele>1289.0</ele><time>2026-05-03T13:44:17.262Z</time></trkpt><trkpt lat="46.0303016" lon="11.8060764"><ele>1289.0</ele><time>2026-05-03T13:44:18.262Z</time></trkpt><trkpt lat="46.0302866" lon="11.8059648"><ele>1289.0</ele><time>2026-05-03T13:44:19.262Z</time></trkpt><trkpt lat="46.030258" lon="11.8058714"><ele>1289.0</ele><time>2026-05-03T13:44:20.263Z</time></trkpt><trkpt lat="46.030231" lon="11.8057686"><ele>1289.0</ele><time>2026-05-03T13:44:21.262Z</time></trkpt><trkpt lat="46.0302214" lon="11.8056744"><ele>1289.0</ele><time>2026-05-03T13:44:22.262Z</time></trkpt><trkpt lat="46.030226" lon="11.8055519"><ele>1286.5714285714287</ele><time>2026-05-03T13:44:24.263Z</time></trkpt><trkpt lat="46.0302475" lon="11.8054603"><ele>1284.142857142857</ele><time>2026-05-03T13:44:26.262Z</time></trkpt><trkpt lat="46.0303058" lon="11.8053909"><ele>1281.7142857142858</ele><time>2026-05-03T13:44:28.262Z</time></trkpt><trkpt lat="46.0302951" lon="11.8052949"><ele>1279.2857142857142</ele><time>2026-05-03T13:44:30.262Z</time></trkpt><trkpt lat="46.0302936" lon="11.8052014"><ele>1276.857142857143</ele><time>2026-05-03T13:45:10.263Z</time></trkpt><trkpt lat="46.0302949" lon="11.805097"><ele>1274.4285714285713</ele><time>2026-05-03T13:45:12.263Z</time></trkpt><trkpt lat="46.0303693" lon="11.8050162"><ele>1272.0</ele><time>2026-05-03T13:45:14.263Z</time></trkpt><trkpt lat="46.030435" lon="11.8049586"><ele>1271.142857142857</ele><time>2026-05-03T13:45:16.263Z</time></trkpt><trkpt lat="46.0304379" lon="11.8048661"><ele>1270.2857142857144</ele><time>2026-05-03T13:45:19.263Z</time></trkpt><trkpt lat="46.0304532" lon="11.804774"><ele>1269.4285714285716</ele><time>2026-05-03T13:45:25.263Z</time></trkpt><trkpt lat="46.0304684" lon="11.8046721"><ele>1268.5714285714284</ele><time>2026-05-03T13:45:29.263Z</time></trkpt><trkpt lat="46.0303958" lon="11.8045633"><ele>1267.7142857142858</ele><time>2026-05-03T13:45:50.263Z</time></trkpt><trkpt lat="46.0303494" lon="11.8044902"><ele>1266.857142857143</ele><time>2026-05-03T13:45:52.263Z</time></trkpt><trkpt lat="46.0303941" lon="11.8044159"><ele>1266.0</ele><time>2026-05-03T13:45:55.264Z</time></trkpt><trkpt lat="46.030388" lon="11.8042797"><ele>1262.1666666666667</ele><time>2026-05-03T13:45:58.263Z</time></trkpt><trkpt lat="46.0303372" lon="11.8041937"><ele>1258.3333333333333</ele><time>2026-05-03T13:46:00.263Z</time></trkpt><trkpt lat="46.030304" lon="11.8041029"><ele>1254.5</ele><time>2026-05-03T13:46:02.263Z</time></trkpt><trkpt lat="46.0302665" lon="11.8040057"><ele>1250.6666666666665</ele><time>2026-05-03T13:46:04.263Z</time></trkpt><trkpt lat="46.030225" lon="11.8039168"><ele>1246.8333333333333</ele><time>2026-05-03T13:46:06.263Z</time></trkpt><trkpt lat="46.0301784" lon="11.8038511"><ele>1243.0</ele><time>2026-05-03T13:46:09.264Z</time></trkpt><trkpt lat="46.0301104" lon="11.8037202"><ele>1243.0</ele><time>2026-05-03T13:46:12.263Z</time></trkpt><trkpt lat="46.0300579" lon="11.8036272"><ele>1243.0</ele><time>2026-05-03T13:46:14.263Z</time></trkpt><trkpt lat="46.0300225" lon="11.8035507"><ele>1243.0</ele><time>2026-05-03T13:46:27.264Z</time></trkpt><trkpt lat="46.0299772" lon="11.8034747"><ele>1243.0</ele><time>2026-05-03T13:46:34.264Z</time></trkpt><trkpt lat="46.0299095" lon="11.8033565"><ele>1243.0</ele><time>2026-05-03T13:46:36.264Z</time></trkpt><trkpt lat="46.0298239" lon="11.8032547"><ele>1243.0</ele><time>2026-05-03T13:46:38.265Z</time></trkpt><trkpt lat="46.0297607" lon="11.803213"><ele>1233.0</ele><time>2026-05-03T13:46:44.264Z</time></trkpt><trkpt lat="46.0297206" lon="11.803141"><ele>1223.0</ele><time>2026-05-03T13:46:46.264Z</time></trkpt><trkpt lat="46.0296871" lon="11.8030488"><ele>1213.0</ele><time>2026-05-03T13:46:48.264Z</time></trkpt><trkpt lat="46.0296655" lon="11.8029068"><ele>1203.0</ele><time>2026-05-03T13:46:50.264Z</time></trkpt><trkpt lat="46.0296586" lon="11.8028149"><ele>1193.0</ele><time>2026-05-03T13:46:51.264Z</time></trkpt><trkpt lat="46.0296238" lon="11.8026766"><ele>1183.0</ele><time>2026-05-03T13:46:53.264Z</time></trkpt><trkpt lat="46.0295715" lon="11.8025875"><ele>1181.5</ele><time>2026-05-03T13:46:55.265Z</time></trkpt><trkpt lat="46.029607" lon="11.8024426"><ele>1180.0</ele><time>2026-05-03T13:46:58.264Z</time></trkpt><trkpt lat="46.0296178" lon="11.8023349"><ele>1178.5</ele><time>2026-05-03T13:47:01.264Z</time></trkpt><trkpt lat="46.0296121" lon="11.8022351"><ele>1177.0</ele><time>2026-05-03T13:47:12.264Z</time></trkpt><trkpt lat="46.0295909" lon="11.8021486"><ele>1175.5</ele><time>2026-05-03T13:47:14.264Z</time></trkpt><trkpt lat="46.0296017" lon="11.8020486"><ele>1174.0</ele><time>2026-05-03T13:47:16.264Z</time></trkpt><trkpt lat="46.0296004" lon="11.8019374"><ele>1171.5</ele><time>2026-05-03T13:47:18.264Z</time></trkpt><trkpt lat="46.0296106" lon="11.8018218"><ele>1169.0</ele><time>2026-05-03T13:47:20.265Z</time></trkpt><trkpt lat="46.0296378" lon="11.801658"><ele>1166.5</ele><time>2026-05-03T13:47:22.264Z</time></trkpt><trkpt lat="46.0296474" lon="11.8015625"><ele>1164.0</ele><time>2026-05-03T13:47:23.265Z</time></trkpt><trkpt lat="46.0296404" lon="11.8014671"><ele>1161.5</ele><time>2026-05-03T13:47:24.264Z</time></trkpt><trkpt lat="46.0296296" lon="11.8013727"><ele>1159.0</ele><time>2026-05-03T13:47:25.265Z</time></trkpt><trkpt lat="46.02957" lon="11.8012194"><ele>1159.0</ele><time>2026-05-03T13:47:27.265Z</time></trkpt><trkpt lat="46.029525" lon="11.8011513"><ele>1159.0</ele><time>2026-05-03T13:47:28.264Z</time></trkpt><trkpt lat="46.0294365" lon="11.8010995"><ele>1159.0</ele><time>2026-05-03T13:47:30.264Z</time></trkpt><trkpt lat="46.0293722" lon="11.8010805"><ele>1159.0</ele><time>2026-05-03T13:47:32.265Z</time></trkpt><trkpt lat="46.0293257" lon="11.801007"><ele>1159.0</ele><time>2026-05-03T13:47:34.265Z</time></trkpt><trkpt lat="46.0292902" lon="11.8008926"><ele>1159.0</ele><time>2026-05-03T13:47:36.265Z</time></trkpt><trkpt lat="46.029348" lon="11.800819"><ele>1155.8333333333333</ele><time>2026-05-03T13:47:38.264Z</time></trkpt><trkpt lat="46.0294041" lon="11.8007576"><ele>1152.6666666666665</ele><time>2026-05-03T13:47:40.265Z</time></trkpt><trkpt lat="46.0293394" lon="11.8006563"><ele>1149.5</ele><time>2026-05-03T13:47:43.265Z</time></trkpt><trkpt lat="46.0293449" lon="11.8005465"><ele>1146.3333333333333</ele><time>2026-05-03T13:47:46.265Z</time></trkpt><trkpt lat="46.0294338" lon="11.8004529"><ele>1143.1666666666667</ele><time>2026-05-03T13:47:48.265Z</time></trkpt><trkpt lat="46.0295023" lon="11.8003586"><ele>1140.0</ele><time>2026-05-03T13:47:50.266Z</time></trkpt><trkpt lat="46.0295487" lon="11.8002965"><ele>1140.0</ele><time>2026-05-03T13:47:52.265Z</time></trkpt><trkpt lat="46.0294993" lon="11.8002395"><ele>1140.0</ele><time>2026-05-03T13:49:29.266Z</time></trkpt><trkpt lat="46.029404" lon="11.8002507"><ele>1140.0</ele><time>2026-05-03T13:49:31.266Z</time></trkpt><trkpt lat="46.0293001" lon="11.8002203"><ele>1140.0</ele><time>2026-05-03T13:49:33.266Z</time></trkpt><trkpt lat="46.0292116" lon="11.8001833"><ele>1140.0</ele><time>2026-05-03T13:49:35.266Z</time></trkpt><trkpt lat="46.0292492" lon="11.8000994"><ele>1140.0</ele><time>2026-05-03T13:49:39.267Z</time></trkpt><trkpt lat="46.0291486" lon="11.8000268"><ele>1132.0</ele><time>2026-05-03T13:49:47.267Z</time></trkpt><trkpt lat="46.0290838" lon="11.8000086"><ele>1124.0</ele><time>2026-05-03T13:49:48.266Z</time></trkpt><trkpt lat="46.0290104" lon="11.7999772"><ele>1116.0</ele><time>2026-05-03T13:49:49.266Z</time></trkpt><trkpt lat="46.0289441" lon="11.7999386"><ele>1108.0</ele><time>2026-05-03T13:49:50.266Z</time></trkpt><trkpt lat="46.0288819" lon="11.7999053"><ele>1100.0</ele><time>2026-05-03T13:49:52.267Z</time></trkpt><trkpt lat="46.0288125" lon="11.7999546"><ele>1092.0</ele><time>2026-05-03T13:49:56.266Z</time></trkpt><trkpt lat="46.0287595" lon="11.8000292"><ele>1084.0</ele><time>2026-05-03T13:49:58.266Z</time></trkpt><trkpt lat="46.0287189" lon="11.8001904"><ele>1084.0</ele><time>2026-05-03T13:50:00.266Z</time></trkpt><trkpt lat="46.0286972" lon="11.8002943"><ele>1084.0</ele><time>2026-05-03T13:50:01.267Z</time></trkpt><trkpt lat="46.0286753" lon="11.8003897"><ele>1084.0</ele><time>2026-05-03T13:50:02.266Z</time></trkpt><trkpt lat="46.0286497" lon="11.8004788"><ele>1084.0</ele><time>2026-05-03T13:50:03.266Z</time></trkpt><trkpt lat="46.0286267" lon="11.8005661"><ele>1084.0</ele><time>2026-05-03T13:50:04.267Z</time></trkpt><trkpt lat="46.0286225" lon="11.8007431"><ele>1084.0</ele><time>2026-05-03T13:50:06.266Z</time></trkpt><trkpt lat="46.0286363" lon="11.8008543"><ele>1084.0</ele><time>2026-05-03T13:50:08.267Z</time></trkpt><trkpt lat="46.0286158" lon="11.800961"><ele>1084.0</ele><time>2026-05-03T13:50:19.267Z</time></trkpt><trkpt lat="46.0285603" lon="11.8008622"><ele>1084.0</ele><time>2026-05-03T13:50:35.268Z</time></trkpt><trkpt lat="46.0285181" lon="11.8007906"><ele>1084.0</ele><time>2026-05-03T13:50:36.268Z</time></trkpt><trkpt lat="46.0284498" lon="11.8006681"><ele>1084.0</ele><time>2026-05-03T13:50:38.267Z</time></trkpt><trkpt lat="46.0284284" lon="11.8005803"><ele>1084.0</ele><time>2026-05-03T13:50:40.267Z</time></trkpt><trkpt lat="46.0284512" lon="11.8004392"><ele>1084.0</ele><time>2026-05-03T13:50:42.268Z</time></trkpt><trkpt lat="46.0284561" lon="11.8003455"><ele>1084.0</ele><time>2026-05-03T13:50:43.267Z</time></trkpt><trkpt lat="46.0284481" lon="11.8002415"><ele>1084.0</ele><time>2026-05-03T13:50:44.267Z</time></trkpt><trkpt lat="46.0284378" lon="11.8001374"><ele>1084.0</ele><time>2026-05-03T13:50:45.267Z</time></trkpt><trkpt lat="46.0284401" lon="11.800028"><ele>1084.0</ele><time>2026-05-03T13:50:46.268Z</time></trkpt><trkpt lat="46.0284514" lon="11.799925"><ele>1084.0</ele><time>2026-05-03T13:50:47.267Z</time></trkpt><trkpt lat="46.0284707" lon="11.7998188"><ele>1084.0</ele><time>2026-05-03T13:50:48.267Z</time></trkpt><trkpt lat="46.0284649" lon="11.7997228"><ele>1082.8333333333333</ele><time>2026-05-03T13:50:49.267Z</time></trkpt><trkpt lat="46.0284471" lon="11.79961"><ele>1081.6666666666665</ele><time>2026-05-03T13:50:50.268Z</time></trkpt><trkpt lat="46.0284263" lon="11.79948"><ele>1080.5</ele><time>2026-05-03T13:50:51.267Z</time></trkpt><trkpt lat="46.0283982" lon="11.7993539"><ele>1079.3333333333333</ele><time>2026-05-03T13:50:52.268Z</time></trkpt><trkpt lat="46.0283768" lon="11.7992595"><ele>1078.1666666666667</ele><time>2026-05-03T13:50:53.267Z</time></trkpt><trkpt lat="46.0283953" lon="11.7991315"><ele>1077.0</ele><time>2026-05-03T13:50:55.267Z</time></trkpt><trkpt lat="46.0284766" lon="11.7990501"><ele>1074.8333333333333</ele><time>2026-05-03T13:50:57.268Z</time></trkpt><trkpt lat="46.0285342" lon="11.7989068"><ele>1072.6666666666667</ele><time>2026-05-03T13:50:59.267Z</time></trkpt><trkpt lat="46.0285317" lon="11.7987657"><ele>1070.5</ele><time>2026-05-03T13:51:01.267Z</time></trkpt><trkpt lat="46.0285033" lon="11.7986832"><ele>1068.3333333333335</ele><time>2026-05-03T13:51:02.267Z</time></trkpt><trkpt lat="46.0284596" lon="11.7985919"><ele>1066.1666666666667</ele><time>2026-05-03T13:51:03.267Z</time></trkpt><trkpt lat="46.0284085" lon="11.798482"><ele>1064.0</ele><time>2026-05-03T13:51:04.268Z</time></trkpt><trkpt lat="46.0283512" lon="11.7983953"><ele>1049.0</ele><time>2026-05-03T13:51:05.268Z</time></trkpt><trkpt lat="46.0282987" lon="11.7983193"><ele>1034.0</ele><time>2026-05-03T13:51:06.267Z</time></trkpt><trkpt lat="46.0282304" lon="11.7981946"><ele>1019.0000000000001</ele><time>2026-05-03T13:51:08.267Z</time></trkpt><trkpt lat="46.0281921" lon="11.7981156"><ele>1004.0</ele><time>2026-05-03T13:51:09.267Z</time></trkpt><trkpt lat="46.0281121" lon="11.797972"><ele>989.0</ele><time>2026-05-03T13:51:11.267Z</time></trkpt><trkpt lat="46.0280489" lon="11.7978604"><ele>989.0000000000001</ele><time>2026-05-03T13:51:13.267Z</time></trkpt><trkpt lat="46.0280302" lon="11.7977693"><ele>989.0</ele><time>2026-05-03T13:51:16.268Z</time></trkpt><trkpt lat="46.0280189" lon="11.7976721"><ele>989.0</ele><time>2026-05-03T13:51:19.268Z</time></trkpt><trkpt lat="46.0279951" lon="11.7975635"><ele>989.0</ele><time>2026-05-03T13:51:22.267Z</time></trkpt><trkpt lat="46.0279437" lon="11.7974531"><ele>989.0000000000001</ele><time>2026-05-03T13:51:24.267Z</time></trkpt><trkpt lat="46.0279095" lon="11.7972915"><ele>989.0</ele><time>2026-05-03T13:51:26.268Z</time></trkpt><trkpt lat="46.0278737" lon="11.7971499"><ele>987.6666666666667</ele><time>2026-05-03T13:51:28.268Z</time></trkpt><trkpt lat="46.0277967" lon="11.7970075"><ele>986.3333333333334</ele><time>2026-05-03T13:51:30.268Z</time></trkpt><trkpt lat="46.0277518" lon="11.7969327"><ele>985.0</ele><time>2026-05-03T13:51:31.268Z</time></trkpt><trkpt lat="46.0277148" lon="11.7968567"><ele>983.6666666666667</ele><time>2026-05-03T13:51:32.268Z</time></trkpt><trkpt lat="46.027662" lon="11.7967785"><ele>982.3333333333334</ele><time>2026-05-03T13:51:33.268Z</time></trkpt><trkpt lat="46.0276209" lon="11.7966331"><ele>981.0</ele><time>2026-05-03T13:51:35.268Z</time></trkpt><trkpt lat="46.0276194" lon="11.7965306"><ele>980.8333333333334</ele><time>2026-05-03T13:51:36.268Z</time></trkpt><trkpt lat="46.0276169" lon="11.7964302"><ele>980.6666666666667</ele><time>2026-05-03T13:51:37.268Z</time></trkpt><trkpt lat="46.027601" lon="11.7963025"><ele>980.5</ele><time>2026-05-03T13:51:38.268Z</time></trkpt><trkpt lat="46.027573" lon="11.7961603"><ele>980.3333333333334</ele><time>2026-05-03T13:51:39.269Z</time></trkpt><trkpt lat="46.0275552" lon="11.7960708"><ele>980.1666666666667</ele><time>2026-05-03T13:51:40.268Z</time></trkpt><trkpt lat="46.0275358" lon="11.7959674"><ele>980.0</ele><time>2026-05-03T13:51:42.268Z</time></trkpt><trkpt lat="46.0275083" lon="11.7958723"><ele>968.6666666666667</ele><time>2026-05-03T13:51:44.268Z</time></trkpt><trkpt lat="46.0274622" lon="11.7957594"><ele>957.3333333333334</ele><time>2026-05-03T13:51:46.268Z</time></trkpt><trkpt lat="46.0274109" lon="11.7956792"><ele>946.0</ele><time>2026-05-03T13:51:48.268Z</time></trkpt><trkpt lat="46.0273467" lon="11.7956206"><ele>934.6666666666667</ele><time>2026-05-03T13:51:50.268Z</time></trkpt><trkpt lat="46.0272858" lon="11.7955525"><ele>923.3333333333334</ele><time>2026-05-03T13:51:52.268Z</time></trkpt><trkpt lat="46.0272181" lon="11.7955108"><ele>912.0</ele><time>2026-05-03T13:51:54.269Z</time></trkpt><trkpt lat="46.0271427" lon="11.7954536"><ele>912.0</ele><time>2026-05-03T13:51:57.268Z</time></trkpt><trkpt lat="46.0270663" lon="11.7953468"><ele>912.0</ele><time>2026-05-03T13:51:59.268Z</time></trkpt><trkpt lat="46.0269907" lon="11.7952142"><ele>912.0</ele><time>2026-05-03T13:52:01.268Z</time></trkpt><trkpt lat="46.0269546" lon="11.7951145"><ele>912.0</ele><time>2026-05-03T13:52:03.268Z</time></trkpt><trkpt lat="46.0269017" lon="11.794999"><ele>912.0</ele><time>2026-05-03T13:52:12.268Z</time></trkpt><trkpt lat="46.0268166" lon="11.7948756"><ele>912.4000000000001</ele><time>2026-05-03T13:52:14.269Z</time></trkpt><trkpt lat="46.0267642" lon="11.7947497"><ele>912.8000000000001</ele><time>2026-05-03T13:52:16.268Z</time></trkpt><trkpt lat="46.0267487" lon="11.7946247"><ele>913.2</ele><time>2026-05-03T13:52:18.268Z</time></trkpt><trkpt lat="46.0267821" lon="11.7945024"><ele>913.6</ele><time>2026-05-03T13:52:20.268Z</time></trkpt><trkpt lat="46.0268395" lon="11.7944129"><ele>914.0</ele><time>2026-05-03T13:52:22.268Z</time></trkpt><trkpt lat="46.02677" lon="11.7943252"><ele>912.6666666666667</ele><time>2026-05-03T13:52:25.268Z</time></trkpt><trkpt lat="46.0267128" lon="11.7942469"><ele>911.3333333333334</ele><time>2026-05-03T13:54:45.271Z</time></trkpt><trkpt lat="46.0267756" lon="11.7941669"><ele>910.0</ele><time>2026-05-03T13:55:42.271Z</time></trkpt><trkpt lat="46.0268208" lon="11.7940654"><ele>908.6666666666667</ele><time>2026-05-03T13:55:44.271Z</time></trkpt><trkpt lat="46.0268882" lon="11.793984"><ele>907.3333333333334</ele><time>2026-05-03T13:55:46.271Z</time></trkpt><trkpt lat="46.0268314" lon="11.7938881"><ele>906.0</ele><time>2026-05-03T13:55:50.271Z</time></trkpt><trkpt lat="46.0267383" lon="11.7938681"><ele>906.0</ele><time>2026-05-03T13:55:52.271Z</time></trkpt><trkpt lat="46.0266701" lon="11.7938107"><ele>906.0</ele><time>2026-05-03T13:55:54.271Z</time></trkpt><trkpt lat="46.0265896" lon="11.7937955"><ele>906.0</ele><time>2026-05-03T13:55:57.271Z</time></trkpt><trkpt lat="46.0265795" lon="11.7937041"><ele>906.0</ele><time>2026-05-03T13:55:59.271Z</time></trkpt><trkpt lat="46.0266121" lon="11.7935316"><ele>906.0</ele><time>2026-05-03T13:56:01.272Z</time></trkpt><trkpt lat="46.0266259" lon="11.7934257"><ele>906.0</ele><time>2026-05-03T13:56:02.272Z</time></trkpt><trkpt lat="46.026619" lon="11.7932743"><ele>891.4</ele><time>2026-05-03T13:56:04.271Z</time></trkpt><trkpt lat="46.0265475" lon="11.793215"><ele>876.8</ele><time>2026-05-03T13:56:06.271Z</time></trkpt><trkpt lat="46.0264949" lon="11.7931046"><ele>862.1999999999999</ele><time>2026-05-03T13:56:08.271Z</time></trkpt><trkpt lat="46.026459" lon="11.7929434"><ele>847.5999999999999</ele><time>2026-05-03T13:56:10.271Z</time></trkpt><trkpt lat="46.0264303" lon="11.7928513"><ele>833.0</ele><time>2026-05-03T13:56:11.271Z</time></trkpt><trkpt lat="46.026385" lon="11.7927228"><ele>834.0</ele><time>2026-05-03T13:56:13.271Z</time></trkpt><trkpt lat="46.0263576" lon="11.7925661"><ele>835.0</ele><time>2026-05-03T13:56:15.271Z</time></trkpt><trkpt lat="46.0263465" lon="11.7924651"><ele>836.0</ele><time>2026-05-03T13:56:38.272Z</time></trkpt><trkpt lat="46.0263109" lon="11.7923449"><ele>837.0</ele><time>2026-05-03T13:57:11.272Z</time></trkpt><trkpt lat="46.0263342" lon="11.7922219"><ele>838.0</ele><time>2026-05-03T13:57:13.272Z</time></trkpt><trkpt lat="46.0262479" lon="11.7922493"><ele>837.9999999999999</ele><time>2026-05-03T13:57:17.272Z</time></trkpt><trkpt lat="46.0261943" lon="11.7923252"><ele>838.0</ele><time>2026-05-03T13:57:19.272Z</time></trkpt><trkpt lat="46.0261513" lon="11.7924769"><ele>838.0</ele><time>2026-05-03T13:57:22.272Z</time></trkpt><trkpt lat="46.0261317" lon="11.7926349"><ele>838.0</ele><time>2026-05-03T13:57:24.272Z</time></trkpt><trkpt lat="46.026128" lon="11.7927295"><ele>837.9999999999999</ele><time>2026-05-03T13:57:25.272Z</time></trkpt><trkpt lat="46.0261237" lon="11.7928225"><ele>838.0</ele><time>2026-05-03T13:57:26.272Z</time></trkpt><trkpt lat="46.0261005" lon="11.7929451"><ele>838.4999999999999</ele><time>2026-05-03T13:57:28.272Z</time></trkpt><trkpt lat="46.0260745" lon="11.7930692"><ele>839.0</ele><time>2026-05-03T13:57:30.272Z</time></trkpt><trkpt lat="46.0260696" lon="11.7931867"><ele>839.5</ele><time>2026-05-03T13:57:32.272Z</time></trkpt><trkpt lat="46.026063" lon="11.7933131"><ele>840.0</ele><time>2026-05-03T13:57:34.272Z</time></trkpt><trkpt lat="46.0260092" lon="11.7934325"><ele>840.4999999999999</ele><time>2026-05-03T13:57:37.273Z</time></trkpt><trkpt lat="46.025974" lon="11.7935293"><ele>841.0</ele><time>2026-05-03T13:57:39.272Z</time></trkpt><trkpt lat="46.02596" lon="11.7936482"><ele>840.9999999999999</ele><time>2026-05-03T13:57:41.272Z</time></trkpt><trkpt lat="46.02593" lon="11.7937514"><ele>841.0</ele><time>2026-05-03T13:57:43.272Z</time></trkpt><trkpt lat="46.0258903" lon="11.7938298"><ele>841.0</ele><time>2026-05-03T13:57:45.272Z</time></trkpt><trkpt lat="46.0258063" lon="11.7938881"><ele>841.0</ele><time>2026-05-03T13:57:47.272Z</time></trkpt><trkpt lat="46.0257366" lon="11.793938"><ele>840.9999999999999</ele><time>2026-05-03T13:57:49.272Z</time></trkpt><trkpt lat="46.0256671" lon="11.7939861"><ele>841.0</ele><time>2026-05-03T13:57:51.272Z</time></trkpt><trkpt lat="46.0256143" lon="11.7940448"><ele>832.2857142857143</ele><time>2026-05-03T13:57:53.274Z</time></trkpt><trkpt lat="46.0256109" lon="11.7941369"><ele>823.5714285714286</ele><time>2026-05-03T13:57:55.272Z</time></trkpt><trkpt lat="46.0255782" lon="11.794223"><ele>814.8571428571429</ele><time>2026-05-03T13:58:10.273Z</time></trkpt><trkpt lat="46.025524" lon="11.794277"><ele>806.1428571428571</ele><time>2026-05-03T13:58:12.272Z</time></trkpt><trkpt lat="46.0255055" lon="11.7943954"><ele>797.4285714285713</ele><time>2026-05-03T13:58:15.274Z</time></trkpt><trkpt lat="46.0254655" lon="11.7944676"><ele>788.7142857142857</ele><time>2026-05-03T13:58:17.273Z</time></trkpt><trkpt lat="46.0254178" lon="11.7945635"><ele>780.0</ele><time>2026-05-03T13:58:19.273Z</time></trkpt><trkpt lat="46.0254" lon="11.7946519"><ele>780.0</ele><time>2026-05-03T13:58:21.274Z</time></trkpt><trkpt lat="46.0253706" lon="11.7947351"><ele>780.0</ele><time>2026-05-03T13:58:23.273Z</time></trkpt><trkpt lat="46.0253465" lon="11.7948196"><ele>780.0</ele><time>2026-05-03T13:58:25.273Z</time></trkpt><trkpt lat="46.0253099" lon="11.7949265"><ele>780.0</ele><time>2026-05-03T13:58:28.274Z</time></trkpt><trkpt lat="46.0252894" lon="11.7950182"><ele>780.0</ele><time>2026-05-03T13:58:30.273Z</time></trkpt><trkpt lat="46.0252654" lon="11.7951211"><ele>780.0</ele><time>2026-05-03T13:58:32.273Z</time></trkpt><trkpt lat="46.0252287" lon="11.795239"><ele>780.0</ele><time>2026-05-03T13:58:35.273Z</time></trkpt><trkpt lat="46.0251981" lon="11.7953484"><ele>781.0</ele><time>2026-05-03T13:58:37.273Z</time></trkpt><trkpt lat="46.025164" lon="11.7954396"><ele>782.0</ele><time>2026-05-03T13:58:39.273Z</time></trkpt><trkpt lat="46.025138" lon="11.7955443"><ele>783.0</ele><time>2026-05-03T13:58:41.273Z</time></trkpt><trkpt lat="46.0250602" lon="11.7954817"><ele>784.0</ele><time>2026-05-03T13:59:51.274Z</time></trkpt><trkpt lat="46.025025" lon="11.7953792"><ele>785.0</ele><time>2026-05-03T13:59:53.274Z</time></trkpt><trkpt lat="46.0249805" lon="11.7952518"><ele>786.0</ele><time>2026-05-03T13:59:55.274Z</time></trkpt><trkpt lat="46.0249417" lon="11.7950999"><ele>778.1666666666666</ele><time>2026-05-03T13:59:57.274Z</time></trkpt><trkpt lat="46.0248922" lon="11.794981"><ele>770.3333333333334</ele><time>2026-05-03T13:59:59.274Z</time></trkpt><trkpt lat="46.0248526" lon="11.7948518"><ele>762.5</ele><time>2026-05-03T14:00:01.274Z</time></trkpt><trkpt lat="46.0248137" lon="11.7947439"><ele>754.6666666666667</ele><time>2026-05-03T14:00:03.274Z</time></trkpt><trkpt lat="46.0247674" lon="11.7946631"><ele>746.8333333333334</ele><time>2026-05-03T14:00:05.275Z</time></trkpt><trkpt lat="46.0247151" lon="11.7945835"><ele>739.0</ele><time>2026-05-03T14:00:07.274Z</time></trkpt><trkpt lat="46.0246799" lon="11.794482"><ele>739.0</ele><time>2026-05-03T14:00:09.274Z</time></trkpt><trkpt lat="46.0246543" lon="11.7943445"><ele>739.0</ele><time>2026-05-03T14:00:11.274Z</time></trkpt><trkpt lat="46.0246247" lon="11.7942482"><ele>739.0</ele><time>2026-05-03T14:00:13.274Z</time></trkpt><trkpt lat="46.0245732" lon="11.7941943"><ele>739.0</ele><time>2026-05-03T14:00:16.274Z</time></trkpt><trkpt lat="46.0245029" lon="11.794211"><ele>739.0</ele><time>2026-05-03T14:00:26.274Z</time></trkpt><trkpt lat="46.0244278" lon="11.7942665"><ele>739.0</ele><time>2026-05-03T14:00:32.274Z</time></trkpt><trkpt lat="46.0243734" lon="11.7943237"><ele>739.0</ele><time>2026-05-03T14:00:34.274Z</time></trkpt><trkpt lat="46.024321" lon="11.7944366"><ele>739.0</ele><time>2026-05-03T14:00:36.274Z</time></trkpt><trkpt lat="46.0242907" lon="11.7945371"><ele>739.0</ele><time>2026-05-03T14:00:37.274Z</time></trkpt><trkpt lat="46.024265" lon="11.7946386"><ele>739.0</ele><time>2026-05-03T14:00:38.274Z</time></trkpt><trkpt lat="46.0242414" lon="11.7947389"><ele>739.0</ele><time>2026-05-03T14:00:39.274Z</time></trkpt><trkpt lat="46.0242194" lon="11.7948492"><ele>739.0</ele><time>2026-05-03T14:00:40.275Z</time></trkpt><trkpt lat="46.0241937" lon="11.7949385"><ele>739.0</ele><time>2026-05-03T14:00:41.275Z</time></trkpt><trkpt lat="46.0241713" lon="11.7950287"><ele>739.0</ele><time>2026-05-03T14:00:42.275Z</time></trkpt><trkpt lat="46.0241257" lon="11.7951555"><ele>739.0</ele><time>2026-05-03T14:00:44.276Z</time></trkpt><trkpt lat="46.0240777" lon="11.7952843"><ele>739.0</ele><time>2026-05-03T14:00:46.274Z</time></trkpt><trkpt lat="46.0240208" lon="11.795376"><ele>739.0</ele><time>2026-05-03T14:00:48.275Z</time></trkpt><trkpt lat="46.0239427" lon="11.7953145"><ele>739.0</ele><time>2026-05-03T14:00:54.275Z</time></trkpt><trkpt lat="46.0239115" lon="11.7952296"><ele>739.0</ele><time>2026-05-03T14:00:55.276Z</time></trkpt><trkpt lat="46.0238789" lon="11.7951414"><ele>739.0</ele><time>2026-05-03T14:00:56.275Z</time></trkpt><trkpt lat="46.0238068" lon="11.7950105"><ele>739.0</ele><time>2026-05-03T14:00:58.275Z</time></trkpt><trkpt lat="46.0237647" lon="11.7948815"><ele>739.0</ele><time>2026-05-03T14:01:00.275Z</time></trkpt><trkpt lat="46.0237351" lon="11.7947051"><ele>739.0</ele><time>2026-05-03T14:01:02.275Z</time></trkpt><trkpt lat="46.0237132" lon="11.7945999"><ele>739.0</ele><time>2026-05-03T14:01:03.276Z</time></trkpt><trkpt lat="46.0236906" lon="11.7944991"><ele>739.0</ele><time>2026-05-03T14:01:04.275Z</time></trkpt><trkpt lat="46.0236627" lon="11.7943889"><ele>739.0</ele><time>2026-05-03T14:01:05.275Z</time></trkpt><trkpt lat="46.0236281" lon="11.7942889"><ele>739.0</ele><time>2026-05-03T14:01:06.275Z</time></trkpt><trkpt lat="46.0236066" lon="11.7941928"><ele>739.0</ele><time>2026-05-03T14:01:07.276Z</time></trkpt><trkpt lat="46.0235875" lon="11.7941063"><ele>739.0</ele><time>2026-05-03T14:01:08.275Z</time></trkpt><trkpt lat="46.0235729" lon="11.7939113"><ele>739.0</ele><time>2026-05-03T14:01:10.276Z</time></trkpt><trkpt lat="46.0235717" lon="11.7938016"><ele>739.0</ele><time>2026-05-03T14:01:11.275Z</time></trkpt><trkpt lat="46.0235704" lon="11.7936812"><ele>739.0</ele><time>2026-05-03T14:01:12.275Z</time></trkpt><trkpt lat="46.0235732" lon="11.7935569"><ele>739.0</ele><time>2026-05-03T14:01:13.275Z</time></trkpt><trkpt lat="46.0235791" lon="11.7934491"><ele>739.0</ele><time>2026-05-03T14:01:14.275Z</time></trkpt><trkpt lat="46.0235926" lon="11.7933385"><ele>739.0</ele><time>2026-05-03T14:01:15.275Z</time></trkpt><trkpt lat="46.0236223" lon="11.7931779"><ele>739.0</ele><time>2026-05-03T14:01:17.275Z</time></trkpt><trkpt lat="46.0236604" lon="11.793078"><ele>739.0</ele><time>2026-05-03T14:01:19.275Z</time></trkpt><trkpt lat="46.0236909" lon="11.7929495"><ele>739.0</ele><time>2026-05-03T14:01:21.275Z</time></trkpt><trkpt lat="46.0237163" lon="11.7928553"><ele>739.0</ele><time>2026-05-03T14:01:24.275Z</time></trkpt><trkpt lat="46.0237256" lon="11.7927262"><ele>739.0</ele><time>2026-05-03T14:01:28.275Z</time></trkpt><trkpt lat="46.0237245" lon="11.792609"><ele>739.0</ele><time>2026-05-03T14:01:30.276Z</time></trkpt><trkpt lat="46.0236852" lon="11.7925025"><ele>739.0</ele><time>2026-05-03T14:01:33.275Z</time></trkpt><trkpt lat="46.0236664" lon="11.7923865"><ele>739.0</ele><time>2026-05-03T14:01:36.275Z</time></trkpt><trkpt lat="46.0236369" lon="11.7922829"><ele>739.0</ele><time>2026-05-03T14:01:44.275Z</time></trkpt><trkpt lat="46.0236386" lon="11.7921554"><ele>739.0</ele><time>2026-05-03T14:01:46.275Z</time></trkpt><trkpt lat="46.0236479" lon="11.7919931"><ele>739.0</ele><time>2026-05-03T14:01:48.275Z</time></trkpt><trkpt lat="46.0236987" lon="11.7918752"><ele>739.0</ele><time>2026-05-03T14:01:50.275Z</time></trkpt><trkpt lat="46.0237406" lon="11.79176"><ele>739.0</ele><time>2026-05-03T14:01:52.276Z</time></trkpt><trkpt lat="46.0237414" lon="11.7916401"><ele>739.0</ele><time>2026-05-03T14:01:54.276Z</time></trkpt><trkpt lat="46.0236986" lon="11.791561"><ele>739.0</ele><time>2026-05-03T14:01:57.275Z</time></trkpt><trkpt lat="46.0237337" lon="11.7914855"><ele>739.0</ele><time>2026-05-03T14:02:01.275Z</time></trkpt><trkpt lat="46.0237944" lon="11.7914055"><ele>739.0</ele><time>2026-05-03T14:02:04.276Z</time></trkpt><trkpt lat="46.0238236" lon="11.7913217"><ele>712.1428571428571</ele><time>2026-05-03T14:02:07.277Z</time></trkpt><trkpt lat="46.0238125" lon="11.7912247"><ele>685.2857142857143</ele><time>2026-05-03T14:02:12.277Z</time></trkpt><trkpt lat="46.023838" lon="11.7911329"><ele>658.4285714285713</ele><time>2026-05-03T14:02:23.276Z</time></trkpt><trkpt lat="46.0238156" lon="11.7910382"><ele>631.5714285714286</ele><time>2026-05-03T14:02:28.276Z</time></trkpt><trkpt lat="46.0237366" lon="11.7910214"><ele>604.7142857142857</ele><time>2026-05-03T14:03:42.277Z</time></trkpt><trkpt lat="46.0236714" lon="11.7909821"><ele>577.8571428571428</ele><time>2026-05-03T14:03:48.277Z</time></trkpt><trkpt lat="46.023734" lon="11.790898"><ele>551.0</ele><time>2026-05-03T14:03:54.277Z</time></trkpt><trkpt lat="46.0237351" lon="11.7908026"><ele>550.9999999999999</ele><time>2026-05-03T14:03:59.278Z</time></trkpt><trkpt lat="46.0236646" lon="11.7907823"><ele>551.0</ele><time>2026-05-03T14:04:04.278Z</time></trkpt><trkpt lat="46.0236387" lon="11.7906985"><ele>551.0</ele><time>2026-05-03T14:04:08.277Z</time></trkpt><trkpt lat="46.0236528" lon="11.7906057"><ele>551.0</ele><time>2026-05-03T14:05:01.278Z</time></trkpt><trkpt lat="46.023592" lon="11.7905279"><ele>551.0</ele><time>2026-05-03T14:05:06.278Z</time></trkpt><trkpt lat="46.0235515" lon="11.7904517"><ele>550.9999999999999</ele><time>2026-05-03T14:05:09.278Z</time></trkpt><trkpt lat="46.0234888" lon="11.790394"><ele>551.0</ele><time>2026-05-03T14:05:12.279Z</time></trkpt><trkpt lat="46.0234411" lon="11.790469"><ele>551.0</ele><time>2026-05-03T14:05:15.278Z</time></trkpt><trkpt lat="46.0233861" lon="11.7905641"><ele>551.0</ele><time>2026-05-03T14:05:17.279Z</time></trkpt><trkpt lat="46.0233841" lon="11.7906774"><ele>551.0</ele><time>2026-05-03T14:05:21.278Z</time></trkpt><trkpt lat="46.0233441" lon="11.7907644"><ele>551.0</ele><time>2026-05-03T14:05:27.278Z</time></trkpt><trkpt lat="46.0233051" lon="11.7906897"><ele>551.0</ele><time>2026-05-03T14:05:30.279Z</time></trkpt><trkpt lat="46.0232688" lon="11.790579"><ele>551.0</ele><time>2026-05-03T14:05:33.278Z</time></trkpt><trkpt lat="46.0232092" lon="11.7905154"><ele>539.1666666666666</ele><time>2026-05-03T14:05:36.278Z</time></trkpt><trkpt lat="46.0231337" lon="11.7904886"><ele>527.3333333333333</ele><time>2026-05-03T14:05:38.278Z</time></trkpt><trkpt lat="46.0230929" lon="11.7905596"><ele>515.5</ele><time>2026-05-03T14:05:41.278Z</time></trkpt><trkpt lat="46.0230775" lon="11.7906783"><ele>503.66666666666663</ele><time>2026-05-03T14:05:44.279Z</time></trkpt><trkpt lat="46.023049" lon="11.7907978"><ele>491.8333333333333</ele><time>2026-05-03T14:05:48.279Z</time></trkpt><trkpt lat="46.0230273" lon="11.7909094"><ele>480.0</ele><time>2026-05-03T14:05:51.278Z</time></trkpt><trkpt lat="46.0229792" lon="11.7910004"><ele>476.8333333333333</ele><time>2026-05-03T14:05:54.279Z</time></trkpt><trkpt lat="46.0229366" lon="11.7911056"><ele>473.66666666666663</ele><time>2026-05-03T14:05:57.279Z</time></trkpt><trkpt lat="46.022887" lon="11.7911718"><ele>470.5</ele><time>2026-05-03T14:06:01.279Z</time></trkpt><trkpt lat="46.0228576" lon="11.7913084"><ele>467.3333333333333</ele><time>2026-05-03T14:06:04.279Z</time></trkpt><trkpt lat="46.0228301" lon="11.7914089"><ele>464.16666666666663</ele><time>2026-05-03T14:06:06.279Z</time></trkpt><trkpt lat="46.0228093" lon="11.7915078"><ele>461.0</ele><time>2026-05-03T14:06:08.279Z</time></trkpt><trkpt lat="46.0227918" lon="11.7916006"><ele>460.99999999999994</ele><time>2026-05-03T14:06:10.279Z</time></trkpt><trkpt lat="46.0227721" lon="11.7917234"><ele>461.0</ele><time>2026-05-03T14:06:12.279Z</time></trkpt><trkpt lat="46.0227624" lon="11.7918635"><ele>461.0</ele><time>2026-05-03T14:06:14.279Z</time></trkpt><trkpt lat="46.0227454" lon="11.791983"><ele>461.0</ele><time>2026-05-03T14:06:16.279Z</time></trkpt><trkpt lat="46.0227203" lon="11.7920994"><ele>460.99999999999994</ele><time>2026-05-03T14:06:19.279Z</time></trkpt><trkpt lat="46.0227239" lon="11.79221"><ele>461.0</ele><time>2026-05-03T14:07:29.28Z</time></trkpt><trkpt lat="46.0226891" lon="11.7923016"><ele>460.99999999999994</ele><time>2026-05-03T14:07:34.28Z</time></trkpt><trkpt lat="46.0226008" lon="11.7923431"><ele>461.0</ele><time>2026-05-03T14:07:37.28Z</time></trkpt><trkpt lat="46.0225626" lon="11.7924441"><ele>461.0</ele><time>2026-05-03T14:07:40.28Z</time></trkpt><trkpt lat="46.0225434" lon="11.7925346"><ele>461.0</ele><time>2026-05-03T14:07:42.28Z</time></trkpt><trkpt lat="46.0225247" lon="11.7926311"><ele>460.99999999999994</ele><time>2026-05-03T14:07:44.28Z</time></trkpt><trkpt lat="46.0225409" lon="11.7927456"><ele>461.0</ele><time>2026-05-03T14:07:46.28Z</time></trkpt><trkpt lat="46.022559" lon="11.7928507"><ele>461.0</ele><time>2026-05-03T14:07:48.281Z</time></trkpt><trkpt lat="46.022566" lon="11.7930041"><ele>461.0</ele><time>2026-05-03T14:07:50.28Z</time></trkpt><trkpt lat="46.0225649" lon="11.793099"><ele>461.0</ele><time>2026-05-03T14:07:51.28Z</time></trkpt><trkpt lat="46.0225586" lon="11.7932511"><ele>461.0</ele><time>2026-05-03T14:07:53.281Z</time></trkpt><trkpt lat="46.0225449" lon="11.7933923"><ele>461.0</ele><time>2026-05-03T14:07:55.28Z</time></trkpt><trkpt lat="46.022521" lon="11.7935356"><ele>444.49999999999994</ele><time>2026-05-03T14:07:57.28Z</time></trkpt><trkpt lat="46.0225117" lon="11.7936503"><ele>428.0</ele><time>2026-05-03T14:07:59.28Z</time></trkpt><trkpt lat="46.0224948" lon="11.793773"><ele>411.5</ele><time>2026-05-03T14:08:01.28Z</time></trkpt><trkpt lat="46.0224758" lon="11.7938624"><ele>395.0</ele><time>2026-05-03T14:08:03.28Z</time></trkpt><trkpt lat="46.0224352" lon="11.7939513"><ele>378.5</ele><time>2026-05-03T14:08:05.281Z</time></trkpt><trkpt lat="46.0223837" lon="11.7940323"><ele>362.0</ele><time>2026-05-03T14:08:07.28Z</time></trkpt><trkpt lat="46.0223255" lon="11.7941334"><ele>362.0</ele><time>2026-05-03T14:08:09.281Z</time></trkpt><trkpt lat="46.0222604" lon="11.7942055"><ele>362.0</ele><time>2026-05-03T14:08:11.28Z</time></trkpt><trkpt lat="46.0222134" lon="11.794287"><ele>362.0</ele><time>2026-05-03T14:08:13.281Z</time></trkpt><trkpt lat="46.0221574" lon="11.7943988"><ele>362.0</ele><time>2026-05-03T14:08:16.28Z</time></trkpt><trkpt lat="46.0220996" lon="11.7944892"><ele>362.0</ele><time>2026-05-03T14:08:20.281Z</time></trkpt><trkpt lat="46.0220452" lon="11.7945648"><ele>362.0</ele><time>2026-05-03T14:08:23.281Z</time></trkpt><trkpt lat="46.0220208" lon="11.7946693"><ele>362.2857142857143</ele><time>2026-05-03T14:08:50.281Z</time></trkpt><trkpt lat="46.0219754" lon="11.7947414"><ele>362.57142857142856</ele><time>2026-05-03T14:08:52.281Z</time></trkpt><trkpt lat="46.0219522" lon="11.7948287"><ele>362.8571428571429</ele><time>2026-05-03T14:08:54.281Z</time></trkpt><trkpt lat="46.0219154" lon="11.7949093"><ele>363.1428571428571</ele><time>2026-05-03T14:08:59.281Z</time></trkpt><trkpt lat="46.0218656" lon="11.7949847"><ele>363.42857142857144</ele><time>2026-05-03T14:09:06.281Z</time></trkpt><trkpt lat="46.0218577" lon="11.7950804"><ele>363.7142857142857</ele><time>2026-05-03T14:09:26.282Z</time></trkpt><trkpt lat="46.0218296" lon="11.7949928"><ele>364.0</ele><time>2026-05-03T14:09:28.282Z</time></trkpt><trkpt lat="46.0217951" lon="11.7948843"><ele>364.0</ele><time>2026-05-03T14:09:31.282Z</time></trkpt><trkpt lat="46.0217762" lon="11.7947893"><ele>364.0</ele><time>2026-05-03T14:09:34.282Z</time></trkpt><trkpt lat="46.0217576" lon="11.7946984"><ele>364.0</ele><time>2026-05-03T14:09:36.282Z</time></trkpt><trkpt lat="46.0217171" lon="11.7946214"><ele>364.0</ele><time>2026-05-03T14:09:39.282Z</time></trkpt><trkpt lat="46.0216646" lon="11.7945513"><ele>364.0</ele><time>2026-05-03T14:09:41.283Z</time></trkpt><trkpt lat="46.0216037" lon="11.7944853"><ele>364.0</ele><time>2026-05-03T14:09:43.282Z</time></trkpt><trkpt lat="46.0215297" lon="11.7944685"><ele>364.0</ele><time>2026-05-03T14:09:45.282Z</time></trkpt><trkpt lat="46.0214795" lon="11.7945315"><ele>360.8333333333333</ele><time>2026-05-03T14:09:47.282Z</time></trkpt><trkpt lat="46.0214178" lon="11.79465"><ele>357.66666666666663</ele><time>2026-05-03T14:09:49.282Z</time></trkpt><trkpt lat="46.0213712" lon="11.7947184"><ele>354.5</ele><time>2026-05-03T14:09:50.282Z</time></trkpt><trkpt lat="46.0213177" lon="11.794775"><ele>351.3333333333333</ele><time>2026-05-03T14:09:51.282Z</time></trkpt><trkpt lat="46.0212533" lon="11.7948278"><ele>348.1666666666667</ele><time>2026-05-03T14:09:52.282Z</time></trkpt><trkpt lat="46.0211874" lon="11.7948846"><ele>345.0</ele><time>2026-05-03T14:09:53.282Z</time></trkpt><trkpt lat="46.0211232" lon="11.7949397"><ele>345.0</ele><time>2026-05-03T14:09:54.282Z</time></trkpt><trkpt lat="46.0210089" lon="11.7950117"><ele>345.0</ele><time>2026-05-03T14:09:56.282Z</time></trkpt><trkpt lat="46.0209305" lon="11.7950295"><ele>345.0</ele><time>2026-05-03T14:09:58.282Z</time></trkpt><trkpt lat="46.0208679" lon="11.7950158"><ele>345.0</ele><time>2026-05-03T14:10:00.283Z</time></trkpt><trkpt lat="46.020803" lon="11.7950517"><ele>345.0</ele><time>2026-05-03T14:10:32.282Z</time></trkpt><trkpt lat="46.0207746" lon="11.7951546"><ele>345.0</ele><time>2026-05-03T14:10:35.282Z</time></trkpt><trkpt lat="46.0207419" lon="11.7952553"><ele>343.5</ele><time>2026-05-03T14:10:38.282Z</time></trkpt><trkpt lat="46.0207075" lon="11.7953333"><ele>342.0</ele><time>2026-05-03T14:10:40.282Z</time></trkpt><trkpt lat="46.0206697" lon="11.7954543"><ele>340.5</ele><time>2026-05-03T14:10:43.283Z</time></trkpt><trkpt lat="46.0206281" lon="11.795544"><ele>339.0</ele><time>2026-05-03T14:10:45.283Z</time></trkpt><trkpt lat="46.0205754" lon="11.7956367"><ele>337.5</ele><time>2026-05-03T14:10:47.283Z</time></trkpt><trkpt lat="46.0204983" lon="11.7957268"><ele>336.0</ele><time>2026-05-03T14:10:49.283Z</time></trkpt><trkpt lat="46.0204082" lon="11.7957949"><ele>336.0</ele><time>2026-05-03T14:10:51.283Z</time></trkpt><trkpt lat="46.020306" lon="11.7958451"><ele>336.0</ele><time>2026-05-03T14:10:53.283Z</time></trkpt><trkpt lat="46.0201947" lon="11.7958629"><ele>336.0</ele><time>2026-05-03T14:10:55.283Z</time></trkpt><trkpt lat="46.0200932" lon="11.7958446"><ele>336.0</ele><time>2026-05-03T14:10:57.283Z</time></trkpt><trkpt lat="46.0199891" lon="11.7958323"><ele>336.0</ele><time>2026-05-03T14:10:59.283Z</time></trkpt><trkpt lat="46.0199021" lon="11.7958469"><ele>335.20000000000005</ele><time>2026-05-03T14:11:01.283Z</time></trkpt><trkpt lat="46.0198173" lon="11.7959007"><ele>334.40000000000003</ele><time>2026-05-03T14:11:03.283Z</time></trkpt><trkpt lat="46.0197261" lon="11.7959867"><ele>333.6</ele><time>2026-05-03T14:11:05.283Z</time></trkpt><trkpt lat="46.0196607" lon="11.7961021"><ele>332.8</ele><time>2026-05-03T14:11:07.284Z</time></trkpt><trkpt lat="46.0196151" lon="11.7962439"><ele>332.0</ele><time>2026-05-03T14:11:09.283Z</time></trkpt><trkpt lat="46.0195753" lon="11.7963765"><ele>331.25</ele><time>2026-05-03T14:11:11.283Z</time></trkpt><trkpt lat="46.019509" lon="11.7965145"><ele>330.5</ele><time>2026-05-03T14:11:13.283Z</time></trkpt><trkpt lat="46.0194212" lon="11.7966093"><ele>329.75</ele><time>2026-05-03T14:11:15.283Z</time></trkpt><trkpt lat="46.0193205" lon="11.7967099"><ele>329.0</ele><time>2026-05-03T14:11:17.283Z</time></trkpt><trkpt lat="46.0192055" lon="11.7967889"><ele>328.6666666666667</ele><time>2026-05-03T14:11:19.283Z</time></trkpt><trkpt lat="46.019146" lon="11.7968235"><ele>328.33333333333337</ele><time>2026-05-03T14:11:20.283Z</time></trkpt><trkpt lat="46.019068" lon="11.7968528"><ele>328.0</ele><time>2026-05-03T14:11:22.283Z</time></trkpt><trkpt lat="46.0190039" lon="11.796911"><ele>327.6666666666667</ele><time>2026-05-03T14:11:24.283Z</time></trkpt><trkpt lat="46.0189209" lon="11.7969876"><ele>327.3333333333333</ele><time>2026-05-03T14:11:26.283Z</time></trkpt><trkpt lat="46.0188254" lon="11.7970327"><ele>327.0</ele><time>2026-05-03T14:11:28.283Z</time></trkpt><trkpt lat="46.0187212" lon="11.7970918"><ele>326.8333333333333</ele><time>2026-05-03T14:11:30.284Z</time></trkpt><trkpt lat="46.0186356" lon="11.7971596"><ele>326.6666666666667</ele><time>2026-05-03T14:11:32.283Z</time></trkpt><trkpt lat="46.0185791" lon="11.7972226"><ele>326.5</ele><time>2026-05-03T14:11:35.283Z</time></trkpt><trkpt lat="46.0185016" lon="11.7972703"><ele>326.33333333333337</ele><time>2026-05-03T14:11:39.283Z</time></trkpt><trkpt lat="46.0184414" lon="11.7973128"><ele>326.1666666666667</ele><time>2026-05-03T14:11:41.283Z</time></trkpt><trkpt lat="46.0183993" lon="11.7974156"><ele>326.0</ele><time>2026-05-03T14:11:43.283Z</time></trkpt><trkpt lat="46.0183714" lon="11.7975319"><ele>326.0</ele><time>2026-05-03T14:11:45.283Z</time></trkpt><trkpt lat="46.0183504" lon="11.7976559"><ele>326.0</ele><time>2026-05-03T14:11:47.283Z</time></trkpt><trkpt lat="46.0183258" lon="11.7978002"><ele>326.0</ele><time>2026-05-03T14:11:49.284Z</time></trkpt><trkpt lat="46.0183026" lon="11.7979515"><ele>326.0</ele><time>2026-05-03T14:11:51.284Z</time></trkpt><trkpt lat="46.0182754" lon="11.7981092"><ele>326.0</ele><time>2026-05-03T14:11:53.285Z</time></trkpt><trkpt lat="46.0182488" lon="11.798267"><ele>325.33333333333337</ele><time>2026-05-03T14:11:55.283Z</time></trkpt><trkpt lat="46.0182217" lon="11.7984145"><ele>324.6666666666667</ele><time>2026-05-03T14:11:57.283Z</time></trkpt><trkpt lat="46.0182022" lon="11.798508"><ele>324.0</ele><time>2026-05-03T14:11:58.283Z</time></trkpt><trkpt lat="46.0181843" lon="11.7986024"><ele>323.3333333333333</ele><time>2026-05-03T14:11:59.283Z</time></trkpt><trkpt lat="46.0181609" lon="11.7986893"><ele>322.66666666666663</ele><time>2026-05-03T14:12:00.283Z</time></trkpt><trkpt lat="46.0181076" lon="11.7988505"><ele>322.0</ele><time>2026-05-03T14:12:02.283Z</time></trkpt><trkpt lat="46.0180445" lon="11.7989922"><ele>322.0</ele><time>2026-05-03T14:12:04.284Z</time></trkpt><trkpt lat="46.0179953" lon="11.7991208"><ele>322.0</ele><time>2026-05-03T14:12:06.284Z</time></trkpt><trkpt lat="46.0179578" lon="11.7992429"><ele>322.0</ele><time>2026-05-03T14:12:08.284Z</time></trkpt><trkpt lat="46.0179063" lon="11.7994039"><ele>322.0</ele><time>2026-05-03T14:12:11.284Z</time></trkpt><trkpt lat="46.0178718" lon="11.7995091"><ele>322.0</ele><time>2026-05-03T14:12:13.285Z</time></trkpt><trkpt lat="46.0178455" lon="11.799598"><ele>322.0</ele><time>2026-05-03T14:12:15.284Z</time></trkpt><trkpt lat="46.0178219" lon="11.7997056"><ele>322.0</ele><time>2026-05-03T14:12:17.284Z</time></trkpt><trkpt lat="46.0177874" lon="11.7998047"><ele>322.0</ele><time>2026-05-03T14:12:19.284Z</time></trkpt><trkpt lat="46.0177571" lon="11.7999011"><ele>322.0</ele><time>2026-05-03T14:12:21.284Z</time></trkpt><trkpt lat="46.0177037" lon="11.7999738"><ele>322.0</ele><time>2026-05-03T14:12:23.285Z</time></trkpt><trkpt lat="46.0176502" lon="11.8000586"><ele>322.0</ele><time>2026-05-03T14:12:25.284Z</time></trkpt><trkpt lat="46.0175971" lon="11.8001389"><ele>322.0</ele><time>2026-05-03T14:12:27.284Z</time></trkpt><trkpt lat="46.017544" lon="11.8002053"><ele>322.0</ele><time>2026-05-03T14:12:29.284Z</time></trkpt><trkpt lat="46.0174898" lon="11.8002644"><ele>322.0</ele><time>2026-05-03T14:12:31.284Z</time></trkpt><trkpt lat="46.0174343" lon="11.8003192"><ele>322.0</ele><time>2026-05-03T14:12:33.284Z</time></trkpt><trkpt lat="46.0173755" lon="11.8003766"><ele>322.0</ele><time>2026-05-03T14:12:35.284Z</time></trkpt><trkpt lat="46.017294" lon="11.8004522"><ele>322.0</ele><time>2026-05-03T14:12:37.285Z</time></trkpt><trkpt lat="46.0172098" lon="11.8005426"><ele>322.0</ele><time>2026-05-03T14:12:39.285Z</time></trkpt><trkpt lat="46.0171379" lon="11.8006328"><ele>322.0</ele><time>2026-05-03T14:12:41.285Z</time></trkpt><trkpt lat="46.0170693" lon="11.8007018"><ele>322.0</ele><time>2026-05-03T14:12:43.285Z</time></trkpt><trkpt lat="46.0170257" lon="11.8008064"><ele>322.0</ele><time>2026-05-03T14:12:45.284Z</time></trkpt><trkpt lat="46.0169622" lon="11.8009007"><ele>322.0</ele><time>2026-05-03T14:12:47.285Z</time></trkpt><trkpt lat="46.016899" lon="11.8009948"><ele>322.0</ele><time>2026-05-03T14:12:49.284Z</time></trkpt><trkpt lat="46.0168416" lon="11.8010741"><ele>322.20000000000005</ele><time>2026-05-03T14:12:51.284Z</time></trkpt><trkpt lat="46.0168091" lon="11.8011866"><ele>322.4</ele><time>2026-05-03T14:12:53.284Z</time></trkpt><trkpt lat="46.0168003" lon="11.8013139"><ele>322.6</ele><time>2026-05-03T14:12:55.285Z</time></trkpt><trkpt lat="46.016814" lon="11.801444"><ele>322.79999999999995</ele><time>2026-05-03T14:12:57.284Z</time></trkpt><trkpt lat="46.0168237" lon="11.8015846"><ele>323.0</ele><time>2026-05-03T14:12:59.285Z</time></trkpt><trkpt lat="46.0168093" lon="11.8017377"><ele>321.75</ele><time>2026-05-03T14:13:01.284Z</time></trkpt><trkpt lat="46.0167576" lon="11.801889"><ele>320.5</ele><time>2026-05-03T14:13:03.284Z</time></trkpt><trkpt lat="46.016706" lon="11.8020404"><ele>319.25</ele><time>2026-05-03T14:13:05.285Z</time></trkpt><trkpt lat="46.0166642" lon="11.8021965"><ele>318.0</ele><time>2026-05-03T14:13:07.284Z</time></trkpt><trkpt lat="46.0166164" lon="11.8023515"><ele>318.0</ele><time>2026-05-03T14:13:09.284Z</time></trkpt><trkpt lat="46.0165638" lon="11.8024969"><ele>318.0</ele><time>2026-05-03T14:13:11.284Z</time></trkpt><trkpt lat="46.016516" lon="11.8026412"><ele>318.0</ele><time>2026-05-03T14:13:13.284Z</time></trkpt><trkpt lat="46.016472" lon="11.8027757"><ele>318.0</ele><time>2026-05-03T14:13:15.286Z</time></trkpt><trkpt lat="46.0164321" lon="11.8029105"><ele>318.0</ele><time>2026-05-03T14:13:17.285Z</time></trkpt><trkpt lat="46.0163887" lon="11.8030475"><ele>318.2</ele><time>2026-05-03T14:13:19.285Z</time></trkpt><trkpt lat="46.0163474" lon="11.8031857"><ele>318.4</ele><time>2026-05-03T14:13:21.285Z</time></trkpt><trkpt lat="46.0163027" lon="11.8033228"><ele>318.59999999999997</ele><time>2026-05-03T14:13:23.285Z</time></trkpt><trkpt lat="46.0162581" lon="11.8034603"><ele>318.8</ele><time>2026-05-03T14:13:25.286Z</time></trkpt><trkpt lat="46.0162176" lon="11.8035973"><ele>319.0</ele><time>2026-05-03T14:13:27.285Z</time></trkpt><trkpt lat="46.01618" lon="11.8037281"><ele>319.0</ele><time>2026-05-03T14:13:29.285Z</time></trkpt><trkpt lat="46.0161391" lon="11.8038635"><ele>319.0</ele><time>2026-05-03T14:13:31.285Z</time></trkpt><trkpt lat="46.0160956" lon="11.8039952"><ele>319.0</ele><time>2026-05-03T14:13:33.285Z</time></trkpt><trkpt lat="46.0160549" lon="11.8041245"><ele>319.0</ele><time>2026-05-03T14:13:35.286Z</time></trkpt><trkpt lat="46.0160149" lon="11.8042584"><ele>319.0</ele><time>2026-05-03T14:13:37.286Z</time></trkpt><trkpt lat="46.0159762" lon="11.8043924"><ele>319.0</ele><time>2026-05-03T14:13:39.285Z</time></trkpt><trkpt lat="46.0159346" lon="11.8045278"><ele>319.0</ele><time>2026-05-03T14:13:41.285Z</time></trkpt><trkpt lat="46.0158881" lon="11.8046568"><ele>319.0</ele><time>2026-05-03T14:13:43.285Z</time></trkpt><trkpt lat="46.0158488" lon="11.8047855"><ele>319.0</ele><time>2026-05-03T14:13:45.285Z</time></trkpt><trkpt lat="46.0158192" lon="11.8049179"><ele>319.0</ele><time>2026-05-03T14:13:47.285Z</time></trkpt><trkpt lat="46.0157845" lon="11.8050409"><ele>319.0</ele><time>2026-05-03T14:13:49.285Z</time></trkpt><trkpt lat="46.0157413" lon="11.8051621"><ele>319.0</ele><time>2026-05-03T14:13:51.285Z</time></trkpt><trkpt lat="46.0156969" lon="11.8052855"><ele>319.0</ele><time>2026-05-03T14:13:53.285Z</time></trkpt><trkpt lat="46.0156543" lon="11.8054103"><ele>319.0</ele><time>2026-05-03T14:13:55.285Z</time></trkpt><trkpt lat="46.0156169" lon="11.8055375"><ele>319.0</ele><time>2026-05-03T14:13:57.285Z</time></trkpt><trkpt lat="46.0155851" lon="11.8056578"><ele>319.16666666666663</ele><time>2026-05-03T14:13:59.285Z</time></trkpt><trkpt lat="46.0155487" lon="11.8057776"><ele>319.3333333333333</ele><time>2026-05-03T14:14:01.285Z</time></trkpt><trkpt lat="46.0155157" lon="11.8058918"><ele>319.5</ele><time>2026-05-03T14:14:03.285Z</time></trkpt><trkpt lat="46.0154815" lon="11.8060088"><ele>319.6666666666667</ele><time>2026-05-03T14:14:05.285Z</time></trkpt><trkpt lat="46.0154451" lon="11.806116"><ele>319.83333333333337</ele><time>2026-05-03T14:14:07.285Z</time></trkpt><trkpt lat="46.0154173" lon="11.8062238"><ele>320.0</ele><time>2026-05-03T14:14:09.285Z</time></trkpt><trkpt lat="46.0153864" lon="11.8063313"><ele>320.1666666666667</ele><time>2026-05-03T14:14:11.285Z</time></trkpt><trkpt lat="46.0153576" lon="11.8064315"><ele>320.33333333333337</ele><time>2026-05-03T14:14:13.286Z</time></trkpt><trkpt lat="46.0153283" lon="11.8065184"><ele>320.5</ele><time>2026-05-03T14:14:15.285Z</time></trkpt><trkpt lat="46.0153034" lon="11.806606"><ele>320.6666666666667</ele><time>2026-05-03T14:14:17.285Z</time></trkpt><trkpt lat="46.0152689" lon="11.8067111"><ele>320.8333333333333</ele><time>2026-05-03T14:14:19.286Z</time></trkpt><trkpt lat="46.0152321" lon="11.8068262"><ele>321.0</ele><time>2026-05-03T14:14:21.285Z</time></trkpt><trkpt lat="46.0151948" lon="11.8069444"><ele>321.1666666666667</ele><time>2026-05-03T14:14:23.286Z</time></trkpt><trkpt lat="46.0151596" lon="11.8070602"><ele>321.3333333333333</ele><time>2026-05-03T14:14:25.286Z</time></trkpt><trkpt lat="46.0151278" lon="11.8071777"><ele>321.5</ele><time>2026-05-03T14:14:27.285Z</time></trkpt><trkpt lat="46.0150934" lon="11.8072907"><ele>321.66666666666663</ele><time>2026-05-03T14:14:29.286Z</time></trkpt><trkpt lat="46.0150585" lon="11.8074021"><ele>321.8333333333333</ele><time>2026-05-03T14:14:31.285Z</time></trkpt><trkpt lat="46.0150241" lon="11.8075124"><ele>322.0</ele><time>2026-05-03T14:14:33.286Z</time></trkpt><trkpt lat="46.0149895" lon="11.8076239"><ele>321.66666666666663</ele><time>2026-05-03T14:14:35.286Z</time></trkpt><trkpt lat="46.0149577" lon="11.807741"><ele>321.3333333333333</ele><time>2026-05-03T14:14:37.287Z</time></trkpt><trkpt lat="46.0149216" lon="11.807855"><ele>321.0</ele><time>2026-05-03T14:14:39.286Z</time></trkpt><trkpt lat="46.0148869" lon="11.8079617"><ele>320.6666666666667</ele><time>2026-05-03T14:14:41.286Z</time></trkpt><trkpt lat="46.0148586" lon="11.8080599"><ele>320.33333333333337</ele><time>2026-05-03T14:14:43.286Z</time></trkpt><trkpt lat="46.0148304" lon="11.808181"><ele>320.0</ele><time>2026-05-03T14:14:46.286Z</time></trkpt><trkpt lat="46.0147896" lon="11.8082839"><ele>320.0</ele><time>2026-05-03T14:19:07.289Z</time></trkpt><trkpt lat="46.0147614" lon="11.8083716"><ele>320.0</ele><time>2026-05-03T14:19:09.289Z</time></trkpt><trkpt lat="46.0147291" lon="11.8084672"><ele>320.0</ele><time>2026-05-03T14:19:11.29Z</time></trkpt><trkpt lat="46.0146915" lon="11.8085731"><ele>320.0</ele><time>2026-05-03T14:19:13.289Z</time></trkpt><trkpt lat="46.0146576" lon="11.8086749"><ele>320.0</ele><time>2026-05-03T14:19:15.289Z</time></trkpt><trkpt lat="46.0146291" lon="11.8087762"><ele>320.0</ele><time>2026-05-03T14:19:17.289Z</time></trkpt><trkpt lat="46.0145903" lon="11.8088862"><ele>320.1666666666667</ele><time>2026-05-03T14:19:19.289Z</time></trkpt><trkpt lat="46.0145501" lon="11.8089883"><ele>320.33333333333337</ele><time>2026-05-03T14:19:21.289Z</time></trkpt><trkpt lat="46.0145203" lon="11.80909"><ele>320.5</ele><time>2026-05-03T14:19:23.29Z</time></trkpt><trkpt lat="46.0144888" lon="11.8091882"><ele>320.6666666666667</ele><time>2026-05-03T14:19:25.29Z</time></trkpt><trkpt lat="46.0144576" lon="11.8092865"><ele>320.8333333333333</ele><time>2026-05-03T14:19:27.29Z</time></trkpt><trkpt lat="46.0144256" lon="11.8093923"><ele>321.0</ele><time>2026-05-03T14:19:29.29Z</time></trkpt><trkpt lat="46.0143944" lon="11.8095093"><ele>321.20000000000005</ele><time>2026-05-03T14:19:31.29Z</time></trkpt><trkpt lat="46.0143617" lon="11.8096325"><ele>321.40000000000003</ele><time>2026-05-03T14:19:33.29Z</time></trkpt><trkpt lat="46.0143263" lon="11.8097595"><ele>321.6</ele><time>2026-05-03T14:19:35.29Z</time></trkpt><trkpt lat="46.014291" lon="11.8098826"><ele>321.8</ele><time>2026-05-03T14:19:37.29Z</time></trkpt><trkpt lat="46.014233" lon="11.8100459"><ele>322.0</ele><time>2026-05-03T14:19:40.291Z</time></trkpt><trkpt lat="46.0142028" lon="11.8101469"><ele>322.3333333333333</ele><time>2026-05-03T14:19:42.29Z</time></trkpt><trkpt lat="46.0141667" lon="11.8102633"><ele>322.66666666666663</ele><time>2026-05-03T14:19:44.29Z</time></trkpt><trkpt lat="46.0141252" lon="11.8103835"><ele>323.0</ele><time>2026-05-03T14:19:46.29Z</time></trkpt><trkpt lat="46.0140875" lon="11.8105035"><ele>323.3333333333333</ele><time>2026-05-03T14:19:48.29Z</time></trkpt><trkpt lat="46.014057" lon="11.810622"><ele>323.6666666666667</ele><time>2026-05-03T14:19:50.29Z</time></trkpt><trkpt lat="46.0140329" lon="11.8107321"><ele>324.0</ele><time>2026-05-03T14:19:52.29Z</time></trkpt><trkpt lat="46.0139946" lon="11.810851"><ele>322.2</ele><time>2026-05-03T14:19:54.291Z</time></trkpt><trkpt lat="46.0139568" lon="11.8109779"><ele>320.4</ele><time>2026-05-03T14:19:56.29Z</time></trkpt><trkpt lat="46.0139211" lon="11.8111039"><ele>318.6</ele><time>2026-05-03T14:19:58.29Z</time></trkpt><trkpt lat="46.0138816" lon="11.8112263"><ele>316.8</ele><time>2026-05-03T14:20:00.29Z</time></trkpt><trkpt lat="46.0138473" lon="11.8113453"><ele>315.0</ele><time>2026-05-03T14:20:02.29Z</time></trkpt><trkpt lat="46.0138113" lon="11.8114653"><ele>315.0</ele><time>2026-05-03T14:20:04.29Z</time></trkpt><trkpt lat="46.0137767" lon="11.8115866"><ele>315.0</ele><time>2026-05-03T14:20:06.29Z</time></trkpt><trkpt lat="46.0137406" lon="11.8117186"><ele>315.0</ele><time>2026-05-03T14:20:08.29Z</time></trkpt><trkpt lat="46.01371" lon="11.8118407"><ele>315.0</ele><time>2026-05-03T14:20:10.29Z</time></trkpt><trkpt lat="46.0136799" lon="11.8119496"><ele>315.0</ele><time>2026-05-03T14:20:12.29Z</time></trkpt><trkpt lat="46.0136456" lon="11.8120663"><ele>315.0</ele><time>2026-05-03T14:20:14.29Z</time></trkpt><trkpt lat="46.0136035" lon="11.8121916"><ele>315.8333333333333</ele><time>2026-05-03T14:20:16.29Z</time></trkpt><trkpt lat="46.0135684" lon="11.8123102"><ele>316.6666666666667</ele><time>2026-05-03T14:20:18.291Z</time></trkpt><trkpt lat="46.0135388" lon="11.8124345"><ele>317.5</ele><time>2026-05-03T14:20:20.291Z</time></trkpt><trkpt lat="46.0135096" lon="11.8125537"><ele>318.33333333333337</ele><time>2026-05-03T14:20:22.29Z</time></trkpt><trkpt lat="46.0134785" lon="11.8126701"><ele>319.1666666666667</ele><time>2026-05-03T14:20:24.29Z</time></trkpt><trkpt lat="46.0134427" lon="11.8127939"><ele>320.0</ele><time>2026-05-03T14:20:26.291Z</time></trkpt><trkpt lat="46.0134002" lon="11.81292"><ele>320.4</ele><time>2026-05-03T14:20:28.29Z</time></trkpt><trkpt lat="46.0133637" lon="11.8130321"><ele>320.8</ele><time>2026-05-03T14:20:30.29Z</time></trkpt><trkpt lat="46.0133184" lon="11.8131528"><ele>321.20000000000005</ele><time>2026-05-03T14:20:32.29Z</time></trkpt><trkpt lat="46.0132829" lon="11.8132838"><ele>321.6</ele><time>2026-05-03T14:20:34.291Z</time></trkpt><trkpt lat="46.0132513" lon="11.8134121"><ele>322.0</ele><time>2026-05-03T14:20:36.291Z</time></trkpt><trkpt lat="46.0132141" lon="11.8135321"><ele>321.0</ele><time>2026-05-03T14:20:38.291Z</time></trkpt><trkpt lat="46.0131781" lon="11.8136502"><ele>320.0</ele><time>2026-05-03T14:20:40.291Z</time></trkpt><trkpt lat="46.0131424" lon="11.8137697"><ele>319.0</ele><time>2026-05-03T14:20:42.292Z</time></trkpt><trkpt lat="46.0131047" lon="11.8139014"><ele>318.0</ele><time>2026-05-03T14:20:44.291Z</time></trkpt><trkpt lat="46.0130728" lon="11.8140286"><ele>317.0</ele><time>2026-05-03T14:20:46.291Z</time></trkpt><trkpt lat="46.0130377" lon="11.8141512"><ele>317.0</ele><time>2026-05-03T14:20:48.291Z</time></trkpt><trkpt lat="46.0129987" lon="11.8142743"><ele>317.0</ele><time>2026-05-03T14:20:50.291Z</time></trkpt><trkpt lat="46.0129614" lon="11.8143881"><ele>317.0</ele><time>2026-05-03T14:20:52.291Z</time></trkpt><trkpt lat="46.0129247" lon="11.8145096"><ele>317.0</ele><time>2026-05-03T14:20:54.291Z</time></trkpt><trkpt lat="46.0128859" lon="11.8146293"><ele>317.0</ele><time>2026-05-03T14:20:56.291Z</time></trkpt><trkpt lat="46.0128414" lon="11.8147401"><ele>317.2</ele><time>2026-05-03T14:20:58.291Z</time></trkpt><trkpt lat="46.0128048" lon="11.8148663"><ele>317.4</ele><time>2026-05-03T14:21:00.291Z</time></trkpt><trkpt lat="46.0127636" lon="11.8149965"><ele>317.6</ele><time>2026-05-03T14:21:02.291Z</time></trkpt><trkpt lat="46.012714" lon="11.8151438"><ele>317.8</ele><time>2026-05-03T14:21:04.291Z</time></trkpt><trkpt lat="46.0126691" lon="11.8152803"><ele>318.0</ele><time>2026-05-03T14:21:06.291Z</time></trkpt><trkpt lat="46.0126247" lon="11.8154251"><ele>318.0</ele><time>2026-05-03T14:21:08.291Z</time></trkpt><trkpt lat="46.0125869" lon="11.8155628"><ele>318.0</ele><time>2026-05-03T14:21:10.292Z</time></trkpt><trkpt lat="46.0125481" lon="11.8157021"><ele>318.0</ele><time>2026-05-03T14:21:12.292Z</time></trkpt><trkpt lat="46.0124997" lon="11.8158436"><ele>318.0</ele><time>2026-05-03T14:21:14.291Z</time></trkpt><trkpt lat="46.0124524" lon="11.8159888"><ele>318.0</ele><time>2026-05-03T14:21:16.291Z</time></trkpt><trkpt lat="46.0124066" lon="11.8161294"><ele>318.0</ele><time>2026-05-03T14:21:18.291Z</time></trkpt><trkpt lat="46.0123557" lon="11.8162613"><ele>318.0</ele><time>2026-05-03T14:21:20.291Z</time></trkpt><trkpt lat="46.0123071" lon="11.8163995"><ele>318.0</ele><time>2026-05-03T14:21:22.291Z</time></trkpt><trkpt lat="46.012257" lon="11.8165428"><ele>318.0</ele><time>2026-05-03T14:21:24.292Z</time></trkpt><trkpt lat="46.0122048" lon="11.8166849"><ele>318.0</ele><time>2026-05-03T14:21:26.291Z</time></trkpt><trkpt lat="46.0121479" lon="11.8168303"><ele>319.0</ele><time>2026-05-03T14:21:28.291Z</time></trkpt><trkpt lat="46.0120965" lon="11.8169826"><ele>320.0</ele><time>2026-05-03T14:21:30.291Z</time></trkpt><trkpt lat="46.0120346" lon="11.8171344"><ele>321.0</ele><time>2026-05-03T14:21:32.291Z</time></trkpt><trkpt lat="46.0119667" lon="11.8172808"><ele>322.0</ele><time>2026-05-03T14:21:34.291Z</time></trkpt><trkpt lat="46.0118989" lon="11.8174354"><ele>322.0</ele><time>2026-05-03T14:21:36.291Z</time></trkpt><trkpt lat="46.0118359" lon="11.8175819"><ele>322.0</ele><time>2026-05-03T14:21:38.292Z</time></trkpt><trkpt lat="46.0118031" lon="11.8176638"><ele>322.0</ele><time>2026-05-03T14:21:39.291Z</time></trkpt><trkpt lat="46.0117412" lon="11.817815"><ele>322.0</ele><time>2026-05-03T14:21:41.291Z</time></trkpt><trkpt lat="46.0117063" lon="11.8178934"><ele>322.0</ele><time>2026-05-03T14:21:42.291Z</time></trkpt><trkpt lat="46.0116429" lon="11.8180417"><ele>320.75</ele><time>2026-05-03T14:21:44.291Z</time></trkpt><trkpt lat="46.0115767" lon="11.8181927"><ele>319.5</ele><time>2026-05-03T14:21:46.291Z</time></trkpt><trkpt lat="46.0115206" lon="11.8183414"><ele>318.25</ele><time>2026-05-03T14:21:48.292Z</time></trkpt><trkpt lat="46.0114596" lon="11.8184942"><ele>317.0</ele><time>2026-05-03T14:21:50.292Z</time></trkpt><trkpt lat="46.0113966" lon="11.8186457"><ele>316.5</ele><time>2026-05-03T14:21:52.292Z</time></trkpt><trkpt lat="46.0113382" lon="11.8187998"><ele>316.0</ele><time>2026-05-03T14:21:54.293Z</time></trkpt><trkpt lat="46.0113004" lon="11.8188749"><ele>315.5</ele><time>2026-05-03T14:21:55.292Z</time></trkpt><trkpt lat="46.0112658" lon="11.8189514"><ele>315.0</ele><time>2026-05-03T14:21:56.293Z</time></trkpt><trkpt lat="46.0112005" lon="11.8190986"><ele>314.5</ele><time>2026-05-03T14:21:58.292Z</time></trkpt><trkpt lat="46.011167" lon="11.8191801"><ele>314.0</ele><time>2026-05-03T14:21:59.293Z</time></trkpt><trkpt lat="46.0111168" lon="11.8193466"><ele>314.0</ele><time>2026-05-03T14:22:01.292Z</time></trkpt><trkpt lat="46.0110888" lon="11.8194327"><ele>314.0</ele><time>2026-05-03T14:22:02.292Z</time></trkpt><trkpt lat="46.0110646" lon="11.8195179"><ele>314.0</ele><time>2026-05-03T14:22:03.292Z</time></trkpt><trkpt lat="46.011011" lon="11.8196848"><ele>314.0</ele><time>2026-05-03T14:22:05.293Z</time></trkpt><trkpt lat="46.0109861" lon="11.8197686"><ele>314.0</ele><time>2026-05-03T14:22:06.292Z</time></trkpt><trkpt lat="46.0109642" lon="11.8198549"><ele>314.0</ele><time>2026-05-03T14:22:07.292Z</time></trkpt><trkpt lat="46.0109235" lon="11.820027"><ele>313.99999999999994</ele><time>2026-05-03T14:22:09.292Z</time></trkpt><trkpt lat="46.0109083" lon="11.8201157"><ele>314.0</ele><time>2026-05-03T14:22:10.292Z</time></trkpt><trkpt lat="46.010891" lon="11.8202095"><ele>314.0</ele><time>2026-05-03T14:22:11.293Z</time></trkpt><trkpt lat="46.0108773" lon="11.820302"><ele>314.0</ele><time>2026-05-03T14:22:12.292Z</time></trkpt><trkpt lat="46.0108627" lon="11.8203947"><ele>314.0</ele><time>2026-05-03T14:22:13.292Z</time></trkpt><trkpt lat="46.0108517" lon="11.820485"><ele>313.99999999999994</ele><time>2026-05-03T14:22:14.292Z</time></trkpt><trkpt lat="46.0108417" lon="11.8205785"><ele>314.0</ele><time>2026-05-03T14:22:15.292Z</time></trkpt><trkpt lat="46.0108286" lon="11.8207576"><ele>312.4285714285714</ele><time>2026-05-03T14:22:17.292Z</time></trkpt><trkpt lat="46.0108239" lon="11.8208515"><ele>310.85714285714283</ele><time>2026-05-03T14:22:18.292Z</time></trkpt><trkpt lat="46.0108161" lon="11.8209445"><ele>309.2857142857143</ele><time>2026-05-03T14:22:19.292Z</time></trkpt><trkpt lat="46.0108111" lon="11.8210358"><ele>307.71428571428567</ele><time>2026-05-03T14:22:20.292Z</time></trkpt><trkpt lat="46.0108058" lon="11.8211278"><ele>306.1428571428571</ele><time>2026-05-03T14:22:21.292Z</time></trkpt><trkpt lat="46.0108016" lon="11.8213036"><ele>304.57142857142856</ele><time>2026-05-03T14:22:23.292Z</time></trkpt><trkpt lat="46.010803" lon="11.821396"><ele>303.0</ele><time>2026-05-03T14:22:24.292Z</time></trkpt><trkpt lat="46.0108048" lon="11.8214875"><ele>303.0</ele><time>2026-05-03T14:22:25.292Z</time></trkpt><trkpt lat="46.0108055" lon="11.8216638"><ele>303.0</ele><time>2026-05-03T14:22:27.292Z</time></trkpt><trkpt lat="46.010809" lon="11.8217547"><ele>303.0</ele><time>2026-05-03T14:22:28.292Z</time></trkpt><trkpt lat="46.0108124" lon="11.8218518"><ele>303.0</ele><time>2026-05-03T14:22:29.292Z</time></trkpt><trkpt lat="46.0108175" lon="11.8219435"><ele>303.0</ele><time>2026-05-03T14:22:30.292Z</time></trkpt><trkpt lat="46.0108205" lon="11.8220341"><ele>303.0</ele><time>2026-05-03T14:22:31.292Z</time></trkpt><trkpt lat="46.0108223" lon="11.822211"><ele>303.0</ele><time>2026-05-03T14:22:33.292Z</time></trkpt><trkpt lat="46.0108187" lon="11.8223951"><ele>303.0</ele><time>2026-05-03T14:22:35.292Z</time></trkpt><trkpt lat="46.0108103" lon="11.8224879"><ele>303.0</ele><time>2026-05-03T14:22:36.292Z</time></trkpt><trkpt lat="46.010787" lon="11.8226519"><ele>303.0</ele><time>2026-05-03T14:22:38.292Z</time></trkpt><trkpt lat="46.0107678" lon="11.8227997"><ele>303.0</ele><time>2026-05-03T14:22:40.292Z</time></trkpt><trkpt lat="46.0107417" lon="11.8229485"><ele>302.5</ele><time>2026-05-03T14:22:42.292Z</time></trkpt><trkpt lat="46.0107215" lon="11.8231062"><ele>302.0</ele><time>2026-05-03T14:22:44.292Z</time></trkpt><trkpt lat="46.0107017" lon="11.8232552"><ele>301.5</ele><time>2026-05-03T14:22:46.292Z</time></trkpt><trkpt lat="46.0106766" lon="11.8234132"><ele>301.0</ele><time>2026-05-03T14:22:48.292Z</time></trkpt><trkpt lat="46.0106431" lon="11.8235831"><ele>302.0</ele><time>2026-05-03T14:22:50.292Z</time></trkpt><trkpt lat="46.0106178" lon="11.8237578"><ele>303.0</ele><time>2026-05-03T14:22:52.293Z</time></trkpt><trkpt lat="46.0105915" lon="11.8239212"><ele>304.0</ele><time>2026-05-03T14:22:54.292Z</time></trkpt><trkpt lat="46.0105644" lon="11.8240866"><ele>305.0</ele><time>2026-05-03T14:22:56.292Z</time></trkpt><trkpt lat="46.0105318" lon="11.8242495"><ele>305.0</ele><time>2026-05-03T14:22:58.294Z</time></trkpt><trkpt lat="46.0105015" lon="11.8244129"><ele>305.0</ele><time>2026-05-03T14:23:00.292Z</time></trkpt><trkpt lat="46.0104954" lon="11.8245865"><ele>305.0</ele><time>2026-05-03T14:23:02.292Z</time></trkpt><trkpt lat="46.0104874" lon="11.8247419"><ele>305.0</ele><time>2026-05-03T14:23:04.293Z</time></trkpt><trkpt lat="46.0104551" lon="11.8249085"><ele>305.0</ele><time>2026-05-03T14:23:06.293Z</time></trkpt><trkpt lat="46.0104271" lon="11.8250727"><ele>305.0</ele><time>2026-05-03T14:23:08.293Z</time></trkpt><trkpt lat="46.0103978" lon="11.8252398"><ele>305.0</ele><time>2026-05-03T14:23:10.293Z</time></trkpt><trkpt lat="46.0103836" lon="11.8253287"><ele>305.0</ele><time>2026-05-03T14:23:11.293Z</time></trkpt><trkpt lat="46.0103555" lon="11.8254953"><ele>305.0</ele><time>2026-05-03T14:23:13.293Z</time></trkpt><trkpt lat="46.0103269" lon="11.8256622"><ele>305.5</ele><time>2026-05-03T14:23:15.293Z</time></trkpt><trkpt lat="46.0102891" lon="11.8258307"><ele>306.0</ele><time>2026-05-03T14:23:17.293Z</time></trkpt><trkpt lat="46.0102478" lon="11.8259938"><ele>306.5</ele><time>2026-05-03T14:23:19.294Z</time></trkpt><trkpt lat="46.0102045" lon="11.8261595"><ele>307.0</ele><time>2026-05-03T14:23:21.293Z</time></trkpt><trkpt lat="46.0101612" lon="11.8263165"><ele>307.0</ele><time>2026-05-03T14:23:23.293Z</time></trkpt><trkpt lat="46.0101126" lon="11.8264813"><ele>307.0</ele><time>2026-05-03T14:23:25.293Z</time></trkpt><trkpt lat="46.010063" lon="11.8266482"><ele>307.0</ele><time>2026-05-03T14:23:27.293Z</time></trkpt><trkpt lat="46.0100373" lon="11.8267343"><ele>307.0</ele><time>2026-05-03T14:23:28.293Z</time></trkpt><trkpt lat="46.009998" lon="11.8268952"><ele>307.0</ele><time>2026-05-03T14:23:30.293Z</time></trkpt><trkpt lat="46.0099616" lon="11.8270534"><ele>307.0</ele><time>2026-05-03T14:23:32.293Z</time></trkpt><trkpt lat="46.0099249" lon="11.8272074"><ele>307.0</ele><time>2026-05-03T14:23:34.293Z</time></trkpt><trkpt lat="46.0098875" lon="11.8273674"><ele>307.0</ele><time>2026-05-03T14:23:36.293Z</time></trkpt><trkpt lat="46.0098533" lon="11.8275366"><ele>307.0</ele><time>2026-05-03T14:23:38.293Z</time></trkpt><trkpt lat="46.0098324" lon="11.827704"><ele>307.0</ele><time>2026-05-03T14:23:40.293Z</time></trkpt><trkpt lat="46.0098144" lon="11.8278691"><ele>307.0</ele><time>2026-05-03T14:23:42.293Z</time></trkpt><trkpt lat="46.0098064" lon="11.8280355"><ele>307.0</ele><time>2026-05-03T14:23:44.293Z</time></trkpt><trkpt lat="46.0097965" lon="11.8282072"><ele>307.0</ele><time>2026-05-03T14:23:46.293Z</time></trkpt><trkpt lat="46.0097914" lon="11.8282985"><ele>307.0</ele><time>2026-05-03T14:23:47.293Z</time></trkpt><trkpt lat="46.0097892" lon="11.8284688"><ele>307.0</ele><time>2026-05-03T14:23:49.293Z</time></trkpt><trkpt lat="46.0097903" lon="11.8286346"><ele>307.0</ele><time>2026-05-03T14:23:51.293Z</time></trkpt><trkpt lat="46.0097849" lon="11.8288011"><ele>307.0</ele><time>2026-05-03T14:23:53.293Z</time></trkpt><trkpt lat="46.0097805" lon="11.8289772"><ele>307.0</ele><time>2026-05-03T14:23:55.293Z</time></trkpt><trkpt lat="46.0097711" lon="11.8291422"><ele>307.0</ele><time>2026-05-03T14:23:57.294Z</time></trkpt><trkpt lat="46.0097737" lon="11.8292394"><ele>307.0</ele><time>2026-05-03T14:23:58.293Z</time></trkpt><trkpt lat="46.0097732" lon="11.8294154"><ele>307.0</ele><time>2026-05-03T14:24:00.293Z</time></trkpt><trkpt lat="46.0097658" lon="11.8295856"><ele>307.0</ele><time>2026-05-03T14:24:02.293Z</time></trkpt><trkpt lat="46.0097531" lon="11.8297568"><ele>307.0</ele><time>2026-05-03T14:24:04.293Z</time></trkpt><trkpt lat="46.0097224" lon="11.8299182"><ele>307.6</ele><time>2026-05-03T14:24:06.294Z</time></trkpt><trkpt lat="46.0096765" lon="11.8300684"><ele>308.2</ele><time>2026-05-03T14:24:08.293Z</time></trkpt><trkpt lat="46.0096245" lon="11.8302197"><ele>308.8</ele><time>2026-05-03T14:24:10.293Z</time></trkpt><trkpt lat="46.0095604" lon="11.8303654"><ele>309.4</ele><time>2026-05-03T14:24:12.295Z</time></trkpt><trkpt lat="46.0095228" lon="11.8304425"><ele>310.0</ele><time>2026-05-03T14:24:13.293Z</time></trkpt><trkpt lat="46.0094807" lon="11.8305151"><ele>310.2</ele><time>2026-05-03T14:24:14.293Z</time></trkpt><trkpt lat="46.0094445" lon="11.8305983"><ele>310.4</ele><time>2026-05-03T14:24:15.293Z</time></trkpt><trkpt lat="46.0093843" lon="11.8307476"><ele>310.6</ele><time>2026-05-03T14:24:17.294Z</time></trkpt><trkpt lat="46.0093215" lon="11.8308864"><ele>310.8</ele><time>2026-05-03T14:24:19.294Z</time></trkpt><trkpt lat="46.0092705" lon="11.8309463"><ele>311.0</ele><time>2026-05-03T14:24:20.294Z</time></trkpt><trkpt lat="46.0091801" lon="11.8310603"><ele>311.0</ele><time>2026-05-03T14:24:22.294Z</time></trkpt><trkpt lat="46.0090737" lon="11.8311731"><ele>311.0</ele><time>2026-05-03T14:24:24.294Z</time></trkpt><trkpt lat="46.0090044" lon="11.8312136"><ele>311.0</ele><time>2026-05-03T14:24:25.294Z</time></trkpt><trkpt lat="46.0089118" lon="11.8313176"><ele>311.0</ele><time>2026-05-03T14:24:27.294Z</time></trkpt><trkpt lat="46.0088222" lon="11.8314246"><ele>311.0</ele><time>2026-05-03T14:24:29.294Z</time></trkpt><trkpt lat="46.0087321" lon="11.8315162"><ele>311.0</ele><time>2026-05-03T14:24:31.294Z</time></trkpt><trkpt lat="46.0086177" lon="11.8315423"><ele>311.0</ele><time>2026-05-03T14:24:33.294Z</time></trkpt><trkpt lat="46.0085196" lon="11.8314702"><ele>311.0</ele><time>2026-05-03T14:24:35.294Z</time></trkpt><trkpt lat="46.0084362" lon="11.831361"><ele>311.0</ele><time>2026-05-03T14:24:37.294Z</time></trkpt><trkpt lat="46.0083542" lon="11.8312504"><ele>311.0</ele><time>2026-05-03T14:24:39.294Z</time></trkpt><trkpt lat="46.0082677" lon="11.8311459"><ele>311.0</ele><time>2026-05-03T14:24:41.294Z</time></trkpt><trkpt lat="46.0081844" lon="11.8310413"><ele>311.0</ele><time>2026-05-03T14:24:43.295Z</time></trkpt><trkpt lat="46.0081079" lon="11.8309209"><ele>311.0</ele><time>2026-05-03T14:24:45.294Z</time></trkpt><trkpt lat="46.0080291" lon="11.830826"><ele>311.0</ele><time>2026-05-03T14:24:47.295Z</time></trkpt><trkpt lat="46.0079544" lon="11.8307256"><ele>310.8</ele><time>2026-05-03T14:24:49.294Z</time></trkpt><trkpt lat="46.007899" lon="11.8306031"><ele>310.6</ele><time>2026-05-03T14:24:51.295Z</time></trkpt><trkpt lat="46.0078652" lon="11.8304821"><ele>310.4</ele><time>2026-05-03T14:24:53.294Z</time></trkpt><trkpt lat="46.0078511" lon="11.8303575"><ele>310.2</ele><time>2026-05-03T14:24:55.294Z</time></trkpt><trkpt lat="46.0078395" lon="11.8302236"><ele>310.0</ele><time>2026-05-03T14:24:57.295Z</time></trkpt><trkpt lat="46.0078278" lon="11.8300675"><ele>309.6</ele><time>2026-05-03T14:24:59.294Z</time></trkpt><trkpt lat="46.0078201" lon="11.8299101"><ele>309.2</ele><time>2026-05-03T14:25:01.294Z</time></trkpt><trkpt lat="46.0078179" lon="11.8297466"><ele>308.8</ele><time>2026-05-03T14:25:03.294Z</time></trkpt><trkpt lat="46.0078341" lon="11.8296064"><ele>308.4</ele><time>2026-05-03T14:25:05.294Z</time></trkpt><trkpt lat="46.0078765" lon="11.8294872"><ele>308.0</ele><time>2026-05-03T14:25:07.296Z</time></trkpt><trkpt lat="46.0079016" lon="11.8293562"><ele>307.6666666666667</ele><time>2026-05-03T14:25:09.294Z</time></trkpt><trkpt lat="46.0079249" lon="11.8292163"><ele>307.33333333333337</ele><time>2026-05-03T14:25:11.294Z</time></trkpt><trkpt lat="46.0079473" lon="11.8290714"><ele>307.0</ele><time>2026-05-03T14:25:13.295Z</time></trkpt><trkpt lat="46.0079728" lon="11.8289759"><ele>306.6666666666667</ele><time>2026-05-03T14:25:16.294Z</time></trkpt><trkpt lat="46.0080308" lon="11.8290387"><ele>306.3333333333333</ele><time>2026-05-03T14:29:46.374Z</time></trkpt><trkpt lat="46.007966" lon="11.8290434"><ele>306.0</ele><time>2026-05-03T14:38:52.394Z</time></trkpt><trkpt lat="46.0078915" lon="11.8291209"><ele>306.0</ele><time>2026-05-03T14:54:17.411Z</time></trkpt><trkpt lat="46.0078283" lon="11.8290952"><ele>306.0</ele><time>2026-05-03T14:54:20.316Z</time></trkpt><trkpt lat="46.0078584" lon="11.8290152"><ele>306.0</ele><time>2026-05-03T14:54:35.384Z</time></trkpt><trkpt lat="46.0079106" lon="11.82896"><ele>306.0</ele><time>2026-05-03T14:54:48.363Z</time></trkpt><trkpt lat="46.0080062" lon="11.8289491"><ele>306.0</ele><time>2026-05-03T14:55:35.328Z</time></trkpt><trkpt lat="46.0080325" lon="11.8290341"><ele>306.0</ele><time>2026-05-03T15:03:27.321Z</time></trkpt><trkpt lat="46.0079864" lon="11.8289654"><ele>306.0</ele><time>2026-05-03T15:05:49.366Z</time></trkpt><trkpt lat="46.0080449" lon="11.8290024"><ele>306.0</ele><time>2026-05-03T15:08:24.433Z</time></trkpt><trkpt lat="46.0079863" lon="11.8290672"><ele>306.0</ele><time>2026-05-03T15:19:56.348Z</time></trkpt><trkpt lat="46.0079218" lon="11.8290743"><ele>306.0</ele><time>2026-05-03T15:19:59.363Z</time></trkpt><trkpt lat="46.0079881" lon="11.829012"><ele>306.0</ele><time>2026-05-03T15:20:45.406Z</time></trkpt><trkpt lat="46.0080473" lon="11.8290445"><ele>306.0</ele><time>2026-05-03T15:35:07.381Z</time></trkpt><trkpt lat="46.0079942" lon="11.828991"><ele>306.0</ele><time>2026-05-03T15:40:34.416Z</time></trkpt><trkpt lat="46.0079826" lon="11.8288991"><ele>306.0</ele><time>2026-05-03T15:44:31.431Z</time></trkpt><trkpt lat="46.0079682" lon="11.8289884"><ele>306.0</ele><time>2026-05-03T15:47:31.423Z</time></trkpt><trkpt lat="46.0079362" lon="11.8290723"><ele>306.0</ele><time>2026-05-03T15:47:34.438Z</time></trkpt><trkpt lat="46.0079105" lon="11.8291767"><ele>306.0</ele><time>2026-05-03T15:47:37.454Z</time></trkpt><trkpt lat="46.0078993" lon="11.8292936"><ele>306.0</ele><time>2026-05-03T15:47:40.353Z</time></trkpt><trkpt lat="46.0078722" lon="11.8293838"><ele>306.0</ele><time>2026-05-03T15:47:43.368Z</time></trkpt><trkpt lat="46.0078106" lon="11.8294449"><ele>306.0</ele><time>2026-05-03T15:47:48.471Z</time></trkpt><trkpt lat="46.0077613" lon="11.8295389"><ele>306.3333333333333</ele><time>2026-05-03T15:47:51.485Z</time></trkpt><trkpt lat="46.0077536" lon="11.8296316"><ele>306.6666666666667</ele><time>2026-05-03T15:47:53.457Z</time></trkpt><trkpt lat="46.0077556" lon="11.829756"><ele>307.0</ele><time>2026-05-03T15:47:56.471Z</time></trkpt><trkpt lat="46.0077937" lon="11.8298864"><ele>307.33333333333337</ele><time>2026-05-03T15:47:59.477Z</time></trkpt><trkpt lat="46.0078078" lon="11.8299775"><ele>307.6666666666667</ele><time>2026-05-03T15:48:01.458Z</time></trkpt><trkpt lat="46.0078257" lon="11.8300727"><ele>308.0</ele><time>2026-05-03T15:48:03.429Z</time></trkpt><trkpt lat="46.0078263" lon="11.8301807"><ele>308.2857142857143</ele><time>2026-05-03T15:48:05.401Z</time></trkpt><trkpt lat="46.0078015" lon="11.8302803"><ele>308.57142857142856</ele><time>2026-05-03T15:48:07.372Z</time></trkpt><trkpt lat="46.0077893" lon="11.8303807"><ele>308.8571428571429</ele><time>2026-05-03T15:48:09.459Z</time></trkpt><trkpt lat="46.007799" lon="11.8304766"><ele>309.1428571428571</ele><time>2026-05-03T15:48:11.432Z</time></trkpt><trkpt lat="46.0078311" lon="11.8305693"><ele>309.42857142857144</ele><time>2026-05-03T15:48:13.403Z</time></trkpt><trkpt lat="46.0078649" lon="11.8306655"><ele>309.7142857142857</ele><time>2026-05-03T15:48:15.375Z</time></trkpt><trkpt lat="46.0078752" lon="11.8307881"><ele>310.0</ele><time>2026-05-03T15:48:18.389Z</time></trkpt><trkpt lat="46.0078568" lon="11.8308866"><ele>310.16666666666663</ele><time>2026-05-03T15:48:20.476Z</time></trkpt><trkpt lat="46.0078478" lon="11.8309822"><ele>310.3333333333333</ele><time>2026-05-03T15:48:22.447Z</time></trkpt><trkpt lat="46.0078439" lon="11.8310814"><ele>310.5</ele><time>2026-05-03T15:48:24.419Z</time></trkpt><trkpt lat="46.007844" lon="11.8311911"><ele>310.6666666666667</ele><time>2026-05-03T15:48:26.39Z</time></trkpt><trkpt lat="46.0078487" lon="11.831311"><ele>310.83333333333337</ele><time>2026-05-03T15:48:28.478Z</time></trkpt><trkpt lat="46.0078622" lon="11.8314898"><ele>311.0</ele><time>2026-05-03T15:48:31.377Z</time></trkpt><trkpt lat="46.0078644" lon="11.8316047"><ele>311.0</ele><time>2026-05-03T15:48:33.464Z</time></trkpt><trkpt lat="46.0078811" lon="11.8317137"><ele>311.0</ele><time>2026-05-03T15:48:35.435Z</time></trkpt><trkpt lat="46.0079115" lon="11.831818"><ele>311.0</ele><time>2026-05-03T15:48:37.407Z</time></trkpt><trkpt lat="46.0079232" lon="11.8319257"><ele>311.0</ele><time>2026-05-03T15:48:39.378Z</time></trkpt><trkpt lat="46.00791" lon="11.8320413"><ele>311.0</ele><time>2026-05-03T15:48:41.466Z</time></trkpt><trkpt lat="46.0079028" lon="11.8321505"><ele>311.0</ele><time>2026-05-03T15:48:43.437Z</time></trkpt><trkpt lat="46.0079134" lon="11.8322524"><ele>311.1666666666667</ele><time>2026-05-03T15:48:45.408Z</time></trkpt><trkpt lat="46.0079176" lon="11.832362"><ele>311.33333333333337</ele><time>2026-05-03T15:48:47.492Z</time></trkpt><trkpt lat="46.0079236" lon="11.8324604"><ele>311.5</ele><time>2026-05-03T15:48:49.467Z</time></trkpt><trkpt lat="46.0079292" lon="11.8325616"><ele>311.6666666666667</ele><time>2026-05-03T15:48:51.439Z</time></trkpt><trkpt lat="46.0079087" lon="11.8326614"><ele>311.8333333333333</ele><time>2026-05-03T15:48:53.41Z</time></trkpt><trkpt lat="46.0078579" lon="11.8327552"><ele>312.0</ele><time>2026-05-03T15:48:55.381Z</time></trkpt><trkpt lat="46.0077899" lon="11.832852"><ele>312.6</ele><time>2026-05-03T15:48:57.469Z</time></trkpt><trkpt lat="46.0077244" lon="11.8329459"><ele>313.2</ele><time>2026-05-03T15:48:59.44Z</time></trkpt><trkpt lat="46.0076462" lon="11.8330358"><ele>313.8</ele><time>2026-05-03T15:49:01.412Z</time></trkpt><trkpt lat="46.0075658" lon="11.833117"><ele>314.4</ele><time>2026-05-03T15:49:03.383Z</time></trkpt><trkpt lat="46.0074808" lon="11.8332032"><ele>315.0</ele><time>2026-05-03T15:49:05.471Z</time></trkpt><trkpt lat="46.0074011" lon="11.8332788"><ele>315.0</ele><time>2026-05-03T15:49:07.442Z</time></trkpt><trkpt lat="46.007324" lon="11.8333454"><ele>315.0</ele><time>2026-05-03T15:49:09.413Z</time></trkpt><trkpt lat="46.007245" lon="11.8334101"><ele>315.0</ele><time>2026-05-03T15:49:11.385Z</time></trkpt><trkpt lat="46.007157" lon="11.8334782"><ele>315.0</ele><time>2026-05-03T15:49:13.472Z</time></trkpt><trkpt lat="46.0070824" lon="11.8335566"><ele>315.0</ele><time>2026-05-03T15:49:15.444Z</time></trkpt><trkpt lat="46.0070168" lon="11.8336501"><ele>314.5</ele><time>2026-05-03T15:49:17.415Z</time></trkpt><trkpt lat="46.0069482" lon="11.8337463"><ele>314.0</ele><time>2026-05-03T15:49:19.386Z</time></trkpt><trkpt lat="46.0068776" lon="11.8338257"><ele>313.5</ele><time>2026-05-03T15:49:21.473Z</time></trkpt><trkpt lat="46.0068098" lon="11.8338832"><ele>313.0</ele><time>2026-05-03T15:49:23.446Z</time></trkpt><trkpt lat="46.0067445" lon="11.833941"><ele>312.5</ele><time>2026-05-03T15:49:25.416Z</time></trkpt><trkpt lat="46.0066775" lon="11.8340074"><ele>312.0</ele><time>2026-05-03T15:49:27.389Z</time></trkpt><trkpt lat="46.0066106" lon="11.8340791"><ele>312.0</ele><time>2026-05-03T15:49:29.475Z</time></trkpt><trkpt lat="46.0065458" lon="11.8341555"><ele>312.0</ele><time>2026-05-03T15:49:31.446Z</time></trkpt><trkpt lat="46.0064799" lon="11.8342303"><ele>312.0</ele><time>2026-05-03T15:49:33.418Z</time></trkpt><trkpt lat="46.0064081" lon="11.8343098"><ele>312.0</ele><time>2026-05-03T15:49:35.354Z</time></trkpt><trkpt lat="46.0063504" lon="11.8343701"><ele>312.0</ele><time>2026-05-03T15:49:37.468Z</time></trkpt><trkpt lat="46.0062735" lon="11.8344539"><ele>312.0</ele><time>2026-05-03T15:49:39.441Z</time></trkpt><trkpt lat="46.0061996" lon="11.8345412"><ele>312.6</ele><time>2026-05-03T15:49:41.411Z</time></trkpt><trkpt lat="46.0061423" lon="11.8346294"><ele>313.2</ele><time>2026-05-03T15:49:43.382Z</time></trkpt><trkpt lat="46.0060883" lon="11.834725"><ele>313.8</ele><time>2026-05-03T15:49:45.47Z</time></trkpt><trkpt lat="46.006039" lon="11.8348247"><ele>314.4</ele><time>2026-05-03T15:49:47.441Z</time></trkpt><trkpt lat="46.0059783" lon="11.8349204"><ele>315.0</ele><time>2026-05-03T15:49:49.413Z</time></trkpt><trkpt lat="46.0059099" lon="11.8350477"><ele>314.8</ele><time>2026-05-03T15:49:51.355Z</time></trkpt><trkpt lat="46.0058504" lon="11.8351691"><ele>314.6</ele><time>2026-05-03T15:49:53.355Z</time></trkpt><trkpt lat="46.0058012" lon="11.8352706"><ele>314.4</ele><time>2026-05-03T15:49:55.355Z</time></trkpt><trkpt lat="46.0057477" lon="11.8353751"><ele>314.2</ele><time>2026-05-03T15:49:57.355Z</time></trkpt><trkpt lat="46.005695" lon="11.8354613"><ele>314.0</ele><time>2026-05-03T15:49:59.355Z</time></trkpt><trkpt lat="46.0056202" lon="11.8355399"><ele>314.0</ele><time>2026-05-03T15:50:01.355Z</time></trkpt><trkpt lat="46.0055264" lon="11.8356266"><ele>314.0</ele><time>2026-05-03T15:50:03.355Z</time></trkpt><trkpt lat="46.0054513" lon="11.8357074"><ele>314.0</ele><time>2026-05-03T15:50:05.355Z</time></trkpt><trkpt lat="46.0053794" lon="11.8358048"><ele>314.0</ele><time>2026-05-03T15:50:07.355Z</time></trkpt><trkpt lat="46.0053069" lon="11.8359007"><ele>314.0</ele><time>2026-05-03T15:50:09.355Z</time></trkpt><trkpt lat="46.0052409" lon="11.835981"><ele>314.59999999999997</ele><time>2026-05-03T15:50:11.355Z</time></trkpt><trkpt lat="46.0051738" lon="11.836065"><ele>315.2</ele><time>2026-05-03T15:50:13.355Z</time></trkpt><trkpt lat="46.0051062" lon="11.8361463"><ele>315.79999999999995</ele><time>2026-05-03T15:50:15.355Z</time></trkpt><trkpt lat="46.0050326" lon="11.8362361"><ele>316.4</ele><time>2026-05-03T15:50:17.355Z</time></trkpt><trkpt lat="46.0049626" lon="11.8363287"><ele>317.0</ele><time>2026-05-03T15:50:19.355Z</time></trkpt><trkpt lat="46.0048895" lon="11.8364232"><ele>317.0</ele><time>2026-05-03T15:50:21.355Z</time></trkpt><trkpt lat="46.0048218" lon="11.8365074"><ele>317.0</ele><time>2026-05-03T15:50:23.355Z</time></trkpt><trkpt lat="46.0047565" lon="11.836592"><ele>317.0</ele><time>2026-05-03T15:50:25.356Z</time></trkpt><trkpt lat="46.0047008" lon="11.8366802"><ele>317.0</ele><time>2026-05-03T15:50:27.356Z</time></trkpt><trkpt lat="46.0046443" lon="11.8367725"><ele>317.0</ele><time>2026-05-03T15:50:29.355Z</time></trkpt><trkpt lat="46.0045787" lon="11.8368852"><ele>317.0</ele><time>2026-05-03T15:50:31.355Z</time></trkpt><trkpt lat="46.0045184" lon="11.8369867"><ele>317.6</ele><time>2026-05-03T15:50:33.355Z</time></trkpt><trkpt lat="46.0044511" lon="11.8370909"><ele>318.2</ele><time>2026-05-03T15:50:35.356Z</time></trkpt><trkpt lat="46.0044056" lon="11.8371989"><ele>318.8</ele><time>2026-05-03T15:50:37.356Z</time></trkpt><trkpt lat="46.0043588" lon="11.8373266"><ele>319.4</ele><time>2026-05-03T15:50:39.355Z</time></trkpt><trkpt lat="46.0043251" lon="11.8374557"><ele>320.0</ele><time>2026-05-03T15:50:41.355Z</time></trkpt><trkpt lat="46.0042847" lon="11.8375974"><ele>319.4</ele><time>2026-05-03T15:50:43.355Z</time></trkpt><trkpt lat="46.0042477" lon="11.8377352"><ele>318.8</ele><time>2026-05-03T15:50:45.355Z</time></trkpt><trkpt lat="46.0042104" lon="11.837879"><ele>318.2</ele><time>2026-05-03T15:50:47.355Z</time></trkpt><trkpt lat="46.0041716" lon="11.8380136"><ele>317.6</ele><time>2026-05-03T15:50:49.356Z</time></trkpt><trkpt lat="46.0041253" lon="11.8381511"><ele>317.0</ele><time>2026-05-03T15:50:51.355Z</time></trkpt><trkpt lat="46.0040832" lon="11.8382786"><ele>317.0</ele><time>2026-05-03T15:50:53.356Z</time></trkpt><trkpt lat="46.0040344" lon="11.8383952"><ele>317.0</ele><time>2026-05-03T15:50:55.356Z</time></trkpt><trkpt lat="46.0040001" lon="11.8385157"><ele>317.0</ele><time>2026-05-03T15:50:57.355Z</time></trkpt><trkpt lat="46.0039612" lon="11.8386499"><ele>317.0</ele><time>2026-05-03T15:50:59.356Z</time></trkpt><trkpt lat="46.0039267" lon="11.8387782"><ele>317.0</ele><time>2026-05-03T15:51:01.357Z</time></trkpt><trkpt lat="46.003877" lon="11.8388937"><ele>317.4</ele><time>2026-05-03T15:51:03.356Z</time></trkpt><trkpt lat="46.0037957" lon="11.8389482"><ele>317.79999999999995</ele><time>2026-05-03T15:51:05.356Z</time></trkpt><trkpt lat="46.0036904" lon="11.8389463"><ele>318.2</ele><time>2026-05-03T15:51:07.356Z</time></trkpt><trkpt lat="46.0035839" lon="11.8390238"><ele>318.59999999999997</ele><time>2026-05-03T15:51:09.357Z</time></trkpt><trkpt lat="46.0035431" lon="11.8391647"><ele>319.0</ele><time>2026-05-03T15:51:11.356Z</time></trkpt><trkpt lat="46.0035829" lon="11.8393297"><ele>319.6</ele><time>2026-05-03T15:51:13.356Z</time></trkpt><trkpt lat="46.003622" lon="11.839479"><ele>320.2</ele><time>2026-05-03T15:51:15.356Z</time></trkpt><trkpt lat="46.0036234" lon="11.8396336"><ele>320.8</ele><time>2026-05-03T15:51:17.356Z</time></trkpt><trkpt lat="46.0035999" lon="11.8397879"><ele>321.40000000000003</ele><time>2026-05-03T15:51:19.356Z</time></trkpt><trkpt lat="46.0035549" lon="11.8399226"><ele>322.0</ele><time>2026-05-03T15:51:21.356Z</time></trkpt><trkpt lat="46.0035241" lon="11.8400509"><ele>322.20000000000005</ele><time>2026-05-03T15:51:23.356Z</time></trkpt><trkpt lat="46.0034937" lon="11.8401801"><ele>322.4</ele><time>2026-05-03T15:51:25.357Z</time></trkpt><trkpt lat="46.0034489" lon="11.8403092"><ele>322.6</ele><time>2026-05-03T15:51:27.356Z</time></trkpt><trkpt lat="46.0034077" lon="11.8404372"><ele>322.79999999999995</ele><time>2026-05-03T15:51:29.356Z</time></trkpt><trkpt lat="46.003365" lon="11.8405731"><ele>323.0</ele><time>2026-05-03T15:51:31.356Z</time></trkpt><trkpt lat="46.0033254" lon="11.8407121"><ele>322.59999999999997</ele><time>2026-05-03T15:51:33.356Z</time></trkpt><trkpt lat="46.0032865" lon="11.840835"><ele>322.2</ele><time>2026-05-03T15:51:35.356Z</time></trkpt><trkpt lat="46.0032392" lon="11.8410065"><ele>321.8</ele><time>2026-05-03T15:51:38.356Z</time></trkpt><trkpt lat="46.0031967" lon="11.8411303"><ele>321.4</ele><time>2026-05-03T15:51:40.356Z</time></trkpt><trkpt lat="46.0031579" lon="11.8412618"><ele>321.0</ele><time>2026-05-03T15:51:42.356Z</time></trkpt><trkpt lat="46.0031273" lon="11.8413577"><ele>321.0</ele><time>2026-05-03T15:51:44.357Z</time></trkpt><trkpt lat="46.0030742" lon="11.8414891"><ele>321.0</ele><time>2026-05-03T15:51:47.356Z</time></trkpt><trkpt lat="46.003005" lon="11.8416268"><ele>321.0</ele><time>2026-05-03T15:51:49.356Z</time></trkpt><trkpt lat="46.0029977" lon="11.841765"><ele>321.0</ele><time>2026-05-03T15:51:51.357Z</time></trkpt><trkpt lat="46.0029871" lon="11.8418944"><ele>321.0</ele><time>2026-05-03T15:51:53.356Z</time></trkpt><trkpt lat="46.0029696" lon="11.8420429"><ele>321.25</ele><time>2026-05-03T15:51:55.357Z</time></trkpt><trkpt lat="46.0029558" lon="11.8421932"><ele>321.5</ele><time>2026-05-03T15:51:57.356Z</time></trkpt><trkpt lat="46.0029501" lon="11.8423489"><ele>321.75</ele><time>2026-05-03T15:51:59.356Z</time></trkpt><trkpt lat="46.0029503" lon="11.8425183"><ele>322.0</ele><time>2026-05-03T15:52:01.357Z</time></trkpt><trkpt lat="46.0029593" lon="11.8426905"><ele>322.0</ele><time>2026-05-03T15:52:03.356Z</time></trkpt><trkpt lat="46.0029737" lon="11.8428609"><ele>322.0</ele><time>2026-05-03T15:52:05.356Z</time></trkpt><trkpt lat="46.0029901" lon="11.8430302"><ele>322.0</ele><time>2026-05-03T15:52:07.357Z</time></trkpt><trkpt lat="46.0030041" lon="11.8432055"><ele>322.0</ele><time>2026-05-03T15:52:09.356Z</time></trkpt><trkpt lat="46.0030192" lon="11.8433752"><ele>321.66666666666663</ele><time>2026-05-03T15:52:11.356Z</time></trkpt><trkpt lat="46.0030375" lon="11.8435496"><ele>321.3333333333333</ele><time>2026-05-03T15:52:13.356Z</time></trkpt><trkpt lat="46.0030526" lon="11.8436427"><ele>321.0</ele><time>2026-05-03T15:52:14.356Z</time></trkpt><trkpt lat="46.0030671" lon="11.8437311"><ele>320.6666666666667</ele><time>2026-05-03T15:52:15.357Z</time></trkpt><trkpt lat="46.0030826" lon="11.8438191"><ele>320.33333333333337</ele><time>2026-05-03T15:52:16.357Z</time></trkpt><trkpt lat="46.0031152" lon="11.8439922"><ele>320.0</ele><time>2026-05-03T15:52:18.357Z</time></trkpt><trkpt lat="46.0031539" lon="11.8441591"><ele>320.2</ele><time>2026-05-03T15:52:20.358Z</time></trkpt><trkpt lat="46.0031933" lon="11.8443235"><ele>320.4</ele><time>2026-05-03T15:52:22.358Z</time></trkpt><trkpt lat="46.0032123" lon="11.8444112"><ele>320.6</ele><time>2026-05-03T15:52:23.358Z</time></trkpt><trkpt lat="46.0032576" lon="11.8445798"><ele>320.8</ele><time>2026-05-03T15:52:25.358Z</time></trkpt><trkpt lat="46.0033034" lon="11.8447265"><ele>321.0</ele><time>2026-05-03T15:52:27.357Z</time></trkpt><trkpt lat="46.0033503" lon="11.8448813"><ele>321.0</ele><time>2026-05-03T15:52:29.357Z</time></trkpt><trkpt lat="46.0033987" lon="11.8450317"><ele>321.0</ele><time>2026-05-03T15:52:31.357Z</time></trkpt><trkpt lat="46.0034479" lon="11.8451793"><ele>321.0</ele><time>2026-05-03T15:52:33.357Z</time></trkpt><trkpt lat="46.0035036" lon="11.8453263"><ele>321.0</ele><time>2026-05-03T15:52:35.357Z</time></trkpt><trkpt lat="46.0035654" lon="11.8454707"><ele>320.0</ele><time>2026-05-03T15:52:37.357Z</time></trkpt><trkpt lat="46.003634" lon="11.8456173"><ele>319.0</ele><time>2026-05-03T15:52:39.357Z</time></trkpt><trkpt lat="46.0037005" lon="11.8457594"><ele>318.0</ele><time>2026-05-03T15:52:41.357Z</time></trkpt><trkpt lat="46.0037662" lon="11.8459083"><ele>317.0</ele><time>2026-05-03T15:52:43.357Z</time></trkpt><trkpt lat="46.0038023" lon="11.8459826"><ele>316.0</ele><time>2026-05-03T15:52:44.358Z</time></trkpt><trkpt lat="46.0038715" lon="11.8461293"><ele>315.5</ele><time>2026-05-03T15:52:46.357Z</time></trkpt><trkpt lat="46.0039429" lon="11.84628"><ele>315.0</ele><time>2026-05-03T15:52:48.357Z</time></trkpt><trkpt lat="46.0040131" lon="11.8464152"><ele>314.5</ele><time>2026-05-03T15:52:50.358Z</time></trkpt><trkpt lat="46.0040812" lon="11.8465542"><ele>314.0</ele><time>2026-05-03T15:52:52.358Z</time></trkpt><trkpt lat="46.0041472" lon="11.8466908"><ele>314.0</ele><time>2026-05-03T15:52:54.357Z</time></trkpt><trkpt lat="46.0042113" lon="11.846832"><ele>314.0</ele><time>2026-05-03T15:52:56.357Z</time></trkpt><trkpt lat="46.0042784" lon="11.8469775"><ele>314.0</ele><time>2026-05-03T15:52:58.358Z</time></trkpt><trkpt lat="46.0043439" lon="11.847119"><ele>314.0</ele><time>2026-05-03T15:53:00.357Z</time></trkpt><trkpt lat="46.00441" lon="11.8472586"><ele>314.0</ele><time>2026-05-03T15:53:02.357Z</time></trkpt><trkpt lat="46.0044753" lon="11.8474007"><ele>314.0</ele><time>2026-05-03T15:53:04.357Z</time></trkpt><trkpt lat="46.0045386" lon="11.8475305"><ele>314.0</ele><time>2026-05-03T15:53:06.358Z</time></trkpt><trkpt lat="46.0046072" lon="11.8476643"><ele>314.0</ele><time>2026-05-03T15:53:08.357Z</time></trkpt><trkpt lat="46.0046493" lon="11.8477376"><ele>314.0</ele><time>2026-05-03T15:53:09.358Z</time></trkpt><trkpt lat="46.0046901" lon="11.8478114"><ele>313.59999999999997</ele><time>2026-05-03T15:53:10.359Z</time></trkpt><trkpt lat="46.0047324" lon="11.8478891"><ele>313.2</ele><time>2026-05-03T15:53:11.358Z</time></trkpt><trkpt lat="46.0048182" lon="11.8480245"><ele>312.79999999999995</ele><time>2026-05-03T15:53:13.357Z</time></trkpt><trkpt lat="46.0048922" lon="11.8481548"><ele>312.4</ele><time>2026-05-03T15:53:15.358Z</time></trkpt><trkpt lat="46.0049632" lon="11.8482825"><ele>312.0</ele><time>2026-05-03T15:53:17.358Z</time></trkpt><trkpt lat="46.0050375" lon="11.8484171"><ele>311.8</ele><time>2026-05-03T15:53:19.357Z</time></trkpt><trkpt lat="46.0051131" lon="11.8485491"><ele>311.6</ele><time>2026-05-03T15:53:21.357Z</time></trkpt><trkpt lat="46.0051818" lon="11.848682"><ele>311.40000000000003</ele><time>2026-05-03T15:53:23.357Z</time></trkpt><trkpt lat="46.0052617" lon="11.848822"><ele>311.2</ele><time>2026-05-03T15:53:25.358Z</time></trkpt><trkpt lat="46.0053056" lon="11.848888"><ele>311.0</ele><time>2026-05-03T15:53:26.357Z</time></trkpt><trkpt lat="46.0053503" lon="11.8489537"><ele>311.0</ele><time>2026-05-03T15:53:27.359Z</time></trkpt><trkpt lat="46.0053943" lon="11.8490241"><ele>311.0</ele><time>2026-05-03T15:53:28.357Z</time></trkpt><trkpt lat="46.005436" lon="11.849094"><ele>311.0</ele><time>2026-05-03T15:53:29.358Z</time></trkpt><trkpt lat="46.0054792" lon="11.849161"><ele>311.0</ele><time>2026-05-03T15:53:30.358Z</time></trkpt><trkpt lat="46.0055315" lon="11.8492179"><ele>311.0</ele><time>2026-05-03T15:53:31.358Z</time></trkpt><trkpt lat="46.0055933" lon="11.8492688"><ele>311.0</ele><time>2026-05-03T15:53:32.358Z</time></trkpt><trkpt lat="46.0056525" lon="11.8493122"><ele>311.0</ele><time>2026-05-03T15:53:33.358Z</time></trkpt><trkpt lat="46.0057124" lon="11.8493579"><ele>311.0</ele><time>2026-05-03T15:53:34.358Z</time></trkpt><trkpt lat="46.005772" lon="11.8494083"><ele>311.0</ele><time>2026-05-03T15:53:35.359Z</time></trkpt><trkpt lat="46.0058296" lon="11.8494673"><ele>311.0</ele><time>2026-05-03T15:53:36.359Z</time></trkpt><trkpt lat="46.0058784" lon="11.8495376"><ele>311.0</ele><time>2026-05-03T15:53:37.358Z</time></trkpt><trkpt lat="46.0059131" lon="11.8496261"><ele>311.0</ele><time>2026-05-03T15:53:38.358Z</time></trkpt><trkpt lat="46.0059458" lon="11.8497256"><ele>311.0</ele><time>2026-05-03T15:53:39.359Z</time></trkpt><trkpt lat="46.005989" lon="11.8498127"><ele>311.0</ele><time>2026-05-03T15:53:40.359Z</time></trkpt><trkpt lat="46.0060327" lon="11.849888"><ele>311.0</ele><time>2026-05-03T15:53:41.358Z</time></trkpt><trkpt lat="46.0060825" lon="11.8499624"><ele>311.0</ele><time>2026-05-03T15:53:42.358Z</time></trkpt><trkpt lat="46.0061305" lon="11.85003"><ele>311.0</ele><time>2026-05-03T15:53:43.358Z</time></trkpt><trkpt lat="46.0062252" lon="11.8501373"><ele>311.0</ele><time>2026-05-03T15:53:45.358Z</time></trkpt><trkpt lat="46.0062815" lon="11.8501822"><ele>311.0</ele><time>2026-05-03T15:53:46.358Z</time></trkpt><trkpt lat="46.0063433" lon="11.8502242"><ele>311.0</ele><time>2026-05-03T15:53:47.358Z</time></trkpt><trkpt lat="46.006403" lon="11.85026"><ele>311.0</ele><time>2026-05-03T15:53:48.358Z</time></trkpt><trkpt lat="46.0065134" lon="11.850333"><ele>311.0</ele><time>2026-05-03T15:53:50.359Z</time></trkpt><trkpt lat="46.0065714" lon="11.8503718"><ele>311.0</ele><time>2026-05-03T15:53:51.358Z</time></trkpt><trkpt lat="46.0066324" lon="11.8504147"><ele>311.0</ele><time>2026-05-03T15:53:52.358Z</time></trkpt><trkpt lat="46.0066907" lon="11.8504619"><ele>311.0</ele><time>2026-05-03T15:53:53.358Z</time></trkpt><trkpt lat="46.0067456" lon="11.8505113"><ele>311.0</ele><time>2026-05-03T15:53:54.358Z</time></trkpt><trkpt lat="46.0067988" lon="11.8505665"><ele>311.1666666666667</ele><time>2026-05-03T15:53:55.359Z</time></trkpt><trkpt lat="46.0068465" lon="11.8506266"><ele>311.33333333333337</ele><time>2026-05-03T15:53:56.358Z</time></trkpt><trkpt lat="46.0068965" lon="11.850684"><ele>311.5</ele><time>2026-05-03T15:53:57.358Z</time></trkpt><trkpt lat="46.0069499" lon="11.8507342"><ele>311.6666666666667</ele><time>2026-05-03T15:53:58.359Z</time></trkpt><trkpt lat="46.0070487" lon="11.8508345"><ele>311.8333333333333</ele><time>2026-05-03T15:54:00.358Z</time></trkpt><trkpt lat="46.0071417" lon="11.8509428"><ele>312.0</ele><time>2026-05-03T15:54:02.358Z</time></trkpt><trkpt lat="46.0071923" lon="11.8510078"><ele>312.0</ele><time>2026-05-03T15:54:03.358Z</time></trkpt><trkpt lat="46.007243" lon="11.8510646"><ele>312.0</ele><time>2026-05-03T15:54:04.358Z</time></trkpt><trkpt lat="46.0073402" lon="11.8511779"><ele>312.0</ele><time>2026-05-03T15:54:06.358Z</time></trkpt><trkpt lat="46.0073871" lon="11.8512404"><ele>312.0</ele><time>2026-05-03T15:54:07.358Z</time></trkpt><trkpt lat="46.0074752" lon="11.8513507"><ele>312.0</ele><time>2026-05-03T15:54:09.359Z</time></trkpt><trkpt lat="46.0075596" lon="11.8514607"><ele>311.0</ele><time>2026-05-03T15:54:11.358Z</time></trkpt><trkpt lat="46.0076387" lon="11.8515821"><ele>310.0</ele><time>2026-05-03T15:54:13.358Z</time></trkpt><trkpt lat="46.0077178" lon="11.8516964"><ele>309.0</ele><time>2026-05-03T15:54:15.358Z</time></trkpt><trkpt lat="46.0077995" lon="11.8518187"><ele>308.0</ele><time>2026-05-03T15:54:17.358Z</time></trkpt><trkpt lat="46.0078703" lon="11.8519381"><ele>307.5</ele><time>2026-05-03T15:54:19.358Z</time></trkpt><trkpt lat="46.007908" lon="11.8520135"><ele>307.0</ele><time>2026-05-03T15:54:20.358Z</time></trkpt><trkpt lat="46.0079534" lon="11.8520884"><ele>306.5</ele><time>2026-05-03T15:54:21.358Z</time></trkpt><trkpt lat="46.0079994" lon="11.8521599"><ele>306.0</ele><time>2026-05-03T15:54:22.358Z</time></trkpt><trkpt lat="46.0080836" lon="11.8522829"><ele>305.5</ele><time>2026-05-03T15:54:24.358Z</time></trkpt><trkpt lat="46.0081682" lon="11.8524085"><ele>305.0</ele><time>2026-05-03T15:54:26.358Z</time></trkpt><trkpt lat="46.0082508" lon="11.8525229"><ele>304.75</ele><time>2026-05-03T15:54:28.358Z</time></trkpt><trkpt lat="46.0083373" lon="11.8526291"><ele>304.5</ele><time>2026-05-03T15:54:30.358Z</time></trkpt><trkpt lat="46.0084277" lon="11.8527368"><ele>304.25</ele><time>2026-05-03T15:54:32.358Z</time></trkpt><trkpt lat="46.008524" lon="11.8528522"><ele>304.0</ele><time>2026-05-03T15:54:34.359Z</time></trkpt><trkpt lat="46.0086168" lon="11.8529588"><ele>304.0</ele><time>2026-05-03T15:54:36.358Z</time></trkpt><trkpt lat="46.0087082" lon="11.8530738"><ele>304.0</ele><time>2026-05-03T15:54:38.359Z</time></trkpt><trkpt lat="46.0087983" lon="11.8531967"><ele>304.0</ele><time>2026-05-03T15:54:40.36Z</time></trkpt><trkpt lat="46.0088779" lon="11.8533169"><ele>304.0</ele><time>2026-05-03T15:54:42.359Z</time></trkpt><trkpt lat="46.0089566" lon="11.8534343"><ele>303.59999999999997</ele><time>2026-05-03T15:54:44.359Z</time></trkpt><trkpt lat="46.0090419" lon="11.8535588"><ele>303.2</ele><time>2026-05-03T15:54:46.359Z</time></trkpt><trkpt lat="46.0090903" lon="11.8536273"><ele>302.79999999999995</ele><time>2026-05-03T15:54:47.359Z</time></trkpt><trkpt lat="46.009137" lon="11.8536916"><ele>302.4</ele><time>2026-05-03T15:54:48.359Z</time></trkpt><trkpt lat="46.0092272" lon="11.8538128"><ele>302.0</ele><time>2026-05-03T15:54:50.359Z</time></trkpt><trkpt lat="46.0093197" lon="11.8539293"><ele>301.0</ele><time>2026-05-03T15:54:52.359Z</time></trkpt><trkpt lat="46.0094166" lon="11.8540479"><ele>300.0</ele><time>2026-05-03T15:54:54.359Z</time></trkpt><trkpt lat="46.0095094" lon="11.8541619"><ele>299.0</ele><time>2026-05-03T15:54:56.36Z</time></trkpt><trkpt lat="46.0095966" lon="11.8542758"><ele>298.0</ele><time>2026-05-03T15:54:58.359Z</time></trkpt><trkpt lat="46.0096823" lon="11.8543991"><ele>297.8</ele><time>2026-05-03T15:55:00.359Z</time></trkpt><trkpt lat="46.0097677" lon="11.8545273"><ele>297.6</ele><time>2026-05-03T15:55:02.359Z</time></trkpt><trkpt lat="46.0098114" lon="11.854595"><ele>297.4</ele><time>2026-05-03T15:55:03.359Z</time></trkpt><trkpt lat="46.0098924" lon="11.8547322"><ele>297.2</ele><time>2026-05-03T15:55:05.359Z</time></trkpt><trkpt lat="46.0099691" lon="11.8548648"><ele>297.0</ele><time>2026-05-03T15:55:07.359Z</time></trkpt><trkpt lat="46.0100443" lon="11.8549854"><ele>297.0</ele><time>2026-05-03T15:55:09.359Z</time></trkpt><trkpt lat="46.0101261" lon="11.8551026"><ele>297.0</ele><time>2026-05-03T15:55:11.359Z</time></trkpt><trkpt lat="46.0102113" lon="11.8552165"><ele>297.0</ele><time>2026-05-03T15:55:13.359Z</time></trkpt><trkpt lat="46.0102974" lon="11.8553358"><ele>297.0</ele><time>2026-05-03T15:55:15.359Z</time></trkpt><trkpt lat="46.0103798" lon="11.8554433"><ele>297.0</ele><time>2026-05-03T15:55:17.36Z</time></trkpt><trkpt lat="46.0104626" lon="11.8555445"><ele>297.0</ele><time>2026-05-03T15:55:19.359Z</time></trkpt><trkpt lat="46.0105596" lon="11.8556405"><ele>297.0</ele><time>2026-05-03T15:55:21.359Z</time></trkpt><trkpt lat="46.0106559" lon="11.855728"><ele>297.0</ele><time>2026-05-03T15:55:23.359Z</time></trkpt><trkpt lat="46.0107161" lon="11.8557857"><ele>297.0</ele><time>2026-05-03T15:55:24.359Z</time></trkpt><trkpt lat="46.0107726" lon="11.855832"><ele>297.25</ele><time>2026-05-03T15:55:25.359Z</time></trkpt><trkpt lat="46.0108756" lon="11.8559226"><ele>297.5</ele><time>2026-05-03T15:55:27.359Z</time></trkpt><trkpt lat="46.0109773" lon="11.856014"><ele>297.75</ele><time>2026-05-03T15:55:29.36Z</time></trkpt><trkpt lat="46.0110741" lon="11.8561183"><ele>298.0</ele><time>2026-05-03T15:55:31.359Z</time></trkpt><trkpt lat="46.0111593" lon="11.8562385"><ele>297.6</ele><time>2026-05-03T15:55:33.359Z</time></trkpt><trkpt lat="46.0112403" lon="11.8563683"><ele>297.20000000000005</ele><time>2026-05-03T15:55:35.359Z</time></trkpt><trkpt lat="46.0113135" lon="11.8564913"><ele>296.8</ele><time>2026-05-03T15:55:37.36Z</time></trkpt><trkpt lat="46.0113513" lon="11.8565647"><ele>296.40000000000003</ele><time>2026-05-03T15:55:38.36Z</time></trkpt><trkpt lat="46.0114244" lon="11.8567025"><ele>296.0</ele><time>2026-05-03T15:55:40.361Z</time></trkpt><trkpt lat="46.0115003" lon="11.8568223"><ele>295.6</ele><time>2026-05-03T15:55:42.359Z</time></trkpt><trkpt lat="46.0115747" lon="11.8569517"><ele>295.20000000000005</ele><time>2026-05-03T15:55:44.36Z</time></trkpt><trkpt lat="46.0116531" lon="11.8570853"><ele>294.79999999999995</ele><time>2026-05-03T15:55:46.359Z</time></trkpt><trkpt lat="46.0117334" lon="11.8572176"><ele>294.4</ele><time>2026-05-03T15:55:48.359Z</time></trkpt><trkpt lat="46.0117739" lon="11.8572881"><ele>294.0</ele><time>2026-05-03T15:55:49.36Z</time></trkpt><trkpt lat="46.0118483" lon="11.8574345"><ele>294.0</ele><time>2026-05-03T15:55:51.36Z</time></trkpt><trkpt lat="46.0119093" lon="11.8575858"><ele>294.0</ele><time>2026-05-03T15:55:53.361Z</time></trkpt><trkpt lat="46.011935" lon="11.8576687"><ele>294.0</ele><time>2026-05-03T15:55:54.359Z</time></trkpt><trkpt lat="46.0119893" lon="11.8578158"><ele>294.0</ele><time>2026-05-03T15:55:56.36Z</time></trkpt><trkpt lat="46.0120401" lon="11.8579668"><ele>294.0</ele><time>2026-05-03T15:55:58.36Z</time></trkpt><trkpt lat="46.0120862" lon="11.858114"><ele>294.0</ele><time>2026-05-03T15:56:00.36Z</time></trkpt><trkpt lat="46.0121466" lon="11.8582678"><ele>294.0</ele><time>2026-05-03T15:56:02.361Z</time></trkpt><trkpt lat="46.0122085" lon="11.8584213"><ele>294.0</ele><time>2026-05-03T15:56:04.36Z</time></trkpt><trkpt lat="46.0122747" lon="11.8585789"><ele>294.0</ele><time>2026-05-03T15:56:06.36Z</time></trkpt><trkpt lat="46.0123107" lon="11.8586579"><ele>294.0</ele><time>2026-05-03T15:56:07.36Z</time></trkpt><trkpt lat="46.012382" lon="11.858798"><ele>294.0</ele><time>2026-05-03T15:56:09.36Z</time></trkpt><trkpt lat="46.0124506" lon="11.8589356"><ele>294.0</ele><time>2026-05-03T15:56:11.36Z</time></trkpt><trkpt lat="46.0125198" lon="11.8590737"><ele>294.0</ele><time>2026-05-03T15:56:13.36Z</time></trkpt><trkpt lat="46.0125931" lon="11.859209"><ele>294.0</ele><time>2026-05-03T15:56:15.36Z</time></trkpt><trkpt lat="46.0126659" lon="11.859347"><ele>293.75</ele><time>2026-05-03T15:56:17.36Z</time></trkpt><trkpt lat="46.0127362" lon="11.8594983"><ele>293.5</ele><time>2026-05-03T15:56:19.36Z</time></trkpt><trkpt lat="46.0128061" lon="11.8596463"><ele>293.25</ele><time>2026-05-03T15:56:21.36Z</time></trkpt><trkpt lat="46.0128794" lon="11.8597911"><ele>293.0</ele><time>2026-05-03T15:56:23.36Z</time></trkpt><trkpt lat="46.0129423" lon="11.8599211"><ele>293.0</ele><time>2026-05-03T15:56:25.36Z</time></trkpt><trkpt lat="46.0130093" lon="11.8600653"><ele>293.0</ele><time>2026-05-03T15:56:27.36Z</time></trkpt><trkpt lat="46.0130789" lon="11.8602125"><ele>293.0</ele><time>2026-05-03T15:56:29.36Z</time></trkpt><trkpt lat="46.0131519" lon="11.8603512"><ele>293.0</ele><time>2026-05-03T15:56:31.363Z</time></trkpt><trkpt lat="46.0132202" lon="11.8605089"><ele>292.75</ele><time>2026-05-03T15:56:33.36Z</time></trkpt><trkpt lat="46.0132782" lon="11.8606539"><ele>292.5</ele><time>2026-05-03T15:56:35.361Z</time></trkpt><trkpt lat="46.013347" lon="11.860785"><ele>292.25</ele><time>2026-05-03T15:56:37.361Z</time></trkpt><trkpt lat="46.0134211" lon="11.860916"><ele>292.0</ele><time>2026-05-03T15:56:39.36Z</time></trkpt><trkpt lat="46.0134899" lon="11.8610354"><ele>291.5</ele><time>2026-05-03T15:56:41.36Z</time></trkpt><trkpt lat="46.0135626" lon="11.8611617"><ele>291.0</ele><time>2026-05-03T15:56:43.36Z</time></trkpt><trkpt lat="46.0136035" lon="11.8612325"><ele>290.5</ele><time>2026-05-03T15:56:44.36Z</time></trkpt><trkpt lat="46.0136434" lon="11.861303"><ele>290.0</ele><time>2026-05-03T15:56:45.36Z</time></trkpt><trkpt lat="46.0136861" lon="11.8613703"><ele>289.5</ele><time>2026-05-03T15:56:46.36Z</time></trkpt><trkpt lat="46.0137757" lon="11.8614949"><ele>289.0</ele><time>2026-05-03T15:56:48.36Z</time></trkpt><trkpt lat="46.0138615" lon="11.8616088"><ele>289.0</ele><time>2026-05-03T15:56:50.361Z</time></trkpt><trkpt lat="46.0139424" lon="11.8617266"><ele>289.0</ele><time>2026-05-03T15:56:52.36Z</time></trkpt><trkpt lat="46.0139873" lon="11.861791"><ele>289.0</ele><time>2026-05-03T15:56:53.361Z</time></trkpt><trkpt lat="46.0140793" lon="11.8619145"><ele>289.0</ele><time>2026-05-03T15:56:55.36Z</time></trkpt><trkpt lat="46.0141255" lon="11.8619839"><ele>289.0</ele><time>2026-05-03T15:56:56.361Z</time></trkpt><trkpt lat="46.0142102" lon="11.8621095"><ele>289.0</ele><time>2026-05-03T15:56:58.361Z</time></trkpt><trkpt lat="46.0142845" lon="11.8622248"><ele>289.0</ele><time>2026-05-03T15:57:00.36Z</time></trkpt><trkpt lat="46.0143477" lon="11.8623268"><ele>289.0</ele><time>2026-05-03T15:57:02.361Z</time></trkpt><trkpt lat="46.0144044" lon="11.8624325"><ele>289.0</ele><time>2026-05-03T15:57:04.361Z</time></trkpt><trkpt lat="46.0144687" lon="11.8625412"><ele>289.0</ele><time>2026-05-03T15:57:06.361Z</time></trkpt><trkpt lat="46.0145448" lon="11.8626554"><ele>289.0</ele><time>2026-05-03T15:57:08.361Z</time></trkpt><trkpt lat="46.0146262" lon="11.8627662"><ele>289.0</ele><time>2026-05-03T15:57:10.361Z</time></trkpt><trkpt lat="46.0147056" lon="11.862888"><ele>289.0</ele><time>2026-05-03T15:57:12.362Z</time></trkpt><trkpt lat="46.0147837" lon="11.8630181"><ele>289.0</ele><time>2026-05-03T15:57:14.361Z</time></trkpt><trkpt lat="46.0148536" lon="11.8631405"><ele>289.0</ele><time>2026-05-03T15:57:16.361Z</time></trkpt><trkpt lat="46.0149282" lon="11.8632613"><ele>289.0</ele><time>2026-05-03T15:57:18.361Z</time></trkpt><trkpt lat="46.0150115" lon="11.8633881"><ele>289.0</ele><time>2026-05-03T15:57:20.361Z</time></trkpt><trkpt lat="46.0150902" lon="11.8635032"><ele>289.0</ele><time>2026-05-03T15:57:22.361Z</time></trkpt><trkpt lat="46.0151715" lon="11.8636191"><ele>288.59999999999997</ele><time>2026-05-03T15:57:24.362Z</time></trkpt><trkpt lat="46.0152525" lon="11.8637363"><ele>288.2</ele><time>2026-05-03T15:57:26.361Z</time></trkpt><trkpt lat="46.0153387" lon="11.8638615"><ele>287.79999999999995</ele><time>2026-05-03T15:57:28.362Z</time></trkpt><trkpt lat="46.0153773" lon="11.8639344"><ele>287.4</ele><time>2026-05-03T15:57:29.361Z</time></trkpt><trkpt lat="46.0154413" lon="11.8640612"><ele>287.0</ele><time>2026-05-03T15:57:31.361Z</time></trkpt><trkpt lat="46.015509" lon="11.8641666"><ele>287.0</ele><time>2026-05-03T15:57:33.361Z</time></trkpt><trkpt lat="46.0155887" lon="11.864267"><ele>287.0</ele><time>2026-05-03T15:57:35.361Z</time></trkpt><trkpt lat="46.0156671" lon="11.8643685"><ele>287.0</ele><time>2026-05-03T15:57:37.361Z</time></trkpt><trkpt lat="46.0157445" lon="11.864478"><ele>287.0</ele><time>2026-05-03T15:57:39.361Z</time></trkpt><trkpt lat="46.0158094" lon="11.8645985"><ele>287.0</ele><time>2026-05-03T15:57:41.361Z</time></trkpt><trkpt lat="46.01586" lon="11.8647024"><ele>286.8</ele><time>2026-05-03T15:57:43.361Z</time></trkpt><trkpt lat="46.0159335" lon="11.8648172"><ele>286.6</ele><time>2026-05-03T15:57:45.361Z</time></trkpt><trkpt lat="46.0160122" lon="11.8649152"><ele>286.40000000000003</ele><time>2026-05-03T15:57:47.361Z</time></trkpt><trkpt lat="46.016096" lon="11.8650211"><ele>286.2</ele><time>2026-05-03T15:57:49.361Z</time></trkpt><trkpt lat="46.0161824" lon="11.8651482"><ele>286.0</ele><time>2026-05-03T15:57:51.361Z</time></trkpt><trkpt lat="46.0162252" lon="11.8652214"><ele>285.6</ele><time>2026-05-03T15:57:52.361Z</time></trkpt><trkpt lat="46.0162973" lon="11.8653448"><ele>285.20000000000005</ele><time>2026-05-03T15:57:54.361Z</time></trkpt><trkpt lat="46.0163365" lon="11.865418"><ele>284.79999999999995</ele><time>2026-05-03T15:57:55.361Z</time></trkpt><trkpt lat="46.0163939" lon="11.8655356"><ele>284.4</ele><time>2026-05-03T15:57:57.361Z</time></trkpt><trkpt lat="46.0165007" lon="11.8657098"><ele>284.0</ele><time>2026-05-03T15:58:00.361Z</time></trkpt><trkpt lat="46.0165768" lon="11.8658356"><ele>283.75</ele><time>2026-05-03T15:58:02.361Z</time></trkpt><trkpt lat="46.0166538" lon="11.8659601"><ele>283.5</ele><time>2026-05-03T15:58:04.361Z</time></trkpt><trkpt lat="46.0167253" lon="11.866076"><ele>283.25</ele><time>2026-05-03T15:58:06.361Z</time></trkpt><trkpt lat="46.0168054" lon="11.8661961"><ele>283.0</ele><time>2026-05-03T15:58:08.361Z</time></trkpt><trkpt lat="46.0168833" lon="11.8663164"><ele>283.0</ele><time>2026-05-03T15:58:10.361Z</time></trkpt><trkpt lat="46.0169572" lon="11.8664322"><ele>283.0</ele><time>2026-05-03T15:58:12.361Z</time></trkpt><trkpt lat="46.0170237" lon="11.8665448"><ele>283.0</ele><time>2026-05-03T15:58:14.362Z</time></trkpt><trkpt lat="46.0170901" lon="11.8666497"><ele>283.0</ele><time>2026-05-03T15:58:16.362Z</time></trkpt><trkpt lat="46.0171588" lon="11.8667463"><ele>283.0</ele><time>2026-05-03T15:58:18.362Z</time></trkpt><trkpt lat="46.0172443" lon="11.8668531"><ele>283.0</ele><time>2026-05-03T15:58:20.362Z</time></trkpt><trkpt lat="46.0173317" lon="11.8669556"><ele>283.0</ele><time>2026-05-03T15:58:22.362Z</time></trkpt><trkpt lat="46.0174222" lon="11.8670488"><ele>283.0</ele><time>2026-05-03T15:58:24.362Z</time></trkpt><trkpt lat="46.0174654" lon="11.8671188"><ele>283.0</ele><time>2026-05-03T15:58:25.362Z</time></trkpt><trkpt lat="46.0175259" lon="11.8672403"><ele>283.0</ele><time>2026-05-03T15:58:27.363Z</time></trkpt><trkpt lat="46.0175926" lon="11.8673147"><ele>283.0</ele><time>2026-05-03T15:58:29.362Z</time></trkpt><trkpt lat="46.0176488" lon="11.8674295"><ele>283.0</ele><time>2026-05-03T15:58:31.362Z</time></trkpt><trkpt lat="46.0176539" lon="11.8675567"><ele>283.0</ele><time>2026-05-03T15:58:33.362Z</time></trkpt><trkpt lat="46.0175987" lon="11.8677189"><ele>283.0</ele><time>2026-05-03T15:58:35.362Z</time></trkpt><trkpt lat="46.0175665" lon="11.8678696"><ele>283.0</ele><time>2026-05-03T15:58:37.362Z</time></trkpt><trkpt lat="46.0175507" lon="11.867988"><ele>282.8333333333333</ele><time>2026-05-03T15:58:39.362Z</time></trkpt><trkpt lat="46.0175513" lon="11.8681024"><ele>282.66666666666663</ele><time>2026-05-03T15:58:41.363Z</time></trkpt><trkpt lat="46.0176062" lon="11.8681843"><ele>282.5</ele><time>2026-05-03T15:58:43.362Z</time></trkpt><trkpt lat="46.0176672" lon="11.8682105"><ele>282.3333333333333</ele><time>2026-05-03T15:58:44.362Z</time></trkpt><trkpt lat="46.0177464" lon="11.8682331"><ele>282.1666666666667</ele><time>2026-05-03T15:58:45.362Z</time></trkpt><trkpt lat="46.0178679" lon="11.8682218"><ele>282.0</ele><time>2026-05-03T15:58:47.362Z</time></trkpt><trkpt lat="46.0179739" lon="11.8681845"><ele>282.0</ele><time>2026-05-03T15:58:49.362Z</time></trkpt><trkpt lat="46.0180628" lon="11.8681401"><ele>282.0</ele><time>2026-05-03T15:58:51.362Z</time></trkpt><trkpt lat="46.0182535" lon="11.8681429"><ele>282.0</ele><time>2026-05-03T15:58:55.362Z</time></trkpt><trkpt lat="46.0183127" lon="11.8681786"><ele>282.0</ele><time>2026-05-03T15:58:56.362Z</time></trkpt><trkpt lat="46.0184196" lon="11.8682682"><ele>282.25</ele><time>2026-05-03T15:58:58.363Z</time></trkpt><trkpt lat="46.0185025" lon="11.8684045"><ele>282.5</ele><time>2026-05-03T15:59:00.363Z</time></trkpt><trkpt lat="46.0185773" lon="11.8685463"><ele>282.75</ele><time>2026-05-03T15:59:02.364Z</time></trkpt><trkpt lat="46.0186504" lon="11.8686841"><ele>283.0</ele><time>2026-05-03T15:59:04.364Z</time></trkpt><trkpt lat="46.018739" lon="11.8687982"><ele>282.6</ele><time>2026-05-03T15:59:06.363Z</time></trkpt><trkpt lat="46.0188307" lon="11.8689006"><ele>282.20000000000005</ele><time>2026-05-03T15:59:08.364Z</time></trkpt><trkpt lat="46.0189195" lon="11.8690058"><ele>281.8</ele><time>2026-05-03T15:59:10.362Z</time></trkpt><trkpt lat="46.0190005" lon="11.869115"><ele>281.40000000000003</ele><time>2026-05-03T15:59:12.362Z</time></trkpt><trkpt lat="46.0190705" lon="11.8692272"><ele>281.0</ele><time>2026-05-03T15:59:14.363Z</time></trkpt><trkpt lat="46.0191352" lon="11.8693639"><ele>280.5</ele><time>2026-05-03T15:59:16.363Z</time></trkpt><trkpt lat="46.0191881" lon="11.8695158"><ele>280.0</ele><time>2026-05-03T15:59:18.363Z</time></trkpt><trkpt lat="46.0192344" lon="11.8696746"><ele>279.5</ele><time>2026-05-03T15:59:20.362Z</time></trkpt><trkpt lat="46.0192786" lon="11.8698339"><ele>279.0</ele><time>2026-05-03T15:59:22.363Z</time></trkpt><trkpt lat="46.0193251" lon="11.8699928"><ele>278.75</ele><time>2026-05-03T15:59:24.362Z</time></trkpt><trkpt lat="46.0193738" lon="11.8701498"><ele>278.5</ele><time>2026-05-03T15:59:26.362Z</time></trkpt><trkpt lat="46.0194239" lon="11.8703046"><ele>278.25</ele><time>2026-05-03T15:59:28.363Z</time></trkpt><trkpt lat="46.0194745" lon="11.8704596"><ele>278.0</ele><time>2026-05-03T15:59:30.363Z</time></trkpt><trkpt lat="46.0195198" lon="11.8706165"><ele>278.0</ele><time>2026-05-03T15:59:32.363Z</time></trkpt><trkpt lat="46.019558" lon="11.870774"><ele>278.0</ele><time>2026-05-03T15:59:34.364Z</time></trkpt><trkpt lat="46.0195894" lon="11.8709327"><ele>278.0</ele><time>2026-05-03T15:59:36.364Z</time></trkpt><trkpt lat="46.0196148" lon="11.8710885"><ele>278.0</ele><time>2026-05-03T15:59:38.363Z</time></trkpt><trkpt lat="46.0196398" lon="11.8712453"><ele>277.5</ele><time>2026-05-03T15:59:40.363Z</time></trkpt><trkpt lat="46.0196736" lon="11.8714024"><ele>277.0</ele><time>2026-05-03T15:59:42.363Z</time></trkpt><trkpt lat="46.0197159" lon="11.8715555"><ele>276.5</ele><time>2026-05-03T15:59:44.363Z</time></trkpt><trkpt lat="46.0197657" lon="11.8717025"><ele>276.0</ele><time>2026-05-03T15:59:46.363Z</time></trkpt><trkpt lat="46.0198202" lon="11.871846"><ele>275.75</ele><time>2026-05-03T15:59:48.363Z</time></trkpt><trkpt lat="46.0198626" lon="11.8719884"><ele>275.5</ele><time>2026-05-03T15:59:50.363Z</time></trkpt><trkpt lat="46.0198907" lon="11.8721383"><ele>275.25</ele><time>2026-05-03T15:59:52.364Z</time></trkpt><trkpt lat="46.0198811" lon="11.8723057"><ele>275.0</ele><time>2026-05-03T15:59:54.363Z</time></trkpt><trkpt lat="46.0198388" lon="11.8724713"><ele>275.2</ele><time>2026-05-03T15:59:56.363Z</time></trkpt><trkpt lat="46.0197989" lon="11.8726279"><ele>275.4</ele><time>2026-05-03T15:59:58.363Z</time></trkpt><trkpt lat="46.0197574" lon="11.8727825"><ele>275.6</ele><time>2026-05-03T16:00:00.363Z</time></trkpt><trkpt lat="46.0197222" lon="11.8729351"><ele>275.8</ele><time>2026-05-03T16:00:02.363Z</time></trkpt><trkpt lat="46.0196678" lon="11.8730093"><ele>276.0</ele><time>2026-05-03T16:00:03.363Z</time></trkpt><trkpt lat="46.0196294" lon="11.8730837"><ele>276.0</ele><time>2026-05-03T16:00:04.363Z</time></trkpt><trkpt lat="46.019583" lon="11.8732346"><ele>276.0</ele><time>2026-05-03T16:00:06.364Z</time></trkpt><trkpt lat="46.0195332" lon="11.8733749"><ele>276.0</ele><time>2026-05-03T16:00:08.363Z</time></trkpt><trkpt lat="46.0194858" lon="11.8735181"><ele>276.0</ele><time>2026-05-03T16:00:10.363Z</time></trkpt><trkpt lat="46.0194555" lon="11.8735988"><ele>276.0</ele><time>2026-05-03T16:00:11.364Z</time></trkpt><trkpt lat="46.019405" lon="11.8737523"><ele>275.75</ele><time>2026-05-03T16:00:13.364Z</time></trkpt><trkpt lat="46.0193714" lon="11.8739179"><ele>275.5</ele><time>2026-05-03T16:00:15.363Z</time></trkpt><trkpt lat="46.0193757" lon="11.8740874"><ele>275.25</ele><time>2026-05-03T16:00:17.363Z</time></trkpt><trkpt lat="46.0194092" lon="11.87424"><ele>275.0</ele><time>2026-05-03T16:00:19.363Z</time></trkpt><trkpt lat="46.0194625" lon="11.8743917"><ele>275.0</ele><time>2026-05-03T16:00:21.363Z</time></trkpt><trkpt lat="46.0195193" lon="11.8745364"><ele>275.0</ele><time>2026-05-03T16:00:23.364Z</time></trkpt><trkpt lat="46.0195739" lon="11.8746777"><ele>275.0</ele><time>2026-05-03T16:00:25.364Z</time></trkpt><trkpt lat="46.0196228" lon="11.8748185"><ele>275.0</ele><time>2026-05-03T16:00:27.364Z</time></trkpt><trkpt lat="46.0196649" lon="11.8749752"><ele>275.0</ele><time>2026-05-03T16:00:29.363Z</time></trkpt><trkpt lat="46.0196984" lon="11.875133"><ele>275.0</ele><time>2026-05-03T16:00:31.363Z</time></trkpt><trkpt lat="46.0197301" lon="11.8752903"><ele>275.0</ele><time>2026-05-03T16:00:33.363Z</time></trkpt><trkpt lat="46.0197587" lon="11.8754423"><ele>275.0</ele><time>2026-05-03T16:00:35.363Z</time></trkpt><trkpt lat="46.019793" lon="11.8755985"><ele>275.0</ele><time>2026-05-03T16:00:37.364Z</time></trkpt><trkpt lat="46.0198231" lon="11.8757563"><ele>275.0</ele><time>2026-05-03T16:00:39.364Z</time></trkpt><trkpt lat="46.0198399" lon="11.875906"><ele>275.0</ele><time>2026-05-03T16:00:41.364Z</time></trkpt><trkpt lat="46.0198678" lon="11.8760664"><ele>275.0</ele><time>2026-05-03T16:00:43.364Z</time></trkpt><trkpt lat="46.0199204" lon="11.8762249"><ele>275.0</ele><time>2026-05-03T16:00:45.364Z</time></trkpt><trkpt lat="46.0199888" lon="11.8763789"><ele>275.0</ele><time>2026-05-03T16:00:47.364Z</time></trkpt><trkpt lat="46.0200537" lon="11.8765281"><ele>275.0</ele><time>2026-05-03T16:00:49.364Z</time></trkpt><trkpt lat="46.0201298" lon="11.8766711"><ele>275.0</ele><time>2026-05-03T16:00:51.364Z</time></trkpt><trkpt lat="46.0202103" lon="11.8767993"><ele>275.0</ele><time>2026-05-03T16:00:53.365Z</time></trkpt><trkpt lat="46.0202577" lon="11.8768658"><ele>275.0</ele><time>2026-05-03T16:00:54.364Z</time></trkpt><trkpt lat="46.0203457" lon="11.8769911"><ele>275.0</ele><time>2026-05-03T16:00:56.365Z</time></trkpt><trkpt lat="46.0203924" lon="11.8770549"><ele>275.0</ele><time>2026-05-03T16:00:57.364Z</time></trkpt><trkpt lat="46.0204405" lon="11.8771158"><ele>275.0</ele><time>2026-05-03T16:00:58.365Z</time></trkpt><trkpt lat="46.0205292" lon="11.8772259"><ele>275.0</ele><time>2026-05-03T16:01:00.364Z</time></trkpt><trkpt lat="46.0206054" lon="11.8773381"><ele>275.0</ele><time>2026-05-03T16:01:02.364Z</time></trkpt><trkpt lat="46.0206511" lon="11.8774005"><ele>275.0</ele><time>2026-05-03T16:01:03.364Z</time></trkpt><trkpt lat="46.0206992" lon="11.8774627"><ele>275.0</ele><time>2026-05-03T16:01:04.364Z</time></trkpt><trkpt lat="46.0207463" lon="11.8775335"><ele>275.0</ele><time>2026-05-03T16:01:05.365Z</time></trkpt><trkpt lat="46.020792" lon="11.8776014"><ele>275.0</ele><time>2026-05-03T16:01:06.364Z</time></trkpt><trkpt lat="46.0208795" lon="11.8777191"><ele>275.0</ele><time>2026-05-03T16:01:08.364Z</time></trkpt><trkpt lat="46.0209688" lon="11.8778351"><ele>274.75</ele><time>2026-05-03T16:01:10.364Z</time></trkpt><trkpt lat="46.0210561" lon="11.8779588"><ele>274.5</ele><time>2026-05-03T16:01:12.364Z</time></trkpt><trkpt lat="46.0211407" lon="11.878073"><ele>274.25</ele><time>2026-05-03T16:01:14.364Z</time></trkpt><trkpt lat="46.0212217" lon="11.8781813"><ele>274.0</ele><time>2026-05-03T16:01:16.364Z</time></trkpt><trkpt lat="46.0213078" lon="11.8782933"><ele>274.0</ele><time>2026-05-03T16:01:18.365Z</time></trkpt><trkpt lat="46.0213907" lon="11.878404"><ele>274.0</ele><time>2026-05-03T16:01:20.364Z</time></trkpt><trkpt lat="46.0214724" lon="11.8785129"><ele>274.0</ele><time>2026-05-03T16:01:22.365Z</time></trkpt><trkpt lat="46.0215558" lon="11.8786269"><ele>274.0</ele><time>2026-05-03T16:01:24.364Z</time></trkpt><trkpt lat="46.0216398" lon="11.8787363"><ele>274.0</ele><time>2026-05-03T16:01:26.364Z</time></trkpt><trkpt lat="46.0217216" lon="11.8788418"><ele>274.0</ele><time>2026-05-03T16:01:28.365Z</time></trkpt><trkpt lat="46.0218091" lon="11.8789566"><ele>274.0</ele><time>2026-05-03T16:01:30.364Z</time></trkpt><trkpt lat="46.0218897" lon="11.8790682"><ele>274.0</ele><time>2026-05-03T16:01:32.365Z</time></trkpt><trkpt lat="46.0219685" lon="11.8791748"><ele>274.0</ele><time>2026-05-03T16:01:34.364Z</time></trkpt><trkpt lat="46.0220475" lon="11.8792959"><ele>273.66666666666663</ele><time>2026-05-03T16:01:36.364Z</time></trkpt><trkpt lat="46.0221035" lon="11.8794257"><ele>273.3333333333333</ele><time>2026-05-03T16:01:38.364Z</time></trkpt><trkpt lat="46.0221363" lon="11.8795628"><ele>273.0</ele><time>2026-05-03T16:01:40.364Z</time></trkpt><trkpt lat="46.0221475" lon="11.8796547"><ele>272.6666666666667</ele><time>2026-05-03T16:01:41.366Z</time></trkpt><trkpt lat="46.0221565" lon="11.8797512"><ele>272.33333333333337</ele><time>2026-05-03T16:01:42.364Z</time></trkpt><trkpt lat="46.0221674" lon="11.8798416"><ele>272.0</ele><time>2026-05-03T16:01:43.365Z</time></trkpt><trkpt lat="46.0221893" lon="11.880012"><ele>271.75</ele><time>2026-05-03T16:01:45.364Z</time></trkpt><trkpt lat="46.0222086" lon="11.8801798"><ele>271.5</ele><time>2026-05-03T16:01:47.366Z</time></trkpt><trkpt lat="46.0222326" lon="11.8803556"><ele>271.25</ele><time>2026-05-03T16:01:49.364Z</time></trkpt><trkpt lat="46.0222477" lon="11.880523"><ele>271.0</ele><time>2026-05-03T16:01:51.364Z</time></trkpt><trkpt lat="46.0222624" lon="11.8806946"><ele>271.0</ele><time>2026-05-03T16:01:53.365Z</time></trkpt><trkpt lat="46.0222762" lon="11.8808744"><ele>271.0</ele><time>2026-05-03T16:01:55.365Z</time></trkpt><trkpt lat="46.0222774" lon="11.8809664"><ele>271.0</ele><time>2026-05-03T16:01:56.365Z</time></trkpt><trkpt lat="46.0222649" lon="11.8811412"><ele>271.0</ele><time>2026-05-03T16:01:58.366Z</time></trkpt><trkpt lat="46.0222359" lon="11.8813085"><ele>271.0</ele><time>2026-05-03T16:02:00.365Z</time></trkpt><trkpt lat="46.0221875" lon="11.8814796"><ele>271.2</ele><time>2026-05-03T16:02:02.366Z</time></trkpt><trkpt lat="46.022161" lon="11.8815681"><ele>271.40000000000003</ele><time>2026-05-03T16:02:03.365Z</time></trkpt><trkpt lat="46.0221159" lon="11.8817346"><ele>271.6</ele><time>2026-05-03T16:02:05.365Z</time></trkpt><trkpt lat="46.0220817" lon="11.8818914"><ele>271.8</ele><time>2026-05-03T16:02:07.366Z</time></trkpt><trkpt lat="46.022054" lon="11.8820586"><ele>272.0</ele><time>2026-05-03T16:02:09.365Z</time></trkpt><trkpt lat="46.0220444" lon="11.8822233"><ele>272.0</ele><time>2026-05-03T16:02:11.365Z</time></trkpt><trkpt lat="46.0220548" lon="11.8823915"><ele>272.0</ele><time>2026-05-03T16:02:13.365Z</time></trkpt><trkpt lat="46.0220695" lon="11.8825643"><ele>272.0</ele><time>2026-05-03T16:02:15.365Z</time></trkpt><trkpt lat="46.0220812" lon="11.8827232"><ele>272.0</ele><time>2026-05-03T16:02:17.365Z</time></trkpt><trkpt lat="46.0220941" lon="11.8828746"><ele>271.8</ele><time>2026-05-03T16:02:19.365Z</time></trkpt><trkpt lat="46.0221139" lon="11.8830263"><ele>271.6</ele><time>2026-05-03T16:02:21.365Z</time></trkpt><trkpt lat="46.0221374" lon="11.8831951"><ele>271.40000000000003</ele><time>2026-05-03T16:02:23.366Z</time></trkpt><trkpt lat="46.0221498" lon="11.8833473"><ele>271.2</ele><time>2026-05-03T16:02:25.365Z</time></trkpt><trkpt lat="46.0221678" lon="11.8835066"><ele>271.0</ele><time>2026-05-03T16:02:27.365Z</time></trkpt><trkpt lat="46.0221799" lon="11.8836637"><ele>271.0</ele><time>2026-05-03T16:02:29.365Z</time></trkpt><trkpt lat="46.0221918" lon="11.8838208"><ele>271.0</ele><time>2026-05-03T16:02:31.365Z</time></trkpt><trkpt lat="46.0222063" lon="11.8839749"><ele>271.0</ele><time>2026-05-03T16:02:33.365Z</time></trkpt><trkpt lat="46.0222266" lon="11.8841254"><ele>271.0</ele><time>2026-05-03T16:02:35.365Z</time></trkpt><trkpt lat="46.0222385" lon="11.8842789"><ele>271.0</ele><time>2026-05-03T16:02:37.365Z</time></trkpt><trkpt lat="46.0222509" lon="11.8844264"><ele>271.40000000000003</ele><time>2026-05-03T16:02:39.365Z</time></trkpt><trkpt lat="46.0222641" lon="11.8845713"><ele>271.8</ele><time>2026-05-03T16:02:41.365Z</time></trkpt><trkpt lat="46.0222598" lon="11.8847181"><ele>272.20000000000005</ele><time>2026-05-03T16:02:43.365Z</time></trkpt><trkpt lat="46.0222184" lon="11.8848634"><ele>272.6</ele><time>2026-05-03T16:02:45.365Z</time></trkpt><trkpt lat="46.022142" lon="11.8849798"><ele>273.0</ele><time>2026-05-03T16:02:47.365Z</time></trkpt><trkpt lat="46.0220389" lon="11.885052"><ele>273.2</ele><time>2026-05-03T16:02:49.365Z</time></trkpt><trkpt lat="46.0219437" lon="11.8851079"><ele>273.4</ele><time>2026-05-03T16:02:51.366Z</time></trkpt><trkpt lat="46.0218517" lon="11.8851794"><ele>273.59999999999997</ele><time>2026-05-03T16:02:53.365Z</time></trkpt><trkpt lat="46.021755" lon="11.8852725"><ele>273.8</ele><time>2026-05-03T16:02:55.365Z</time></trkpt><trkpt lat="46.0216824" lon="11.8853845"><ele>274.0</ele><time>2026-05-03T16:02:57.366Z</time></trkpt><trkpt lat="46.0216177" lon="11.8855086"><ele>273.8</ele><time>2026-05-03T16:02:59.366Z</time></trkpt><trkpt lat="46.0215662" lon="11.8856431"><ele>273.59999999999997</ele><time>2026-05-03T16:03:01.365Z</time></trkpt><trkpt lat="46.0215274" lon="11.8857879"><ele>273.4</ele><time>2026-05-03T16:03:03.366Z</time></trkpt><trkpt lat="46.0215035" lon="11.885942"><ele>273.2</ele><time>2026-05-03T16:03:05.366Z</time></trkpt><trkpt lat="46.0214885" lon="11.8861051"><ele>273.0</ele><time>2026-05-03T16:03:07.366Z</time></trkpt><trkpt lat="46.0214748" lon="11.8862584"><ele>273.0</ele><time>2026-05-03T16:03:09.366Z</time></trkpt><trkpt lat="46.0214723" lon="11.8864092"><ele>273.0</ele><time>2026-05-03T16:03:11.367Z</time></trkpt><trkpt lat="46.0214986" lon="11.8865508"><ele>273.0</ele><time>2026-05-03T16:03:13.367Z</time></trkpt><trkpt lat="46.0215419" lon="11.8866788"><ele>273.0</ele><time>2026-05-03T16:03:15.366Z</time></trkpt><trkpt lat="46.0215996" lon="11.8867858"><ele>273.0</ele><time>2026-05-03T16:03:17.366Z</time></trkpt><trkpt lat="46.0216611" lon="11.8868884"><ele>273.6</ele><time>2026-05-03T16:03:19.367Z</time></trkpt><trkpt lat="46.0217323" lon="11.8869951"><ele>274.20000000000005</ele><time>2026-05-03T16:03:21.367Z</time></trkpt><trkpt lat="46.0218071" lon="11.8871158"><ele>274.8</ele><time>2026-05-03T16:03:23.366Z</time></trkpt><trkpt lat="46.0218674" lon="11.8872255"><ele>275.40000000000003</ele><time>2026-05-03T16:03:25.366Z</time></trkpt><trkpt lat="46.0219283" lon="11.8873477"><ele>276.0</ele><time>2026-05-03T16:03:27.367Z</time></trkpt><trkpt lat="46.021979" lon="11.8874694"><ele>276.0</ele><time>2026-05-03T16:03:29.367Z</time></trkpt><trkpt lat="46.0220094" lon="11.8875896"><ele>276.0</ele><time>2026-05-03T16:03:31.366Z</time></trkpt><trkpt lat="46.0219783" lon="11.8876851"><ele>276.0</ele><time>2026-05-03T16:03:33.366Z</time></trkpt><trkpt lat="46.0218874" lon="11.8876975"><ele>276.0</ele><time>2026-05-03T16:03:35.366Z</time></trkpt><trkpt lat="46.0218" lon="11.8877036"><ele>276.0</ele><time>2026-05-03T16:03:37.366Z</time></trkpt><trkpt lat="46.0217226" lon="11.8877236"><ele>276.0</ele><time>2026-05-03T16:03:39.366Z</time></trkpt><trkpt lat="46.0216369" lon="11.8877393"><ele>275.8333333333333</ele><time>2026-05-03T16:03:41.366Z</time></trkpt><trkpt lat="46.0215381" lon="11.8877529"><ele>275.6666666666667</ele><time>2026-05-03T16:03:43.366Z</time></trkpt><trkpt lat="46.0214464" lon="11.8877629"><ele>275.5</ele><time>2026-05-03T16:03:45.366Z</time></trkpt><trkpt lat="46.0213643" lon="11.8877958"><ele>275.33333333333337</ele><time>2026-05-03T16:03:47.366Z</time></trkpt><trkpt lat="46.02129" lon="11.8878151"><ele>275.1666666666667</ele><time>2026-05-03T16:03:49.367Z</time></trkpt><trkpt lat="46.0212056" lon="11.8878304"><ele>275.0</ele><time>2026-05-03T16:03:51.366Z</time></trkpt><trkpt lat="46.0211333" lon="11.8878515"><ele>275.0</ele><time>2026-05-03T16:03:53.367Z</time></trkpt><trkpt lat="46.0210638" lon="11.8878775"><ele>275.0</ele><time>2026-05-03T16:03:55.367Z</time></trkpt><trkpt lat="46.0209969" lon="11.8879439"><ele>275.0</ele><time>2026-05-03T16:03:57.366Z</time></trkpt><trkpt lat="46.0209881" lon="11.8880974"><ele>275.0</ele><time>2026-05-03T16:03:59.366Z</time></trkpt><trkpt lat="46.0210165" lon="11.8882324"><ele>275.0</ele><time>2026-05-03T16:04:01.367Z</time></trkpt><trkpt lat="46.0210252" lon="11.8883673"><ele>274.8</ele><time>2026-05-03T16:04:03.366Z</time></trkpt><trkpt lat="46.0210395" lon="11.8885043"><ele>274.6</ele><time>2026-05-03T16:04:05.366Z</time></trkpt><trkpt lat="46.0210544" lon="11.8886524"><ele>274.4</ele><time>2026-05-03T16:04:07.366Z</time></trkpt><trkpt lat="46.0210592" lon="11.8887954"><ele>274.2</ele><time>2026-05-03T16:04:09.366Z</time></trkpt><trkpt lat="46.0210565" lon="11.8889566"><ele>274.0</ele><time>2026-05-03T16:04:11.367Z</time></trkpt><trkpt lat="46.0210459" lon="11.8891103"><ele>274.0</ele><time>2026-05-03T16:04:13.368Z</time></trkpt><trkpt lat="46.0210239" lon="11.8892583"><ele>274.0</ele><time>2026-05-03T16:04:15.367Z</time></trkpt><trkpt lat="46.0210048" lon="11.8894075"><ele>274.0</ele><time>2026-05-03T16:04:17.368Z</time></trkpt><trkpt lat="46.0209797" lon="11.8895393"><ele>274.0</ele><time>2026-05-03T16:04:19.367Z</time></trkpt><trkpt lat="46.0209482" lon="11.8896718"><ele>274.0</ele><time>2026-05-03T16:04:21.367Z</time></trkpt><trkpt lat="46.0209126" lon="11.8898222"><ele>274.0</ele><time>2026-05-03T16:04:23.367Z</time></trkpt><trkpt lat="46.0208793" lon="11.8899764"><ele>274.0</ele><time>2026-05-03T16:04:25.367Z</time></trkpt><trkpt lat="46.0208449" lon="11.8901275"><ele>274.0</ele><time>2026-05-03T16:04:27.368Z</time></trkpt><trkpt lat="46.0207986" lon="11.890273"><ele>274.0</ele><time>2026-05-03T16:04:29.367Z</time></trkpt><trkpt lat="46.0207476" lon="11.8904133"><ele>274.0</ele><time>2026-05-03T16:04:31.367Z</time></trkpt><trkpt lat="46.0207054" lon="11.8905393"><ele>274.0</ele><time>2026-05-03T16:04:33.367Z</time></trkpt><trkpt lat="46.0206387" lon="11.8906706"><ele>274.0</ele><time>2026-05-03T16:04:35.367Z</time></trkpt><trkpt lat="46.0205838" lon="11.8908192"><ele>274.0</ele><time>2026-05-03T16:04:37.367Z</time></trkpt><trkpt lat="46.0205435" lon="11.8909623"><ele>274.0</ele><time>2026-05-03T16:04:39.367Z</time></trkpt><trkpt lat="46.0205014" lon="11.8911011"><ele>274.0</ele><time>2026-05-03T16:04:41.367Z</time></trkpt><trkpt lat="46.020462" lon="11.891237"><ele>274.0</ele><time>2026-05-03T16:04:43.367Z</time></trkpt><trkpt lat="46.0204279" lon="11.8913685"><ele>274.0</ele><time>2026-05-03T16:04:45.367Z</time></trkpt><trkpt lat="46.0204017" lon="11.89151"><ele>274.0</ele><time>2026-05-03T16:04:47.367Z</time></trkpt><trkpt lat="46.02037" lon="11.8916586"><ele>274.0</ele><time>2026-05-03T16:04:49.367Z</time></trkpt><trkpt lat="46.0203495" lon="11.8918049"><ele>274.0</ele><time>2026-05-03T16:04:51.367Z</time></trkpt><trkpt lat="46.020319" lon="11.8919515"><ele>274.0</ele><time>2026-05-03T16:04:53.367Z</time></trkpt><trkpt lat="46.0202766" lon="11.8920978"><ele>274.0</ele><time>2026-05-03T16:04:55.367Z</time></trkpt><trkpt lat="46.0202301" lon="11.8922415"><ele>274.0</ele><time>2026-05-03T16:04:57.367Z</time></trkpt><trkpt lat="46.0201798" lon="11.892384"><ele>274.0</ele><time>2026-05-03T16:04:59.367Z</time></trkpt><trkpt lat="46.0201356" lon="11.8925208"><ele>274.0</ele><time>2026-05-03T16:05:01.367Z</time></trkpt><trkpt lat="46.0200929" lon="11.8926547"><ele>274.0</ele><time>2026-05-03T16:05:03.367Z</time></trkpt><trkpt lat="46.0200542" lon="11.8927948"><ele>274.0</ele><time>2026-05-03T16:05:05.367Z</time></trkpt><trkpt lat="46.0200161" lon="11.8929419"><ele>274.0</ele><time>2026-05-03T16:05:07.367Z</time></trkpt><trkpt lat="46.0199805" lon="11.8930968"><ele>274.0</ele><time>2026-05-03T16:05:09.367Z</time></trkpt><trkpt lat="46.019951" lon="11.8932538"><ele>274.0</ele><time>2026-05-03T16:05:11.368Z</time></trkpt><trkpt lat="46.0199181" lon="11.8934206"><ele>273.8</ele><time>2026-05-03T16:05:13.367Z</time></trkpt><trkpt lat="46.0198789" lon="11.8935665"><ele>273.59999999999997</ele><time>2026-05-03T16:05:15.368Z</time></trkpt><trkpt lat="46.0198465" lon="11.8937026"><ele>273.4</ele><time>2026-05-03T16:05:17.367Z</time></trkpt><trkpt lat="46.0198138" lon="11.8938201"><ele>273.2</ele><time>2026-05-03T16:05:19.368Z</time></trkpt><trkpt lat="46.0197691" lon="11.894022"><ele>273.0</ele><time>2026-05-03T16:05:22.367Z</time></trkpt><trkpt lat="46.0197253" lon="11.8941574"><ele>273.0</ele><time>2026-05-03T16:05:24.368Z</time></trkpt><trkpt lat="46.0196623" lon="11.8942649"><ele>273.0</ele><time>2026-05-03T16:05:26.367Z</time></trkpt><trkpt lat="46.0195968" lon="11.8943408"><ele>273.0</ele><time>2026-05-03T16:05:28.368Z</time></trkpt><trkpt lat="46.0195225" lon="11.894406"><ele>273.0</ele><time>2026-05-03T16:05:30.368Z</time></trkpt><trkpt lat="46.0194595" lon="11.8944729"><ele>273.0</ele><time>2026-05-03T16:05:33.368Z</time></trkpt><trkpt lat="46.0194091" lon="11.8945564"><ele>273.0</ele><time>2026-05-03T16:05:41.368Z</time></trkpt><trkpt lat="46.0193654" lon="11.8946822"><ele>273.0</ele><time>2026-05-03T16:05:43.368Z</time></trkpt><trkpt lat="46.0193532" lon="11.8947718"><ele>273.0</ele><time>2026-05-03T16:05:44.368Z</time></trkpt><trkpt lat="46.019352" lon="11.8949485"><ele>273.0</ele><time>2026-05-03T16:05:46.369Z</time></trkpt><trkpt lat="46.0193672" lon="11.8950978"><ele>273.0</ele><time>2026-05-03T16:05:48.368Z</time></trkpt><trkpt lat="46.0193716" lon="11.895247"><ele>273.0</ele><time>2026-05-03T16:05:50.368Z</time></trkpt><trkpt lat="46.0193738" lon="11.8953877"><ele>273.1666666666667</ele><time>2026-05-03T16:05:52.368Z</time></trkpt><trkpt lat="46.0193666" lon="11.895515"><ele>273.3333333333333</ele><time>2026-05-03T16:05:54.369Z</time></trkpt><trkpt lat="46.0193577" lon="11.8956278"><ele>273.5</ele><time>2026-05-03T16:05:56.368Z</time></trkpt><trkpt lat="46.0193578" lon="11.8957307"><ele>273.66666666666663</ele><time>2026-05-03T16:05:58.368Z</time></trkpt><trkpt lat="46.0193555" lon="11.895864"><ele>273.8333333333333</ele><time>2026-05-03T16:06:00.368Z</time></trkpt><trkpt lat="46.0193493" lon="11.8959995"><ele>274.0</ele><time>2026-05-03T16:06:02.368Z</time></trkpt><trkpt lat="46.0193323" lon="11.8961198"><ele>274.0</ele><time>2026-05-03T16:06:04.368Z</time></trkpt><trkpt lat="46.0193261" lon="11.8962319"><ele>274.0</ele><time>2026-05-03T16:06:06.368Z</time></trkpt><trkpt lat="46.0193144" lon="11.8963294"><ele>274.0</ele><time>2026-05-03T16:06:08.368Z</time></trkpt><trkpt lat="46.0192471" lon="11.8963886"><ele>274.0</ele><time>2026-05-03T16:06:10.368Z</time></trkpt><trkpt lat="46.0191416" lon="11.8964103"><ele>274.0</ele><time>2026-05-03T16:06:12.368Z</time></trkpt><trkpt lat="46.0190547" lon="11.8964425"><ele>274.0</ele><time>2026-05-03T16:06:14.368Z</time></trkpt><trkpt lat="46.0189745" lon="11.8964818"><ele>273.4</ele><time>2026-05-03T16:06:16.368Z</time></trkpt><trkpt lat="46.0188781" lon="11.8965233"><ele>272.79999999999995</ele><time>2026-05-03T16:06:18.368Z</time></trkpt><trkpt lat="46.0187784" lon="11.8965659"><ele>272.20000000000005</ele><time>2026-05-03T16:06:20.368Z</time></trkpt><trkpt lat="46.0186791" lon="11.896601"><ele>271.6</ele><time>2026-05-03T16:06:22.37Z</time></trkpt><trkpt lat="46.0185807" lon="11.8966401"><ele>271.0</ele><time>2026-05-03T16:06:24.368Z</time></trkpt><trkpt lat="46.01848" lon="11.896677"><ele>271.0</ele><time>2026-05-03T16:06:26.368Z</time></trkpt><trkpt lat="46.0183686" lon="11.8967128"><ele>271.0</ele><time>2026-05-03T16:06:28.368Z</time></trkpt><trkpt lat="46.0182611" lon="11.8967583"><ele>271.0</ele><time>2026-05-03T16:06:30.369Z</time></trkpt><trkpt lat="46.0181619" lon="11.8967917"><ele>271.0</ele><time>2026-05-03T16:06:32.368Z</time></trkpt><trkpt lat="46.0180748" lon="11.8968243"><ele>271.0</ele><time>2026-05-03T16:06:34.368Z</time></trkpt><trkpt lat="46.0179815" lon="11.8968721"><ele>271.0</ele><time>2026-05-03T16:06:36.369Z</time></trkpt><trkpt lat="46.0178908" lon="11.8969244"><ele>271.0</ele><time>2026-05-03T16:06:38.368Z</time></trkpt><trkpt lat="46.0178062" lon="11.8969776"><ele>271.0</ele><time>2026-05-03T16:06:40.369Z</time></trkpt><trkpt lat="46.0177464" lon="11.8971659"><ele>271.0</ele><time>2026-05-03T16:06:43.369Z</time></trkpt><trkpt lat="46.017753" lon="11.8973255"><ele>271.0</ele><time>2026-05-03T16:06:45.369Z</time></trkpt><trkpt lat="46.0177329" lon="11.8974415"><ele>271.0</ele><time>2026-05-03T16:06:47.369Z</time></trkpt><trkpt lat="46.0176425" lon="11.8974868"><ele>271.0</ele><time>2026-05-03T16:06:49.369Z</time></trkpt><trkpt lat="46.0175239" lon="11.8974841"><ele>271.0</ele><time>2026-05-03T16:06:51.369Z</time></trkpt><trkpt lat="46.0174088" lon="11.8974942"><ele>271.0</ele><time>2026-05-03T16:06:53.37Z</time></trkpt><trkpt lat="46.0173406" lon="11.8975242"><ele>271.0</ele><time>2026-05-03T16:06:54.369Z</time></trkpt><trkpt lat="46.0172448" lon="11.8975751"><ele>270.40000000000003</ele><time>2026-05-03T16:06:56.369Z</time></trkpt><trkpt lat="46.0171433" lon="11.8976244"><ele>269.8</ele><time>2026-05-03T16:06:58.369Z</time></trkpt><trkpt lat="46.017067" lon="11.8977006"><ele>269.20000000000005</ele><time>2026-05-03T16:07:00.369Z</time></trkpt><trkpt lat="46.0170422" lon="11.8978547"><ele>268.6</ele><time>2026-05-03T16:07:02.369Z</time></trkpt><trkpt lat="46.0170687" lon="11.898008"><ele>268.0</ele><time>2026-05-03T16:07:04.369Z</time></trkpt><trkpt lat="46.0171026" lon="11.898132"><ele>268.0</ele><time>2026-05-03T16:07:06.369Z</time></trkpt><trkpt lat="46.017138" lon="11.8982631"><ele>268.0</ele><time>2026-05-03T16:07:08.369Z</time></trkpt><trkpt lat="46.0171774" lon="11.8983969"><ele>268.0</ele><time>2026-05-03T16:07:10.369Z</time></trkpt><trkpt lat="46.0172169" lon="11.8985309"><ele>268.0</ele><time>2026-05-03T16:07:12.369Z</time></trkpt><trkpt lat="46.0172525" lon="11.8986701"><ele>268.0</ele><time>2026-05-03T16:07:14.369Z</time></trkpt><trkpt lat="46.0172932" lon="11.8988199"><ele>267.8</ele><time>2026-05-03T16:07:16.369Z</time></trkpt><trkpt lat="46.0173298" lon="11.8989686"><ele>267.6</ele><time>2026-05-03T16:07:18.369Z</time></trkpt><trkpt lat="46.017363" lon="11.8991099"><ele>267.4</ele><time>2026-05-03T16:07:20.369Z</time></trkpt><trkpt lat="46.0173993" lon="11.899267"><ele>267.2</ele><time>2026-05-03T16:07:22.369Z</time></trkpt><trkpt lat="46.017442" lon="11.8994165"><ele>267.0</ele><time>2026-05-03T16:07:24.369Z</time></trkpt><trkpt lat="46.0174716" lon="11.8995533"><ele>267.2</ele><time>2026-05-03T16:07:26.369Z</time></trkpt><trkpt lat="46.0175078" lon="11.899702"><ele>267.4</ele><time>2026-05-03T16:07:28.37Z</time></trkpt><trkpt lat="46.0175515" lon="11.8998482"><ele>267.6</ele><time>2026-05-03T16:07:30.369Z</time></trkpt><trkpt lat="46.0175874" lon="11.8999952"><ele>267.8</ele><time>2026-05-03T16:07:32.369Z</time></trkpt><trkpt lat="46.0176229" lon="11.9001309"><ele>268.0</ele><time>2026-05-03T16:07:34.369Z</time></trkpt><trkpt lat="46.0176546" lon="11.9002403"><ele>268.0</ele><time>2026-05-03T16:07:36.369Z</time></trkpt><trkpt lat="46.0176543" lon="11.9003724"><ele>268.0</ele><time>2026-05-03T16:07:38.369Z</time></trkpt><trkpt lat="46.0176055" lon="11.9004799"><ele>268.0</ele><time>2026-05-03T16:07:40.369Z</time></trkpt><trkpt lat="46.0175533" lon="11.9005534"><ele>268.0</ele><time>2026-05-03T16:07:43.369Z</time></trkpt><trkpt lat="46.0174416" lon="11.9005233"><ele>268.0</ele><time>2026-05-03T16:07:47.369Z</time></trkpt><trkpt lat="46.017342" lon="11.9004772"><ele>267.6</ele><time>2026-05-03T16:07:49.369Z</time></trkpt><trkpt lat="46.0172687" lon="11.9004366"><ele>267.20000000000005</ele><time>2026-05-03T16:07:51.37Z</time></trkpt><trkpt lat="46.0171853" lon="11.9004017"><ele>266.8</ele><time>2026-05-03T16:07:53.371Z</time></trkpt><trkpt lat="46.0170892" lon="11.9003651"><ele>266.40000000000003</ele><time>2026-05-03T16:07:55.37Z</time></trkpt><trkpt lat="46.0169956" lon="11.9002962"><ele>266.0</ele><time>2026-05-03T16:07:57.37Z</time></trkpt><trkpt lat="46.0169045" lon="11.9002141"><ele>266.0</ele><time>2026-05-03T16:07:59.37Z</time></trkpt><trkpt lat="46.0168154" lon="11.900109"><ele>266.0</ele><time>2026-05-03T16:08:01.37Z</time></trkpt><trkpt lat="46.0167325" lon="11.9000242"><ele>266.0</ele><time>2026-05-03T16:08:03.37Z</time></trkpt><trkpt lat="46.0166441" lon="11.8999368"><ele>266.0</ele><time>2026-05-03T16:08:05.37Z</time></trkpt><trkpt lat="46.016559" lon="11.8998722"><ele>266.0</ele><time>2026-05-03T16:08:07.37Z</time></trkpt><trkpt lat="46.0164511" lon="11.8998158"><ele>265.25</ele><time>2026-05-03T16:08:09.37Z</time></trkpt><trkpt lat="46.0163313" lon="11.8997698"><ele>264.5</ele><time>2026-05-03T16:08:11.37Z</time></trkpt><trkpt lat="46.016222" lon="11.8997504"><ele>263.75</ele><time>2026-05-03T16:08:13.37Z</time></trkpt><trkpt lat="46.0160975" lon="11.8997368"><ele>263.0</ele><time>2026-05-03T16:08:15.37Z</time></trkpt><trkpt lat="46.0159873" lon="11.899736"><ele>263.0</ele><time>2026-05-03T16:08:17.371Z</time></trkpt><trkpt lat="46.0158748" lon="11.8997323"><ele>263.0</ele><time>2026-05-03T16:08:19.37Z</time></trkpt><trkpt lat="46.0157036" lon="11.899724"><ele>263.0</ele><time>2026-05-03T16:08:22.37Z</time></trkpt><trkpt lat="46.0155927" lon="11.8997269"><ele>263.0</ele><time>2026-05-03T16:08:24.37Z</time></trkpt><trkpt lat="46.0154888" lon="11.8997333"><ele>262.8</ele><time>2026-05-03T16:08:26.37Z</time></trkpt><trkpt lat="46.0153892" lon="11.8997358"><ele>262.6</ele><time>2026-05-03T16:08:28.371Z</time></trkpt><trkpt lat="46.0152924" lon="11.8997452"><ele>262.4</ele><time>2026-05-03T16:08:30.37Z</time></trkpt><trkpt lat="46.0151965" lon="11.8997431"><ele>262.2</ele><time>2026-05-03T16:08:32.371Z</time></trkpt><trkpt lat="46.0150864" lon="11.8997587"><ele>262.0</ele><time>2026-05-03T16:08:34.371Z</time></trkpt><trkpt lat="46.014982" lon="11.8998309"><ele>261.8</ele><time>2026-05-03T16:08:36.37Z</time></trkpt><trkpt lat="46.0148692" lon="11.8998615"><ele>261.6</ele><time>2026-05-03T16:08:38.37Z</time></trkpt><trkpt lat="46.0148068" lon="11.8998468"><ele>261.40000000000003</ele><time>2026-05-03T16:08:39.37Z</time></trkpt><trkpt lat="46.014695" lon="11.8998004"><ele>261.2</ele><time>2026-05-03T16:08:41.37Z</time></trkpt><trkpt lat="46.0145834" lon="11.8997606"><ele>261.0</ele><time>2026-05-03T16:08:43.37Z</time></trkpt><trkpt lat="46.0144711" lon="11.8997412"><ele>261.0</ele><time>2026-05-03T16:08:45.37Z</time></trkpt><trkpt lat="46.0143613" lon="11.8997349"><ele>261.0</ele><time>2026-05-03T16:08:47.37Z</time></trkpt><trkpt lat="46.0142457" lon="11.8997258"><ele>261.0</ele><time>2026-05-03T16:08:49.37Z</time></trkpt><trkpt lat="46.014139" lon="11.8997233"><ele>261.0</ele><time>2026-05-03T16:08:51.371Z</time></trkpt><trkpt lat="46.014046" lon="11.899716"><ele>261.0</ele><time>2026-05-03T16:08:53.371Z</time></trkpt><trkpt lat="46.0139503" lon="11.8997146"><ele>260.8333333333333</ele><time>2026-05-03T16:08:55.37Z</time></trkpt><trkpt lat="46.0138792" lon="11.8997193"><ele>260.6666666666667</ele><time>2026-05-03T16:08:57.37Z</time></trkpt><trkpt lat="46.0138329" lon="11.8996227"><ele>260.5</ele><time>2026-05-03T16:09:00.371Z</time></trkpt><trkpt lat="46.0138421" lon="11.8995108"><ele>260.33333333333337</ele><time>2026-05-03T16:09:02.371Z</time></trkpt><trkpt lat="46.0138476" lon="11.899398"><ele>260.1666666666667</ele><time>2026-05-03T16:09:04.371Z</time></trkpt><trkpt lat="46.0138498" lon="11.899301"><ele>260.0</ele><time>2026-05-03T16:09:06.371Z</time></trkpt><trkpt lat="46.0138792" lon="11.8991792"><ele>260.0</ele><time>2026-05-03T16:09:52.371Z</time></trkpt><trkpt lat="46.0139005" lon="11.8992665"><ele>260.0</ele><time>2026-05-03T16:10:04.372Z</time></trkpt><trkpt lat="46.0138592" lon="11.8991821"><ele>260.0</ele><time>2026-05-03T16:10:31.439Z</time></trkpt><trkpt lat="46.0138052" lon="11.8991064"><ele>260.0</ele><time>2026-05-03T16:10:55.442Z</time></trkpt></trkseg></trk></gpx>